Provisional Data: Hunts Run near Cameron, PA


Please select a monitoring station.
Please select start date.
Please select start date.

Toggle Unit: C/F Toggle Unit: C/F
Sample Time Temperature (C) Temperature (F) Specific Conductivity (mS/cm) pH   Turbidity (NTU+) DO (mg/L)
8/9/2021 12:00:00 AM 18.01 64.418 0.036 6.19 2.72 8.96
8/9/2021 12:15:00 AM 17.97 64.346 0.036 6.18 2.88 8.99
8/9/2021 12:30:00 AM 17.93 64.274 0.036 6.2 2.66 9
8/9/2021 12:45:00 AM 17.9 64.22 0.036 6.2 2.63 9.02
8/9/2021 1:00:00 AM 17.86 64.148 0.036 6.2 2.81 9.02
8/9/2021 1:15:00 AM 17.82 64.076 0.036 6.19 2.94 9.02
8/9/2021 1:30:00 AM 17.79 64.022 0.036 6.2 2.89 9.02
8/9/2021 1:45:00 AM 17.75 63.95 0.036 6.18 2.8 9.02
8/9/2021 2:00:00 AM 17.72 63.896 0.036 6.2 2.82 9.06
8/9/2021 2:15:00 AM 17.69 63.842 0.036 6.22 2.61 9.04
8/9/2021 2:30:00 AM 17.65 63.77 0.036 6.21 2.92 9.06
8/9/2021 2:45:00 AM 17.63 63.734 0.036 6.19 2.8 9.05
8/9/2021 3:00:00 AM 17.59 63.662 0.036 6.2 3.1 9.06
8/9/2021 3:15:00 AM 17.57 63.626 0.036 6.19 2.94 9.07
8/9/2021 3:30:00 AM 17.54 63.572 0.036 6.2 2.8 9.08
8/9/2021 3:45:00 AM 17.52 63.536 0.036 6.2 2.77 9.08
8/9/2021 4:00:00 AM 17.48 63.464 0.036 6.21 2.82 9.09
8/9/2021 4:15:00 AM 17.46 63.428 0.036 6.21 2.88 9.11
8/9/2021 4:30:00 AM 17.43 63.374 0.036 6.2 2.96 9.09
8/9/2021 4:45:00 AM 17.41 63.338 0.036 6.16 2.62 9.06
8/9/2021 5:00:00 AM 17.38 63.284 0.036 6.2 2.68 9.09
8/9/2021 5:15:00 AM 17.36 63.248 0.036 6.19 2.95 9.11
8/9/2021 5:30:00 AM 17.33 63.194 0.036 6.21 2.73 9.11
8/9/2021 5:45:00 AM 17.31 63.158 0.036 6.19 2.84 9.11
8/9/2021 6:00:00 AM 17.29 63.122 0.036 6.22 2.94 9.16
8/9/2021 6:15:00 AM 17.27 63.086 0.036 6.2 3.27 9.15
8/9/2021 6:30:00 AM 17.25 63.05 0.036 6.21 2.89 9.15
8/9/2021 6:45:00 AM 17.23 63.014 0.036 6.2 2.93 9.14
8/9/2021 7:00:00 AM 17.21 62.978 0.036 6.22 2.68 9.21
8/9/2021 7:15:00 AM 17.2 62.96 0.036 6.23 2.76 9.24
8/9/2021 7:30:00 AM 17.19 62.942 0.036 6.21 2.81 9.23
8/9/2021 7:45:00 AM 17.19 62.942 0.036 6.23 2.78 9.28
8/9/2021 8:00:00 AM 17.19 62.942 0.035 6.26 2.86 9.33
8/9/2021 8:15:00 AM 17.21 62.978 0.036 6.24 2.71 9.32
8/9/2021 8:30:00 AM 17.22 62.996 0.035 6.28 2.74 9.4
8/9/2021 8:45:00 AM 17.24 63.032 0.035 6.27 2.9 9.43
8/9/2021 9:00:00 AM 17.27 63.086 0.035 6.32 2.85 9.47
8/9/2021 9:15:00 AM 17.29 63.122 0.035 6.32 3.03 9.49
8/9/2021 9:30:00 AM 17.32 63.176 0.035 6.31 3.06 9.47
8/9/2021 9:45:00 AM 17.38 63.284 0.035 6.33 2.95 9.52
8/9/2021 10:00:00 AM 17.45 63.41 0.035 6.33 2.85 9.53
8/9/2021 10:15:00 AM 17.53 63.554 0.035 6.35 2.8 9.55
8/9/2021 10:30:00 AM 17.62 63.716 0.035 6.38 2.84 9.58
8/9/2021 10:45:00 AM 17.69 63.842 0.035 6.39 2.88 9.59
8/9/2021 11:00:00 AM 17.76 63.968 0.035 6.4 2.65 9.59
8/9/2021 11:15:00 AM 17.82 64.076 0.035 6.41 2.66 9.58
8/9/2021 11:30:00 AM 17.88 64.184 0.035 6.4 2.8 9.56
8/9/2021 11:45:00 AM 17.99 64.382 0.035 6.41 2.66 9.53
8/9/2021 12:00:00 PM 18.13 64.634 0.035 6.44 2.73 9.52
8/9/2021 12:15:00 PM 18.27 64.886 0.035 6.46 2.92 9.52
8/9/2021 12:30:00 PM 18.43 65.174 0.035 6.47 2.81 9.5
8/9/2021 12:45:00 PM 18.59 65.462 0.035 6.44 2.78 9.46
8/9/2021 1:00:00 PM 18.8 65.84 0.035 6.5 2.73 9.47
8/9/2021 1:15:00 PM 18.99 66.182 0.035 6.51 3.79 9.44
8/9/2021 1:30:00 PM 19.22 66.596 0.035 6.53 2.63 9.43
8/9/2021 1:45:00 PM 19.39 66.902 0.035 6.54 2.69 9.4
8/9/2021 2:00:00 PM 19.59 67.262 0.035 6.53 2.53 9.36
8/9/2021 2:15:00 PM 19.79 67.622 0.035 6.55 2.65 9.32
8/9/2021 2:30:00 PM 19.97 67.946 0.035 6.56 2.59 9.32
8/9/2021 2:45:00 PM 20.06 68.108 0.035 6.54 2.81 9.3
8/9/2021 3:00:00 PM 20.15 68.27 0.035 6.54 2.78 9.28
8/9/2021 3:15:00 PM 20.2 68.36 0.035 6.54 2.57 9.27
8/9/2021 3:30:00 PM 20.14 68.252 0.035 6.53 2.67 9.22
8/9/2021 3:45:00 PM 20.08 68.144 0.035 6.54 2.82 9.21
8/9/2021 4:00:00 PM 20.06 68.108 0.035 6.51 2.54 9.16
8/9/2021 4:15:00 PM 20.05 68.09 0.035 6.5 2.62 9.15
8/9/2021 4:30:00 PM 19.95 67.91 0.035 6.47 2.55 9.09
8/9/2021 4:45:00 PM 19.87 67.766 0.035 6.45 2.79 9.08
8/9/2021 5:00:00 PM 19.84 67.712 0.035 6.43 2.73 9.07
8/9/2021 5:15:00 PM 19.79 67.622 0.035 6.41 2.67 9.05
8/9/2021 5:30:00 PM 19.75 67.55 0.035 6.41 2.76 9.05
8/9/2021 5:45:00 PM 19.71 67.478 0.035 6.36 2.7 9
8/9/2021 6:00:00 PM 19.69 67.442 0.035 6.37 2.76 8.96
8/9/2021 6:15:00 PM 19.67 67.406 0.035 6.34 2.75 8.93
8/9/2021 6:30:00 PM 19.64 67.352 0.035 6.32 2.59 8.91
8/9/2021 6:45:00 PM 19.62 67.316 0.035 6.36 2.59 8.9
8/9/2021 7:00:00 PM 19.58 67.244 0.036 6.31 3.06 8.86
8/9/2021 7:15:00 PM 19.54 67.172 0.036 6.32 2.62 8.85
8/9/2021 7:30:00 PM 19.51 67.118 0.036 6.3 2.44 8.81
8/9/2021 7:45:00 PM 19.47 67.046 0.036 6.27 2.86 8.78
8/9/2021 8:00:00 PM 19.42 66.956 0.036 6.27 2.64 8.78
8/9/2021 8:15:00 PM 19.37 66.866 0.036 6.26 2.63 8.75
8/9/2021 8:30:00 PM 19.31 66.758 0.036 6.24 2.63 8.75
8/9/2021 8:45:00 PM 19.27 66.686 0.036 6.21 2.74 8.71
8/9/2021 9:00:00 PM 19.22 66.596 0.036 6.21 2.6 8.71
8/9/2021 9:15:00 PM 19.18 66.524 0.036 6.19 2.74 8.7
8/9/2021 9:30:00 PM 19.14 66.452 0.036 6.19 2.67 8.67
8/9/2021 9:45:00 PM 19.09 66.362 0.036 6.19 2.65 8.7
8/9/2021 10:00:00 PM 19.06 66.308 0.036 6.18 2.9 8.71
8/9/2021 10:15:00 PM 19.01 66.218 0.036 6.2 3.08 8.73
8/9/2021 10:30:00 PM 18.98 66.164 0.036 6.2 2.63 8.74
8/9/2021 10:45:00 PM 18.94 66.092 0.036 6.2 2.75 8.72
8/9/2021 11:00:00 PM 18.89 66.002 0.036 6.2 2.64 8.75
8/9/2021 11:15:00 PM 18.85 65.93 0.036 6.2 2.74 8.77
8/9/2021 11:30:00 PM 18.81 65.858 0.036 6.18 2.68 8.73
8/9/2021 11:45:00 PM 18.76 65.768 0.036 6.21 2.72 8.8
8/10/2021 12:00:00 AM 18.72 65.696 0.036 6.21 2.56 8.8
8/10/2021 12:15:00 AM 18.68 65.624 0.037 6.19 2.62 8.79
8/10/2021 12:30:00 AM 18.64 65.552 0.036 6.21 2.7 8.81
8/10/2021 12:45:00 AM 18.61 65.498 0.037 6.22 2.78 8.82
8/10/2021 1:00:00 AM 18.58 65.444 0.036 6.21 3.04 8.83
8/10/2021 1:15:00 AM 18.55 65.39 0.036 6.22 2.76 8.83
8/10/2021 1:30:00 AM 18.51 65.318 0.036 6.21 2.78 8.83
8/10/2021 1:45:00 AM 18.48 65.264 0.036 6.21 3.19 8.83
8/10/2021 2:00:00 AM 18.43 65.174 0.036 6.23 2.88 8.83
8/10/2021 2:15:00 AM 18.41 65.138 0.036 6.2 2.68 8.83
8/10/2021 2:30:00 AM 18.38 65.084 0.037 6.2 3.36 8.84
8/10/2021 2:45:00 AM 18.35 65.03 0.036 6.21 2.72 8.87
8/10/2021 3:00:00 AM 18.33 64.994 0.036 6.2 2.72 8.85
8/10/2021 3:15:00 AM 18.3 64.94 0.036 6.22 3.34 8.87
8/10/2021 3:30:00 AM 18.27 64.886 0.036 6.22 2.82 8.89
8/10/2021 3:45:00 AM 18.25 64.85 0.036 6.21 2.85 8.89
8/10/2021 4:00:00 AM 18.22 64.796 0.036 6.22 2.68 8.92
8/10/2021 4:15:00 AM 18.2 64.76 0.036 6.21 2.89 8.9
8/10/2021 4:30:00 AM 18.17 64.706 0.036 6.23 2.71 8.93
8/10/2021 4:45:00 AM 18.16 64.688 0.036 6.22 2.82 8.94
8/10/2021 5:00:00 AM 18.15 64.67 0.036 6.2 2.91 8.88
8/10/2021 5:15:00 AM 18.14 64.652 0.036 6.2 2.99 8.87
8/10/2021 5:30:00 AM 18.12 64.616 0.036 6.19 2.92 8.85
8/10/2021 5:45:00 AM 18.09 64.562 0.036 6.19 3.02 8.88
8/10/2021 6:00:00 AM 18.06 64.508 0.036 6.19 2.93 8.91
8/10/2021 6:15:00 AM 18.04 64.472 0.037 6.19 3 8.89
8/10/2021 6:30:00 AM 18.01 64.418 0.037 6.18 3.2 8.91
8/10/2021 6:45:00 AM 17.99 64.382 0.037 6.19 3.11 8.94
8/10/2021 7:00:00 AM 17.98 64.364 0.037 6.2 2.93 8.94
8/10/2021 7:15:00 AM 17.97 64.346 0.037 6.19 2.88 8.98
8/10/2021 7:30:00 AM 17.97 64.346 0.037 6.2 2.74 9.02
8/10/2021 7:45:00 AM 17.97 64.346 0.037 6.23 2.84 9.04
8/10/2021 8:00:00 AM 17.97 64.346 0.037 6.22 2.85 9.07
8/10/2021 8:15:00 AM 17.97 64.346 0.037 6.24 3.55 9.11
8/10/2021 8:30:00 AM 17.97 64.346 0.037 6.23 2.91 9.09
8/10/2021 8:45:00 AM 17.99 64.382 0.037 6.25 3.07 9.18
8/10/2021 9:00:00 AM 18.01 64.418 0.037 6.26 2.76 9.21
8/10/2021 9:15:00 AM 18.07 64.526 0.036 6.28 2.81 9.3
8/10/2021 9:30:00 AM 18.12 64.616 0.036 6.3 2.76 9.31
8/10/2021 9:45:00 AM 18.16 64.688 0.036 6.32 2.85 9.34
8/10/2021 10:00:00 AM 18.17 64.706 0.036 6.31 2.75 9.31
8/10/2021 10:15:00 AM 18.19 64.742 0.036 6.32 2.87 9.29
8/10/2021 10:30:00 AM 18.21 64.778 0.036 6.34 2.69 9.32
8/10/2021 10:45:00 AM 18.25 64.85 0.036 6.35 3.24 9.36
8/10/2021 11:00:00 AM 18.32 64.976 0.036 6.39 2.81 9.4
8/10/2021 11:15:00 AM 18.4 65.12 0.036 6.41 2.83 9.42
8/10/2021 11:30:00 AM 18.52 65.336 0.036 6.42 2.73 9.43
8/10/2021 11:45:00 AM 18.63 65.534 0.036 6.45 3.1 9.42
8/10/2021 12:00:00 PM 18.76 65.768 0.036 6.47 2.99 9.43
8/10/2021 12:15:00 PM 18.88 65.984 0.036 6.49 2.58 9.41
8/10/2021 12:30:00 PM 18.94 66.092 0.036 6.48 2.71 9.4
8/10/2021 12:45:00 PM 18.94 66.092 0.036 6.49 2.57 9.31
8/10/2021 1:00:00 PM 18.9 66.02 0.036 6.45 2.75 9.21
8/10/2021 1:15:00 PM 18.88 65.984 0.036 6.4 2.63 9.17
8/10/2021 1:30:00 PM 18.91 66.038 0.036 6.41 2.48 9.2
8/10/2021 1:45:00 PM 18.9 66.02 0.036 6.4 2.74 9.15
8/10/2021 2:00:00 PM 18.86 65.948 0.036 6.38 2.9 9.07
8/10/2021 2:15:00 PM 18.88 65.984 0.036 6.37 3.02 9.09
8/10/2021 2:30:00 PM 18.97 66.146 0.036 6.39 3.03 9.15
8/10/2021 2:45:00 PM 19.12 66.416 0.036 6.43 2.81 9.28
8/10/2021 3:00:00 PM 19.3 66.74 0.036 6.46 2.89 9.33
8/10/2021 3:15:00 PM 19.4 66.92 0.036 6.48 2.87 9.34
8/10/2021 3:30:00 PM 19.38 66.884 0.036 6.47 2.76 9.21
8/10/2021 3:45:00 PM 19.33 66.794 0.036 6.44 2.88 9.12
8/10/2021 4:00:00 PM 19.39 66.902 0.036 6.41 2.84 9.14
8/10/2021 4:15:00 PM 19.46 67.028 0.036 6.44 2.88 9.18
8/10/2021 4:30:00 PM 19.48 67.064 0.036 6.45 2.91 9.16
8/10/2021 4:45:00 PM 19.45 67.01 0.036 6.44 3.3 9.13
8/10/2021 5:00:00 PM 19.47 67.046 0.036 6.44 3.46 9.14
8/10/2021 5:15:00 PM 19.45 67.01 0.036 6.41 4.09 9.11
8/10/2021 5:30:00 PM 19.41 66.938 0.036 6.4 4.85 9.05
8/10/2021 5:45:00 PM 19.38 66.884 0.036 6.36 4.68 8.99
8/10/2021 6:00:00 PM 19.35 66.83 0.037 6.36 4.14 8.97
8/10/2021 6:15:00 PM 19.31 66.758 0.037 6.35 3.82 8.95
8/10/2021 6:30:00 PM 19.29 66.722 0.037 6.33 3.5 8.9
8/10/2021 6:45:00 PM 19.3 66.74 0.037 6.33 3.23 8.86
8/10/2021 7:00:00 PM 19.28 66.704 0.037 6.33 3.11 8.89
8/10/2021 7:15:00 PM 19.25 66.65 0.037 6.33 3.62 8.88
8/10/2021 7:30:00 PM 19.23 66.614 0.037 6.3 3.02 8.83
8/10/2021 7:45:00 PM 19.21 66.578 0.037 6.31 2.74 8.81
8/10/2021 8:00:00 PM 19.19 66.542 0.037 6.31 3.17 8.78
8/10/2021 8:15:00 PM 19.16 66.488 0.037 6.29 2.99 8.77
8/10/2021 8:30:00 PM 19.11 66.398 0.037 6.29 3.68 8.77
8/10/2021 8:45:00 PM 19.08 66.344 0.037 6.28 2.91 8.75
8/10/2021 9:00:00 PM 19.04 66.272 0.037 6.28 2.92 8.77
8/10/2021 9:15:00 PM 19.01 66.218 0.037 6.26 3.55 8.76
8/10/2021 9:30:00 PM 18.97 66.146 0.037 6.25 2.98 8.75
8/10/2021 9:45:00 PM 18.94 66.092 0.037 6.25 4.02 8.79
8/10/2021 10:00:00 PM 18.91 66.038 0.037 6.24 3.07 8.8
8/10/2021 10:15:00 PM 18.89 66.002 0.037 6.25 2.81 8.79
8/10/2021 10:30:00 PM 18.86 65.948 0.037 6.25 3.08 8.79
8/10/2021 10:45:00 PM 18.84 65.912 0.037 6.25 3.01 8.79
8/10/2021 11:00:00 PM 18.82 65.876 0.037 6.26 3.14 8.82
8/10/2021 11:15:00 PM 18.8 65.84 0.037 6.27 3.21 8.82
8/10/2021 11:30:00 PM 18.77 65.786 0.037 6.27 3 8.83
8/10/2021 11:45:00 PM 18.75 65.75 0.037 6.25 2.98 8.83
8/11/2021 12:00:00 AM 18.72 65.696 0.037 6.24 3.13 8.82
8/11/2021 12:15:00 AM 18.69 65.642 0.037 6.23 2.8 8.81
8/11/2021 12:30:00 AM 18.67 65.606 0.037 6.23 3.04 8.83
8/11/2021 12:45:00 AM 18.64 65.552 0.037 6.21 3.39 8.82
8/11/2021 1:00:00 AM 18.62 65.516 0.037 6.22 3.03 8.83
8/11/2021 1:15:00 AM 18.6 65.48 0.037 6.22 2.89 8.82
8/11/2021 1:30:00 AM 18.57 65.426 0.037 6.24 2.91 8.87
8/11/2021 1:45:00 AM 18.54 65.372 0.037 6.21 3.06 8.85
8/11/2021 2:00:00 AM 18.52 65.336 0.037 6.22 2.78 8.87
8/11/2021 2:15:00 AM 18.49 65.282 0.037 6.23 2.99 8.88
8/11/2021 2:30:00 AM 18.46 65.228 0.037 6.23 3.02 8.87
8/11/2021 2:45:00 AM 18.44 65.192 0.037 6.22 2.93 8.88
8/11/2021 3:00:00 AM 18.42 65.156 0.037 6.21 2.88 8.88
8/11/2021 3:15:00 AM 18.4 65.12 0.037 6.23 3.58 8.9
8/11/2021 3:30:00 AM 18.39 65.102 0.037 6.23 2.9 8.88
8/11/2021 3:45:00 AM 18.37 65.066 0.037 6.23 3.08 8.89
8/11/2021 4:00:00 AM 18.35 65.03 0.037 6.21 2.91 8.87
8/11/2021 4:15:00 AM 18.34 65.012 0.037 6.24 3.14 8.91
8/11/2021 4:30:00 AM 18.32 64.976 0.037 6.22 3.54 8.88
8/11/2021 4:45:00 AM 18.31 64.958 0.037 6.23 2.98 8.91
8/11/2021 5:00:00 AM 18.29 64.922 0.037 6.26 3.47 8.92
8/11/2021 5:15:00 AM 18.28 64.904 0.037 6.23 2.85 8.88
8/11/2021 5:30:00 AM 18.27 64.886 0.037 6.24 3.15 8.92
8/11/2021 5:45:00 AM 18.26 64.868 0.037 6.25 3.13 8.91
8/11/2021 6:00:00 AM 18.24 64.832 0.037 6.21 3.09 8.88
8/11/2021 6:15:00 AM 18.23 64.814 0.037 6.22 3.04 8.91
8/11/2021 6:30:00 AM 18.21 64.778 0.037 6.21 2.97 8.89
8/11/2021 6:45:00 AM 18.2 64.76 0.037 6.2 2.99 8.88
8/11/2021 7:00:00 AM 18.2 64.76 0.037 6.19 2.92 8.92
8/11/2021 7:15:00 AM 18.2 64.76 0.037 6.21 2.83 8.95
8/11/2021 7:30:00 AM 18.2 64.76 0.037 6.22 2.7 9.02
8/11/2021 7:45:00 AM 18.21 64.778 0.037 6.21 2.98 8.99
8/11/2021 8:00:00 AM 18.2 64.76 0.037 6.22 2.97 9.02
8/11/2021 8:15:00 AM 18.21 64.778 0.037 6.23 2.9 9.02
8/11/2021 8:30:00 AM 18.21 64.778 0.037 6.2 2.86 9.02
8/11/2021 8:45:00 AM 18.22 64.796 0.037 6.23 2.89 9.06
8/11/2021 9:00:00 AM 18.23 64.814 0.037 6.23 2.8 9.08
8/11/2021 9:15:00 AM 18.25 64.85 0.037 6.25 2.92 9.13
8/11/2021 9:30:00 AM 18.28 64.904 0.037 6.22 2.78 9.14
8/11/2021 9:45:00 AM 18.31 64.958 0.037 6.25 3.54 9.18
8/11/2021 10:00:00 AM 18.32 64.976 0.037 6.24 3.46 9.15
8/11/2021 10:15:00 AM 18.34 65.012 0.037 6.27 2.65 9.16
8/11/2021 10:30:00 AM 18.36 65.048 0.037 6.26 2.83 9.1
8/11/2021 10:45:00 AM 18.41 65.138 0.037 6.28 2.74 9.16
8/11/2021 11:00:00 AM 18.46 65.228 0.037 6.33 2.89 9.24
8/11/2021 11:15:00 AM 18.55 65.39 0.036 6.36 2.98 9.3
8/11/2021 11:30:00 AM 18.62 65.516 0.036 6.37 2.84 9.28
8/11/2021 11:45:00 AM 18.66 65.588 0.036 6.41 2.85 9.26
8/11/2021 12:00:00 PM 18.74 65.732 0.037 6.42 2.84 9.28
8/11/2021 12:15:00 PM 18.86 65.948 0.037 6.45 2.92 9.32
8/11/2021 12:30:00 PM 19.01 66.218 0.038 6.46 3.06 9.32
8/11/2021 12:45:00 PM 19.19 66.542 0.038 6.5 2.72 9.35
8/11/2021 1:00:00 PM 19.35 66.83 0.037 6.54 2.95 9.33
8/11/2021 1:15:00 PM 19.45 67.01 0.037 6.52 2.74 9.24
8/11/2021 1:30:00 PM 19.63 67.334 0.037 6.53 2.62 9.26
8/11/2021 1:45:00 PM 19.81 67.658 0.036 6.55 2.86 9.23
8/11/2021 2:00:00 PM 20.04 68.07201 0.036 6.55 2.83 9.21
8/11/2021 2:15:00 PM 20.27 68.486 0.036 6.57 2.82 9.22
8/11/2021 2:30:00 PM 20.44 68.792 0.036 6.58 2.76 9.16
8/11/2021 2:45:00 PM 20.52 68.936 0.036 6.58 2.86 9.15
8/11/2021 3:00:00 PM 20.6 69.08 0.036 6.58 2.55 9.12
8/11/2021 3:15:00 PM 20.7 69.26 0.036 6.58 2.75 9.08
8/11/2021 3:30:00 PM 20.71 69.278 0.036 6.56 2.63 9.08
8/11/2021 3:45:00 PM 20.64 69.152 0.036 6.55 2.96 8.99
8/11/2021 4:00:00 PM 20.54 68.972 0.036 6.54 2.69 8.97
8/11/2021 4:15:00 PM 20.48 68.864 0.036 6.52 2.66 8.96
8/11/2021 4:30:00 PM 20.41 68.738 0.036 6.5 2.83 8.95
8/11/2021 4:45:00 PM 20.34 68.612 0.036 6.49 2.75 8.97
8/11/2021 5:00:00 PM 20.3 68.54 0.036 6.47 2.85 8.92
8/11/2021 5:15:00 PM 20.26 68.468 0.036 6.48 2.77 8.93
8/11/2021 5:30:00 PM 20.21 68.378 0.036 6.47 2.63 8.94
8/11/2021 5:45:00 PM 20.17 68.306 0.036 6.43 2.71 8.83
8/11/2021 6:00:00 PM 20.11 68.198 0.036 6.4 2.79 8.79
8/11/2021 6:15:00 PM 20.05 68.09 0.036 6.39 2.82 8.8
8/11/2021 6:30:00 PM 20.02 68.036 0.037 6.4 2.74 8.77
8/11/2021 6:45:00 PM 19.97 67.946 0.037 6.38 2.76 8.75
8/11/2021 7:00:00 PM 19.92 67.856 0.037 6.35 2.71 8.67
8/11/2021 7:15:00 PM 19.86 67.748 0.037 6.33 2.7 8.68
8/11/2021 7:30:00 PM 19.82 67.676 0.037 6.33 2.64 8.68
8/11/2021 7:45:00 PM 19.77 67.586 0.037 6.31 2.76 8.65
8/11/2021 8:00:00 PM 19.73 67.514 0.037 6.31 2.71 8.63
8/11/2021 8:15:00 PM 19.67 67.406 0.037 6.28 2.88 8.65
8/11/2021 8:30:00 PM 19.63 67.334 0.037 6.28 2.79 8.62
8/11/2021 8:45:00 PM 19.58 67.244 0.037 6.27 2.73 8.62
8/11/2021 9:00:00 PM 19.54 67.172 0.037 6.26 2.88 8.62
8/11/2021 9:15:00 PM 19.51 67.118 0.037 6.27 2.68 8.62
8/11/2021 9:30:00 PM 19.47 67.046 0.037 6.27 5.28 8.63
8/11/2021 9:45:00 PM 19.44 66.992 0.037 6.27 2.97 8.63
8/11/2021 10:00:00 PM 19.39 66.902 0.037 6.27 3.14 8.64
8/11/2021 10:15:00 PM 19.34 66.812 0.037 6.27 3 8.65
8/11/2021 10:30:00 PM 19.3 66.74 0.037 6.27 3.13 8.65
8/11/2021 10:45:00 PM 19.25 66.65 0.037 6.27 2.92 8.66
8/11/2021 11:00:00 PM 19.21 66.578 0.037 6.25 2.88 8.65
8/11/2021 11:15:00 PM 19.17 66.506 0.037 6.25 2.82 8.66
8/11/2021 11:30:00 PM 19.13 66.434 0.037 6.24 2.82 8.67
8/11/2021 11:45:00 PM 19.1 66.38 0.037 6.28 2.89 8.69
8/12/2021 12:00:00 AM 19.07 66.326 0.037 6.24 2.83 8.66
8/12/2021 12:15:00 AM 19.04 66.272 0.037 6.26 2.7 8.7
8/12/2021 12:30:00 AM 19 66.2 0.037 6.27 2.83 8.71
8/12/2021 12:45:00 AM 18.97 66.146 0.037 6.27 2.69 8.71
8/12/2021 1:00:00 AM 18.92 66.056 0.037 6.25 2.9 8.73
8/12/2021 1:15:00 AM 18.89 66.002 0.037 6.27 2.99 8.74
8/12/2021 1:30:00 AM 18.85 65.93 0.037 6.24 2.84 8.74
8/12/2021 1:45:00 AM 18.81 65.858 0.037 6.26 2.74 8.71
8/12/2021 2:00:00 AM 18.77 65.786 0.037 6.26 2.8 8.78
8/12/2021 2:15:00 AM 18.74 65.732 0.037 6.24 2.79 8.74
8/12/2021 2:30:00 AM 18.7 65.66 0.037 6.26 2.72 8.76
8/12/2021 2:45:00 AM 18.67 65.606 0.037 6.25 2.7 8.76
8/12/2021 3:00:00 AM 18.64 65.552 0.037 6.26 2.55 8.78
8/12/2021 3:15:00 AM 18.62 65.516 0.037 6.26 3.09 8.75
8/12/2021 3:30:00 AM 18.59 65.462 0.037 6.26 3.06 8.78
8/12/2021 3:45:00 AM 18.56 65.408 0.037 6.25 2.78 8.75
8/12/2021 4:00:00 AM 18.53 65.354 0.037 6.25 2.52 8.78
8/12/2021 4:15:00 AM 18.51 65.318 0.037 6.25 2.56 8.77
8/12/2021 4:30:00 AM 18.47 65.246 0.037 6.26 2.78 8.81
8/12/2021 4:45:00 AM 18.45 65.21 0.037 6.25 2.91 8.79
8/12/2021 5:00:00 AM 18.42 65.156 0.037 6.24 3.02 8.81
8/12/2021 5:15:00 AM 18.39 65.102 0.037 6.27 2.61 8.83
8/12/2021 5:30:00 AM 18.36 65.048 0.037 6.26 2.76 8.85
8/12/2021 5:45:00 AM 18.33 64.994 0.037 6.25 2.9 8.8
8/12/2021 6:00:00 AM 18.3 64.94 0.037 6.24 2.84 8.81
8/12/2021 6:15:00 AM 18.26 64.868 0.037 6.22 2.75 8.82
8/12/2021 6:30:00 AM 18.24 64.832 0.037 6.25 2.74 8.84
8/12/2021 6:45:00 AM 18.21 64.778 0.037 6.25 2.69 8.88
8/12/2021 7:00:00 AM 18.19 64.742 0.037 6.27 2.71 8.9
8/12/2021 7:15:00 AM 18.18 64.724 0.037 6.26 2.98 8.9
8/12/2021 7:30:00 AM 18.16 64.688 0.037 6.25 2.61 8.93
8/12/2021 7:45:00 AM 18.15 64.67 0.037 6.27 2.76 8.96
8/12/2021 8:00:00 AM 18.14 64.652 0.037 6.29 2.93 9.01
8/12/2021 8:15:00 AM 18.14 64.652 0.037 6.3 2.75 9.05
8/12/2021 8:30:00 AM 18.15 64.67 0.037 6.3 2.78 9.04
8/12/2021 8:45:00 AM 18.17 64.706 0.037 6.3 2.7 9.04
8/12/2021 9:00:00 AM 18.2 64.76 0.037 6.33 2.63 9.12
8/12/2021 9:15:00 AM 18.24 64.832 0.037 6.33 2.61 9.11
8/12/2021 9:30:00 AM 18.29 64.922 0.037 6.34 2.6 9.11
8/12/2021 9:45:00 AM 18.36 65.048 0.037 6.36 3.29 9.16
8/12/2021 10:00:00 AM 18.46 65.228 0.037 6.38 2.79 9.15
8/12/2021 10:15:00 AM 18.55 65.39 0.037 6.4 2.71 9.21
8/12/2021 10:30:00 AM 18.65 65.57 0.037 6.42 2.83 9.25
8/12/2021 10:45:00 AM 18.76 65.768 0.037 6.45 2.98 9.25
8/12/2021 11:00:00 AM 18.87 65.966 0.037 6.46 2.68 9.25
8/12/2021 11:15:00 AM 18.99 66.182 0.036 6.5 2.69 9.29
8/12/2021 11:30:00 AM 19.11 66.398 0.036 6.49 2.72 9.28
8/12/2021 11:45:00 AM 19.19 66.542 0.036 6.49 2.61 9.27
8/12/2021 12:00:00 PM 19.28 66.704 0.036 6.52 2.85 9.26
8/12/2021 12:15:00 PM 19.39 66.902 0.036 6.51 2.72 9.27
8/12/2021 12:30:00 PM 19.43 66.974 0.036 6.51 3.32 9.15
8/12/2021 12:45:00 PM 19.43 66.974 0.036 6.46 3.79 9.04
8/12/2021 1:00:00 PM 19.55 67.19 0.036 6.47 3.66 9.1
8/12/2021 1:15:00 PM 19.75 67.55 0.036 6.49 3.17 9.13
8/12/2021 1:30:00 PM 19.85 67.73 0.036 6.52 3.07 9.17
8/12/2021 1:45:00 PM 19.91 67.838 0.036 6.54 3.31 9.17
8/12/2021 2:00:00 PM 20.07 68.126 0.036 6.54 3.19 9.17
8/12/2021 2:15:00 PM 20.27 68.486 0.036 6.54 3.29 9.15
8/12/2021 2:30:00 PM 20.38 68.684 0.036 6.54 3.93 9.11
8/12/2021 2:45:00 PM 20.46 68.828 0.036 6.53 4.26 9.07
8/12/2021 3:00:00 PM 20.5 68.9 0.036 6.51 5.04 9.01
8/12/2021 3:15:00 PM 20.61 69.098 0.036 6.56 6.01 9.06
8/12/2021 3:30:00 PM 20.68 69.224 0.036 6.58 9.46 9.05
8/12/2021 3:45:00 PM 20.69 69.242 0.036 6.56 12.61 8.97
8/12/2021 4:00:00 PM 20.61 69.098 0.036 6.51 13.4 8.91
8/12/2021 4:15:00 PM 20.48 68.864 0.036 6.51 10.66 8.86
8/12/2021 4:30:00 PM 20.41 68.738 0.036 6.48 8.98 8.85
8/12/2021 4:45:00 PM 20.36 68.648 0.036 6.46 9.18 8.88
8/12/2021 5:00:00 PM 20.37 68.666 0.035 6.45 8.97 8.91
8/12/2021 5:15:00 PM 20.38 68.684 0.035 6.46 9.54 8.91
8/12/2021 5:30:00 PM 20.39 68.702 0.036 6.47 11.86 8.87
8/12/2021 5:45:00 PM 20.39 68.702 0.036 6.46 14.42 8.83
8/12/2021 6:00:00 PM 20.36 68.648 0.037 6.43 14.01 8.75
8/12/2021 6:15:00 PM 20.33 68.594 0.037 6.42 12.11 8.71
8/12/2021 6:30:00 PM 20.27 68.486 0.037 6.4 9.01 8.69
8/12/2021 6:45:00 PM 20.23 68.414 0.037 6.35 6.72 8.63
8/12/2021 7:00:00 PM 20.17 68.306 0.037 6.34 5.57 8.64
8/12/2021 7:15:00 PM 20.12 68.216 0.037 6.32 5.95 8.63
8/12/2021 7:30:00 PM 20.07 68.126 0.037 6.31 4.96 8.63
8/12/2021 7:45:00 PM 20.02 68.036 0.037 6.27 5.49 8.63
8/12/2021 8:00:00 PM 19.98 67.964 0.037 6.28 5.25 8.63
8/12/2021 8:15:00 PM 19.96 67.92799 0.037 6.28 4.7 8.64
8/12/2021 8:30:00 PM 19.93 67.874 0.036 6.29 5.96 8.63
8/12/2021 8:45:00 PM 19.9 67.82 0.036 6.3 5.58 8.65
8/12/2021 9:00:00 PM 19.87 67.766 0.036 6.3 5.53 8.65
8/12/2021 9:15:00 PM 19.82 67.676 0.036 6.32 8.44 8.63
8/12/2021 9:30:00 PM 19.78 67.604 0.036 6.33 5.59 8.67
8/12/2021 9:45:00 PM 19.74 67.532 0.036 6.32 6.11 8.67
8/12/2021 10:00:00 PM 19.71 67.478 0.036 6.3 5.58 8.65
8/12/2021 10:15:00 PM 19.66 67.388 0.036 6.32 5.51 8.68
8/12/2021 10:30:00 PM 19.62 67.316 0.036 6.3 4.97 8.67
8/12/2021 10:45:00 PM 19.58 67.244 0.036 6.33 5.42 8.7
8/12/2021 11:00:00 PM 19.54 67.172 0.036 6.32 5.07 8.7
8/12/2021 11:15:00 PM 19.5 67.1 0.036 6.31 6.43 8.7
8/12/2021 11:30:00 PM 19.45 67.01 0.036 6.32 6.88 8.71
8/12/2021 11:45:00 PM 19.41 66.938 0.036 6.32 7.16 8.72
8/13/2021 12:00:00 AM 19.37 66.866 0.036 6.31 7.5 8.73
8/13/2021 12:15:00 AM 19.33 66.794 0.036 6.3 7.33 8.72
8/13/2021 12:30:00 AM 19.3 66.74 0.036 6.3 7.25 8.75
8/13/2021 12:45:00 AM 19.26 66.668 0.036 6.3 6.44 8.74
8/13/2021 1:00:00 AM 19.22 66.596 0.036 6.32 5.83 8.77
8/13/2021 1:15:00 AM 19.19 66.542 0.036 6.3 5.83 8.77
8/13/2021 1:30:00 AM 19.16 66.488 0.036 6.3 5.63 8.76
8/13/2021 1:45:00 AM 19.12 66.416 0.036 6.3 6.07 8.77
8/13/2021 2:00:00 AM 19.09 66.362 0.036 6.32 6.11 8.79
8/13/2021 2:15:00 AM 19.05 66.29 0.036 6.29 5.82 8.78
8/13/2021 2:30:00 AM 19.02 66.236 0.036 6.32 6.1 8.81
8/13/2021 2:45:00 AM 18.99 66.182 0.036 6.31 5.39 8.8
8/13/2021 3:00:00 AM 18.96 66.128 0.036 6.31 5.15 8.82
8/13/2021 3:15:00 AM 18.93 66.074 0.036 6.32 5.22 8.82
8/13/2021 3:30:00 AM 18.9 66.02 0.036 6.3 5.12 8.82
8/13/2021 3:45:00 AM 18.87 65.966 0.036 6.31 4.66 8.82
8/13/2021 4:00:00 AM 18.84 65.912 0.036 6.31 4.52 8.84
8/13/2021 4:15:00 AM 18.82 65.876 0.036 6.31 4.97 8.84
8/13/2021 4:30:00 AM 18.79 65.82201 0.036 6.32 5.11 8.86
8/13/2021 4:45:00 AM 18.76 65.768 0.036 6.33 4.67 8.87
8/13/2021 5:00:00 AM 18.74 65.732 0.036 6.33 4.52 8.87
8/13/2021 5:15:00 AM 18.72 65.696 0.036 6.3 4.31 8.86
8/13/2021 5:30:00 AM 18.69 65.642 0.036 6.31 4.39 8.88
8/13/2021 5:45:00 AM 18.67 65.606 0.036 6.31 4.49 8.88
8/13/2021 6:00:00 AM 18.64 65.552 0.036 6.32 4.89 8.9
8/13/2021 6:15:00 AM 18.62 65.516 0.036 6.32 4.41 8.89
8/13/2021 6:30:00 AM 18.6 65.48 0.036 6.31 4.03 8.9
8/13/2021 6:45:00 AM 18.58 65.444 0.036 6.31 4.4 8.91
8/13/2021 7:00:00 AM 18.56 65.408 0.036 6.31 3.98 8.93
8/13/2021 7:15:00 AM 18.54 65.372 0.036 6.3 4.05 8.93
8/13/2021 7:30:00 AM 18.53 65.354 0.036 6.33 3.9 8.96
8/13/2021 7:45:00 AM 18.52 65.336 0.036 6.33 3.8 8.99
8/13/2021 8:00:00 AM 18.52 65.336 0.036 6.34 4.18 9.02
8/13/2021 8:15:00 AM 18.53 65.354 0.036 6.35 3.76 9.05
8/13/2021 8:30:00 AM 18.54 65.372 0.036 6.33 3.63 9.07
8/13/2021 8:45:00 AM 18.54 65.372 0.036 6.36 3.78 9.1
8/13/2021 9:00:00 AM 18.57 65.426 0.036 6.37 3.75 9.14
8/13/2021 9:15:00 AM 18.58 65.444 0.036 6.36 4.1 9.11
8/13/2021 9:30:00 AM 18.6 65.48 0.036 6.37 3.65 9.1
8/13/2021 9:45:00 AM 18.64 65.552 0.036 6.39 3.81 9.12
8/13/2021 10:00:00 AM 18.7 65.66 0.036 6.41 3.48 9.15
8/13/2021 10:15:00 AM 18.75 65.75 0.036 6.38 3.32 9.13
8/13/2021 10:30:00 AM 18.81 65.858 0.036 6.4 3.58 9.15
8/13/2021 10:45:00 AM 18.87 65.966 0.036 6.37 3.42 9.12
8/13/2021 11:00:00 AM 18.94 66.092 0.036 6.4 3.43 9.12
8/13/2021 11:15:00 AM 19.03 66.254 0.036 6.42 3.37 9.14
8/13/2021 11:30:00 AM 19.14 66.452 0.036 6.43 3.59 9.14
8/13/2021 11:45:00 AM 19.28 66.704 0.036 6.48 3.5 9.22
8/13/2021 12:00:00 PM 19.38 66.884 0.036 6.48 3.3 9.23
8/13/2021 12:15:00 PM 19.49 67.082 0.036 6.5 3.58 9.24
8/13/2021 12:30:00 PM 19.54 67.172 0.035 6.51 3.08 9.25
8/13/2021 12:45:00 PM 19.56 67.208 0.035 6.53 3.52 9.25
8/13/2021 1:00:00 PM 19.57 67.226 0.035 6.53 3.88 9.22
8/13/2021 1:15:00 PM 19.6 67.28 0.035 6.51 3.25 9.21
8/13/2021 1:30:00 PM 19.68 67.424 0.036 6.51 3.08 9.2
8/13/2021 1:45:00 PM 19.78 67.604 0.035 6.52 3.32 9.21
8/13/2021 2:00:00 PM 19.92 67.856 0.035 6.52 3.46 9.18
8/13/2021 2:15:00 PM 19.91 67.838 0.036 6.49 3.25 9.08
8/13/2021 2:30:00 PM 19.89 67.802 0.036 6.43 3.47 8.96
8/13/2021 2:45:00 PM 20.12 68.216 0.035 6.47 3.43 9.04
8/13/2021 3:00:00 PM 20.35 68.63 0.036 6.5 3.21 9.07
8/13/2021 3:15:00 PM 20.34 68.612 0.035 6.54 3.51 9.06
8/13/2021 3:30:00 PM 20.34 68.612 0.036 6.5 3.11 9.01
8/13/2021 3:45:00 PM 20.35 68.63 0.035 6.56 3.21 9.06
8/13/2021 4:00:00 PM 20.32 68.576 0.036 6.53 3.14 9
8/13/2021 4:15:00 PM 20.27 68.486 0.036 6.46 3.29 8.91
8/13/2021 4:30:00 PM 20.26 68.468 0.036 6.49 3.11 8.99
8/13/2021 4:45:00 PM 20.26 68.468 0.036 6.5 3.27 9
8/13/2021 5:00:00 PM 20.23 68.414 0.036 6.49 3.18 8.96
8/13/2021 5:15:00 PM 20.22 68.396 0.036 6.49 3.06 8.96
8/13/2021 5:30:00 PM 20.21 68.378 0.036 6.44 3.26 8.91
8/13/2021 5:45:00 PM 20.16 68.288 0.036 6.44 3.37 8.87
8/13/2021 6:00:00 PM 20.12 68.216 0.036 6.39 3.29 8.8
8/13/2021 6:15:00 PM 20.08 68.144 0.036 6.38 3.07 8.78
8/13/2021 6:30:00 PM 20.05 68.09 0.036 6.36 3.08 8.73
8/13/2021 6:45:00 PM 20.03 68.054 0.036 6.35 2.9 8.73
8/13/2021 7:00:00 PM 20 68 0.037 6.33 3.17 8.73
8/13/2021 7:15:00 PM 19.97 67.946 0.037 6.32 2.95 8.68
8/13/2021 7:30:00 PM 19.94 67.892 0.037 6.32 2.91 8.68
8/13/2021 7:45:00 PM 19.9 67.82 0.037 6.32 3.06 8.67
8/13/2021 8:00:00 PM 19.85 67.73 0.037 6.33 3.24 8.68
8/13/2021 8:15:00 PM 19.81 67.658 0.037 6.32 3.2 8.66
8/13/2021 8:30:00 PM 19.77 67.586 0.037 6.3 3.29 8.62
8/13/2021 8:45:00 PM 19.73 67.514 0.037 6.29 3.09 8.63
8/13/2021 9:00:00 PM 19.69 67.442 0.038 6.29 3.44 8.65
8/13/2021 9:15:00 PM 19.66 67.388 0.038 6.3 3.32 8.66
8/13/2021 9:30:00 PM 19.62 67.316 0.038 6.27 3.5 8.64
8/13/2021 9:45:00 PM 19.58 67.244 0.038 6.28 3.17 8.66
8/13/2021 10:00:00 PM 19.55 67.19 0.038 6.3 3.39 8.7
8/13/2021 10:15:00 PM 19.51 67.118 0.038 6.29 3.47 8.7
8/13/2021 10:30:00 PM 19.47 67.046 0.038 6.28 3.38 8.71
8/13/2021 10:45:00 PM 19.44 66.992 0.038 6.27 3.38 8.68
8/13/2021 11:00:00 PM 19.55 67.19 0.036 6.31 5.62 8.75
8/13/2021 11:15:00 PM 19.54 67.172 0.035 6.29 5.89 8.72
8/13/2021 11:30:00 PM 19.5 67.1 0.036 6.31 11.86 8.72
8/13/2021 11:45:00 PM 19.43 66.974 0.038 6.32 17.24 8.7
8/14/2021 12:00:00 AM 19.38 66.884 0.038 6.34 14.72 8.71
8/14/2021 12:15:00 AM 19.36 66.848 0.038 6.34 10.14 8.72
8/14/2021 12:30:00 AM 19.33 66.794 0.038 6.35 8.39 8.74
8/14/2021 12:45:00 AM 19.3 66.74 0.037 6.36 11.13 8.77
8/14/2021 1:00:00 AM 19.27 66.686 0.038 6.37 55.87 8.78
8/14/2021 1:15:00 AM 19.25 66.65 0.038 6.37 46.89 8.79
8/14/2021 1:30:00 AM 19.22 66.596 0.037 6.35 27.06 8.8
8/14/2021 1:45:00 AM 19.2 66.56 0.037 6.36 29.98 8.81
8/14/2021 2:00:00 AM 19.19 66.542 0.037 6.35 36.84 8.82
8/14/2021 2:15:00 AM 19.18 66.524 0.037 6.4 48.48 8.83
8/14/2021 2:30:00 AM 19.17 66.506 0.039 6.43 49.76 8.85
8/14/2021 2:45:00 AM 19.14 66.452 0.039 6.43 31.26 8.86
8/14/2021 3:00:00 AM 19.08 66.344 0.038 6.43 22.77 8.89
8/14/2021 3:15:00 AM 19.02 66.236 0.038 6.41 19.44 8.91
8/14/2021 3:30:00 AM 18.96 66.128 0.037 6.4 18.09 8.93
8/14/2021 3:45:00 AM 18.93 66.074 0.036 6.39 16.75 8.94
8/14/2021 4:00:00 AM 18.9 66.02 0.036 6.37 17.96 8.95
8/14/2021 4:15:00 AM 18.88 65.984 0.035 6.37 18.84 8.96
8/14/2021 4:30:00 AM 18.85 65.93 0.035 6.35 18.91 8.97
8/14/2021 4:45:00 AM 18.82 65.876 0.034 6.35 21.28 8.99
8/14/2021 5:00:00 AM 18.79 65.82201 0.034 6.33 20.67 8.98
8/14/2021 5:15:00 AM 18.76 65.768 0.034 6.33 20.55 8.99
8/14/2021 5:30:00 AM 18.73 65.714 0.034 6.31 20.17 9
8/14/2021 5:45:00 AM 18.7 65.66 0.034 6.31 18.3 9
8/14/2021 6:00:00 AM 18.66 65.588 0.034 6.32 18.42 9.01
8/14/2021 6:15:00 AM 18.63 65.534 0.034 6.3 14.83 9
8/14/2021 6:30:00 AM 18.6 65.48 0.034 6.31 17.39 9.02
8/14/2021 6:45:00 AM 18.58 65.444 0.034 6.31 12.29 9.02
8/14/2021 7:00:00 AM 18.56 65.408 0.034 6.31 13.37 9.04
8/14/2021 7:15:00 AM 18.54 65.372 0.034 6.31 13.72 9.04
8/14/2021 7:30:00 AM 18.52 65.336 0.034 6.29 14.16 9.05
8/14/2021 7:45:00 AM 18.5 65.3 0.034 6.3 12.98 9.06
8/14/2021 8:00:00 AM 18.49 65.282 0.034 6.29 12.86 9.07
8/14/2021 8:15:00 AM 18.47 65.246 0.034 6.29 11.15 9.08
8/14/2021 8:30:00 AM 18.46 65.228 0.034 6.28 11.4 9.08
8/14/2021 8:45:00 AM 18.44 65.192 0.034 6.28 9.47 9.09
8/14/2021 9:00:00 AM 18.44 65.192 0.034 6.29 9.56 9.1
8/14/2021 9:15:00 AM 18.44 65.192 0.034 6.29 9.78 9.14
8/14/2021 9:30:00 AM 18.43 65.174 0.034 6.31 9.28 9.12
8/14/2021 9:45:00 AM 18.41 65.138 0.034 6.34 9.63 9.13
8/14/2021 10:00:00 AM 18.39 65.102 0.034 6.37 8.45 9.15
8/14/2021 10:15:00 AM 18.38 65.084 0.034 6.4 8.35 9.19
8/14/2021 10:30:00 AM -99999.99 -179968 -99999.99 -99999.99 -99999.99 -99999.99
8/14/2021 10:45:00 AM 18.41 65.138 0.034 6.44 7.65 9.28
8/14/2021 11:00:00 AM 18.46 65.228 0.034 6.48 7.17 9.34
8/14/2021 11:15:00 AM 18.5 65.3 0.034 6.5 7.22 9.36
8/14/2021 11:30:00 AM 18.49 65.282 0.034 6.48 7.01 9.34
8/14/2021 11:45:00 AM 18.49 65.282 0.033 6.49 6.43 9.34
8/14/2021 12:00:00 PM 18.52 65.336 0.033 6.49 6.57 9.36
8/14/2021 12:15:00 PM 18.57 65.426 0.033 6.51 6.36 9.38
8/14/2021 12:30:00 PM 18.64 65.552 0.033 6.5 5.94 9.38
8/14/2021 12:45:00 PM 18.7 65.66 0.033 6.52 6.61 9.36
8/14/2021 1:00:00 PM 18.83 65.894 0.033 6.53 6.24 9.34
8/14/2021 1:15:00 PM 19 66.2 0.033 6.54 5.84 9.31
8/14/2021 1:30:00 PM 19.18 66.524 0.033 6.55 5.83 9.31
8/14/2021 1:45:00 PM 19.28 66.704 0.033 6.57 5.76 9.31
8/14/2021 2:00:00 PM 19.38 66.884 0.033 6.57 6.01 9.28
8/14/2021 2:15:00 PM 19.48 67.064 0.033 6.58 4.99 9.27
8/14/2021 2:30:00 PM 19.57 67.226 0.033 6.58 5.84 9.25
8/14/2021 2:45:00 PM 19.68 67.424 0.033 6.57 6.76 9.24
8/14/2021 3:00:00 PM 19.75 67.55 0.033 6.58 5.33 9.23
8/14/2021 3:15:00 PM 19.77 67.586 0.033 6.56 5.37 9.2
8/14/2021 3:30:00 PM 19.78 67.604 0.033 6.55 4.98 9.16
8/14/2021 3:45:00 PM 19.76 67.568 0.033 6.55 5.07 9.12
8/14/2021 4:00:00 PM 19.76 67.568 0.033 6.51 4.65 9.09
8/14/2021 4:15:00 PM 19.73 67.514 0.033 6.51 4.93 9.07
8/14/2021 4:30:00 PM 19.69 67.442 0.033 6.49 5.11 9.05
8/14/2021 4:45:00 PM 19.67 67.406 0.033 6.48 5.03 9.04
8/14/2021 5:00:00 PM 19.64 67.352 0.033 6.45 4.91 9.01
8/14/2021 5:15:00 PM 19.6 67.28 0.033 6.45 5.21 9
8/14/2021 5:30:00 PM 19.56 67.208 0.033 6.44 5.71 8.98
8/14/2021 5:45:00 PM 19.51 67.118 0.034 6.43 4.86 8.96
8/14/2021 6:00:00 PM 19.45 67.01 0.034 6.41 11.21 8.96
8/14/2021 6:15:00 PM 19.38 66.884 0.034 6.39 4.62 8.96
8/14/2021 6:30:00 PM 19.32 66.776 0.034 6.39 4.7 8.96
8/14/2021 6:45:00 PM 19.26 66.668 0.034 6.39 4.43 8.96
8/14/2021 7:00:00 PM 19.19 66.542 0.034 6.38 4.81 8.97
8/14/2021 7:15:00 PM 19.12 66.416 0.034 6.37 4.64 8.96
8/14/2021 7:30:00 PM 19.05 66.29 0.034 6.35 4.74 8.95
8/14/2021 7:45:00 PM 18.98 66.164 0.034 6.36 4.73 8.96
8/14/2021 8:00:00 PM 18.91 66.038 0.034 6.34 4.2 8.96
8/14/2021 8:15:00 PM 18.84 65.912 0.034 6.35 5.22 8.96
8/14/2021 8:30:00 PM 18.77 65.786 0.034 6.32 4.27 8.95
8/14/2021 8:45:00 PM 18.7 65.66 0.034 6.32 4.73 8.96
8/14/2021 9:00:00 PM 18.63 65.534 0.034 6.32 4.76 8.97
8/14/2021 9:15:00 PM 18.56 65.408 0.034 6.32 4.58 8.97
8/14/2021 9:30:00 PM 18.5 65.3 0.034 6.3 4.73 8.98
8/14/2021 9:45:00 PM 18.44 65.192 0.034 6.32 4.34 9
8/14/2021 10:00:00 PM 18.38 65.084 0.034 6.33 4.76 9.03
8/14/2021 10:15:00 PM 18.32 64.976 0.034 6.31 4.41 9.03
8/14/2021 10:30:00 PM 18.26 64.868 0.034 6.31 4.53 9.03
8/14/2021 10:45:00 PM 18.2 64.76 0.034 6.3 4.36 9.05
8/14/2021 11:00:00 PM 18.14 64.652 0.034 6.31 4.24 9.06
8/14/2021 11:15:00 PM 18.07 64.526 0.034 6.31 4.42 9.08
8/14/2021 11:30:00 PM 18.01 64.418 0.034 6.31 4.27 9.09
8/14/2021 11:45:00 PM 17.95 64.31 0.034 6.31 4.32 9.09
8/15/2021 12:00:00 AM 17.89 64.202 0.034 6.3 4.22 9.11
8/15/2021 12:15:00 AM 17.83 64.094 0.034 6.32 4.22 9.13
8/15/2021 12:30:00 AM 17.77 63.986 0.035 6.29 4.12 9.13
8/15/2021 12:45:00 AM 17.7 63.86 0.034 6.32 4.03 9.16
8/15/2021 1:00:00 AM 17.64 63.752 0.035 6.3 4.09 9.15
8/15/2021 1:15:00 AM 17.57 63.626 0.035 6.29 4.11 9.18
8/15/2021 1:30:00 AM 17.52 63.536 0.035 6.3 3.97 9.19
8/15/2021 1:45:00 AM 17.45 63.41 0.035 6.31 3.89 9.2
8/15/2021 2:00:00 AM 17.39 63.302 0.035 6.26 4.12 9.17
8/15/2021 2:15:00 AM 17.32 63.176 0.035 6.28 4.07 9.21
8/15/2021 2:30:00 AM 17.26 63.068 0.035 6.29 4.06 9.23
8/15/2021 2:45:00 AM 17.19 62.942 0.035 6.28 4.06 9.24
8/15/2021 3:00:00 AM 17.13 62.834 0.035 6.28 4.15 9.25
8/15/2021 3:15:00 AM 17.07 62.726 0.035 6.3 3.93 9.28
8/15/2021 3:30:00 AM 17 62.6 0.035 6.28 3.79 9.27
8/15/2021 3:45:00 AM 16.93 62.474 0.035 6.28 3.89 9.31
8/15/2021 4:00:00 AM 16.87 62.366 0.035 6.3 3.82 9.3
8/15/2021 4:15:00 AM 16.81 62.258 0.035 6.28 3.77 9.32
8/15/2021 4:30:00 AM 16.76 62.168 0.035 6.27 3.97 9.29
8/15/2021 4:45:00 AM 16.71 62.078 0.035 6.28 3.75 9.34
8/15/2021 5:00:00 AM 16.65 61.97 0.035 6.28 3.92 9.34
8/15/2021 5:15:00 AM 16.6 61.88 0.035 6.28 4.51 9.37
8/15/2021 5:30:00 AM 16.54 61.772 0.035 6.3 3.71 9.39
8/15/2021 5:45:00 AM 16.49 61.682 0.035 6.3 3.86 9.4
8/15/2021 6:00:00 AM 16.44 61.592 0.035 6.29 3.85 9.4
8/15/2021 6:15:00 AM 16.39 61.502 0.035 6.29 4.01 9.41
8/15/2021 6:30:00 AM 16.35 61.43 0.035 6.28 3.92 9.41
8/15/2021 6:45:00 AM 16.3 61.34 0.035 6.3 3.73 9.46
8/15/2021 7:00:00 AM 16.25 61.25 0.035 6.31 3.91 9.49
8/15/2021 7:15:00 AM 16.21 61.178 0.035 6.32 3.77 9.52
8/15/2021 7:30:00 AM 16.17 61.106 0.035 6.33 3.69 9.54
8/15/2021 7:45:00 AM 16.13 61.034 0.035 6.33 3.63 9.57
8/15/2021 8:00:00 AM 16.12 61.016 0.035 6.32 3.89 9.59
8/15/2021 8:15:00 AM 16.12 61.016 0.035 6.36 3.49 9.63
8/15/2021 8:30:00 AM 16.14 61.052 0.035 6.35 3.45 9.68
8/15/2021 8:45:00 AM 16.16 61.088 0.035 6.39 3.4 9.73
8/15/2021 9:00:00 AM 16.16 61.088 0.035 6.4 3.23 9.72
8/15/2021 9:15:00 AM 16.17 61.106 0.035 6.39 3.57 9.71
8/15/2021 9:30:00 AM 16.18 61.124 0.035 6.36 3.62 9.72
8/15/2021 9:45:00 AM 16.21 61.178 0.035 6.4 3.51 9.76
8/15/2021 10:00:00 AM 16.24 61.232 0.035 6.42 3.51 9.76
8/15/2021 10:15:00 AM 16.29 61.322 0.035 6.41 3.55 9.76
8/15/2021 10:30:00 AM 16.36 61.448 0.035 6.43 3.9 9.75
8/15/2021 10:45:00 AM 16.46 61.628 0.035 6.44 3.24 9.8
8/15/2021 11:00:00 AM 16.55 61.79 0.035 6.47 3.48 9.82
8/15/2021 11:15:00 AM 16.61 61.898 0.035 6.49 3.82 9.83
8/15/2021 11:30:00 AM 16.66 61.988 0.035 6.52 3.47 9.83
8/15/2021 11:45:00 AM 16.7 62.06 0.035 6.51 3.49 9.83
8/15/2021 12:00:00 PM 16.72 62.096 0.035 6.47 3.52 9.79
8/15/2021 12:15:00 PM 16.75 62.15 0.034 6.5 3.43 9.8
8/15/2021 12:30:00 PM 16.79 62.222 0.035 6.51 3.36 9.8
8/15/2021 12:45:00 PM 16.89 62.402 0.035 6.46 3.39 9.74
8/15/2021 1:00:00 PM 17.05 62.69 0.035 6.48 3.29 9.73
8/15/2021 1:15:00 PM 17.24 63.032 0.035 6.49 3.65 9.7
8/15/2021 1:30:00 PM 17.49 63.482 0.034 6.54 3.93 9.69
8/15/2021 1:45:00 PM 17.66 63.788 0.034 6.55 3.28 9.69
8/15/2021 2:00:00 PM 17.77 63.986 0.034 6.55 3.55 9.67
8/15/2021 2:15:00 PM 17.85 64.13 0.034 6.52 3.27 9.62
8/15/2021 2:30:00 PM 17.97 64.346 0.034 6.54 3.3 9.64
8/15/2021 2:45:00 PM 17.98 64.364 0.034 6.54 3.23 9.63
8/15/2021 3:00:00 PM 18.08 64.544 0.034 6.57 3.35 9.63
8/15/2021 3:15:00 PM 18.18 64.724 0.034 6.56 3.33 9.61
8/15/2021 3:30:00 PM 18.21 64.778 0.034 6.54 3.37 9.57
8/15/2021 3:45:00 PM 18.23 64.814 0.034 6.53 3.4 9.54
8/15/2021 4:00:00 PM 18.23 64.814 0.034 6.55 3.61 9.54
8/15/2021 4:15:00 PM 18.24 64.832 0.034 6.53 3.38 9.52
8/15/2021 4:30:00 PM 18.24 64.832 0.034 6.52 3.47 9.5
8/15/2021 4:45:00 PM 18.25 64.85 0.034 6.52 3.53 9.48
8/15/2021 5:00:00 PM 18.24 64.832 0.035 6.49 3.38 9.43
8/15/2021 5:15:00 PM 18.2 64.76 0.035 6.47 3.89 9.39
8/15/2021 5:30:00 PM 18.18 64.724 0.035 6.45 3.25 9.34
8/15/2021 5:45:00 PM 18.17 64.706 0.035 6.42 3.61 9.29
8/15/2021 6:00:00 PM 18.13 64.634 0.035 6.38 3.26 9.25
8/15/2021 6:15:00 PM 18.11 64.598 0.035 6.41 3.19 9.25
8/15/2021 6:30:00 PM 18.08 64.544 0.035 6.4 3.44 9.25
8/15/2021 6:45:00 PM 18.07 64.526 0.035 6.35 3.28 9.21
8/15/2021 7:00:00 PM 18.04 64.472 0.035 6.39 3.22 9.21
8/15/2021 7:15:00 PM 18.01 64.418 0.035 6.38 4.55 9.21
8/15/2021 7:30:00 PM 17.96 64.328 0.035 6.37 3.31 9.18
8/15/2021 7:45:00 PM 17.92 64.256 0.035 6.33 3.18 9.16
8/15/2021 8:00:00 PM 17.88 64.184 0.035 6.34 3.14 9.13
8/15/2021 8:15:00 PM 17.83 64.094 0.035 6.33 3.54 9.13
8/15/2021 8:30:00 PM 17.78 64.004 0.035 6.32 3.35 9.13
8/15/2021 8:45:00 PM 17.74 63.932 0.036 6.28 3.46 9.09
8/15/2021 9:00:00 PM 17.7 63.86 0.035 6.31 3.32 9.11
8/15/2021 9:15:00 PM 17.65 63.77 0.036 6.31 3.22 9.13
8/15/2021 9:30:00 PM 17.6 63.68 0.036 6.31 3.29 9.15
8/15/2021 9:45:00 PM 17.56 63.608 0.036 6.3 3.69 9.12
8/15/2021 10:00:00 PM 17.52 63.536 0.036 6.29 3.92 9.14
8/15/2021 10:15:00 PM 17.48 63.464 0.036 6.32 3.42 9.18
8/15/2021 10:30:00 PM 17.44 63.392 0.036 6.28 3.38 9.14
8/15/2021 10:45:00 PM 17.4 63.32 0.036 6.3 3.76 9.18
8/15/2021 11:00:00 PM 17.37 63.266 0.036 6.3 3.61 9.17
8/15/2021 11:15:00 PM 17.34 63.212 0.036 6.27 3.43 9.14
8/15/2021 11:30:00 PM 17.31 63.158 0.036 6.27 3.12 9.18
8/15/2021 11:45:00 PM 17.27 63.086 0.036 6.3 3.28 9.2
8/16/2021 12:00:00 AM 17.24 63.032 0.036 6.31 3.39 9.21
8/16/2021 12:15:00 AM 17.21 62.978 0.036 6.28 3.4 9.2
8/16/2021 12:30:00 AM 17.18 62.924 0.036 6.31 3.06 9.23
8/16/2021 12:45:00 AM 17.15 62.87 0.036 6.27 3.5 9.2
8/16/2021 1:00:00 AM 17.12 62.816 0.036 6.3 3.27 9.23
8/16/2021 1:15:00 AM 17.09 62.762 0.036 6.3 3.21 9.24
8/16/2021 1:30:00 AM 17.06 62.708 0.036 6.28 3.32 9.2
8/16/2021 1:45:00 AM 17.03 62.654 0.036 6.28 3.03 9.2
8/16/2021 2:00:00 AM 17.01 62.618 0.036 6.29 3.28 9.26
8/16/2021 2:15:00 AM 16.99 62.582 0.036 6.28 3.66 9.23
8/16/2021 2:30:00 AM 16.98 62.564 0.036 6.28 3.38 9.22
8/16/2021 2:45:00 AM 16.95 62.51 0.036 6.3 3.1 9.27
8/16/2021 3:00:00 AM 16.93 62.474 0.036 6.28 3.15 9.24
8/16/2021 3:15:00 AM 16.91 62.438 0.036 6.29 3.26 9.27
8/16/2021 3:30:00 AM 16.89 62.402 0.036 6.31 3.27 9.28
8/16/2021 3:45:00 AM 16.87 62.366 0.036 6.28 3.6 9.26
8/16/2021 4:00:00 AM 16.85 62.33 0.036 6.3 3.34 9.28
8/16/2021 4:15:00 AM 16.84 62.312 0.036 6.26 3.24 9.21
8/16/2021 4:30:00 AM 16.83 62.294 0.036 6.29 3.25 9.25
8/16/2021 4:45:00 AM 16.81 62.258 0.036 6.32 3.17 9.31
8/16/2021 5:00:00 AM 16.8 62.24 0.036 6.28 3.22 9.26
8/16/2021 5:15:00 AM 16.79 62.222 0.036 6.3 3.25 9.3
8/16/2021 5:30:00 AM 16.78 62.204 0.036 6.28 3.1 9.27
8/16/2021 5:45:00 AM 16.76 62.168 0.036 6.28 3.1 9.26
8/16/2021 6:00:00 AM 16.75 62.15 0.036 6.27 3.28 9.23
8/16/2021 6:15:00 AM 16.74 62.132 0.036 6.29 3.35 9.29
8/16/2021 6:30:00 AM 16.72 62.096 0.036 6.31 3.19 9.31
8/16/2021 6:45:00 AM 16.71 62.078 0.036 6.27 3.15 9.28
8/16/2021 7:00:00 AM 16.71 62.078 0.036 6.28 3.03 9.32
8/16/2021 7:15:00 AM 16.7 62.06 0.036 6.27 2.99 9.28
8/16/2021 7:30:00 AM 16.7 62.06 0.036 6.29 3.13 9.33
8/16/2021 7:45:00 AM 16.71 62.078 0.036 6.3 2.82 9.34
8/16/2021 8:00:00 AM 16.73 62.114 0.036 6.29 3.16 9.37
8/16/2021 8:15:00 AM 16.75 62.15 0.036 6.31 3.19 9.44
8/16/2021 8:30:00 AM 16.77 62.186 0.036 6.3 2.99 9.44
8/16/2021 8:45:00 AM 16.81 62.258 0.036 6.33 3.1 9.52
8/16/2021 9:00:00 AM 16.85 62.33 0.036 6.38 2.92 9.58
8/16/2021 9:15:00 AM 16.9 62.42 0.036 6.36 2.94 9.55
8/16/2021 9:30:00 AM 16.95 62.51 0.036 6.39 3.26 9.61
8/16/2021 9:45:00 AM 17.01 62.618 0.035 6.42 3.17 9.64
8/16/2021 10:00:00 AM -99999.99 -179968 -99999.99 -99999.99 -99999.99 -99999.99
8/16/2021 10:15:00 AM 17.09 62.762 0.035 6.43 2.95 9.64
8/16/2021 10:30:00 AM 17.13 62.834 0.035 6.43 3.04 9.59
8/16/2021 10:45:00 AM 17.15 62.87 0.035 6.44 3.19 9.62
8/16/2021 11:00:00 AM 17.17 62.906 0.035 6.42 3.08 9.58
8/16/2021 11:15:00 AM 17.19 62.942 0.035 6.42 2.94 9.57
8/16/2021 11:30:00 AM 17.22 62.996 0.035 6.41 3.18 9.55
8/16/2021 11:45:00 AM 17.24 63.032 0.035 6.43 3.24 9.56
8/16/2021 12:00:00 PM 17.27 63.086 0.035 6.41 2.99 9.54
8/16/2021 12:15:00 PM 17.31 63.158 0.035 6.38 2.99 9.52
8/16/2021 12:30:00 PM 17.39 63.302 0.035 6.43 2.92 9.6
8/16/2021 12:45:00 PM 17.45 63.41 0.035 6.44 3.21 9.6
8/16/2021 1:00:00 PM 17.52 63.536 0.035 6.46 2.99 9.6
8/16/2021 1:15:00 PM 17.56 63.608 0.035 6.45 3.15 9.56
8/16/2021 1:30:00 PM 17.58 63.644 0.035 6.45 2.87 9.54
8/16/2021 1:45:00 PM 17.57 63.626 0.035 6.42 2.95 9.49
8/16/2021 2:00:00 PM 17.56 63.608 0.035 6.42 3.06 9.47
8/16/2021 2:15:00 PM 17.55 63.59 0.035 6.43 3.07 9.42
8/16/2021 2:30:00 PM 17.55 63.59 0.035 6.39 3.07 9.39
8/16/2021 2:45:00 PM 17.56 63.608 0.035 6.41 3.18 9.42
8/16/2021 3:00:00 PM 17.58 63.644 0.035 6.4 2.99 9.43
8/16/2021 3:15:00 PM 17.6 63.68 0.035 6.42 2.99 9.43
8/16/2021 3:30:00 PM 17.63 63.734 0.035 6.4 3.09 9.44
8/16/2021 3:45:00 PM 17.66 63.788 0.035 6.43 3.03 9.43
8/16/2021 4:00:00 PM 17.67 63.806 0.036 6.39 2.86 9.43
8/16/2021 4:15:00 PM 17.67 63.806 0.036 6.38 2.93 9.37
8/16/2021 4:30:00 PM 17.67 63.806 0.036 6.35 3.1 9.36
8/16/2021 4:45:00 PM 17.66 63.788 0.036 6.38 3.06 9.36
8/16/2021 5:00:00 PM 17.66 63.788 0.036 6.36 3.04 9.34
8/16/2021 5:15:00 PM 17.65 63.77 0.036 6.34 2.91 9.3
8/16/2021 5:30:00 PM 17.66 63.788 0.036 6.36 2.98 9.33
8/16/2021 5:45:00 PM 17.67 63.806 0.036 6.37 2.96 9.31
8/16/2021 6:00:00 PM 17.67 63.806 0.036 6.34 3.92 9.3
8/16/2021 6:15:00 PM 17.66 63.788 0.036 6.33 2.96 9.25
8/16/2021 6:30:00 PM 17.65 63.77 0.036 6.35 3 9.26
8/16/2021 6:45:00 PM 17.64 63.752 0.036 6.32 3.06 9.17
8/16/2021 7:00:00 PM 17.63 63.734 0.036 6.29 3.18 9.17
8/16/2021 7:15:00 PM 17.61 63.698 0.036 6.29 2.88 9.15
8/16/2021 7:30:00 PM 17.59 63.662 0.036 6.3 3.19 9.17
8/16/2021 7:45:00 PM 17.58 63.644 0.036 6.27 2.91 9.11
8/16/2021 8:00:00 PM 17.57 63.626 0.036 6.26 2.83 9.09
8/16/2021 8:15:00 PM 17.56 63.608 0.036 6.28 3.1 9.11
8/16/2021 8:30:00 PM 17.55 63.59 0.036 6.26 3.17 9.12
8/16/2021 8:45:00 PM 17.54 63.572 0.036 6.26 3.18 9.11
8/16/2021 9:00:00 PM 17.53 63.554 0.036 6.26 3.06 9.1
8/16/2021 9:15:00 PM 17.53 63.554 0.036 6.26 3.06 9.1
8/16/2021 9:30:00 PM 17.52 63.536 0.036 6.25 3.28 9.12
8/16/2021 9:45:00 PM 17.51 63.518 0.036 6.22 3.16 9.07
8/16/2021 10:00:00 PM 17.5 63.5 0.036 6.24 2.91 9.09
8/16/2021 10:15:00 PM 17.49 63.482 0.036 6.25 3.03 9.11
8/16/2021 10:30:00 PM 17.49 63.482 0.036 6.25 3.07 9.11
8/16/2021 10:45:00 PM 17.48 63.464 0.036 6.24 3.2 9.11
8/16/2021 11:00:00 PM 17.46 63.428 0.037 6.23 3.16 9.11
8/16/2021 11:15:00 PM 17.46 63.428 0.037 6.23 3.3 9.11
8/16/2021 11:30:00 PM 17.45 63.41 0.037 6.22 3.16 9.09
8/16/2021 11:45:00 PM 17.44 63.392 0.037 6.24 3.05 9.1
8/17/2021 12:00:00 AM 17.43 63.374 0.037 6.22 3.06 9.1
8/17/2021 12:15:00 AM 17.43 63.374 0.037 6.23 3.21 9.11
8/17/2021 12:30:00 AM 17.42 63.356 0.037 6.22 3.14 9.09
8/17/2021 12:45:00 AM 17.41 63.338 0.037 6.22 3.05 9.11
8/17/2021 1:00:00 AM 17.41 63.338 0.037 6.24 3.08 9.13
8/17/2021 1:15:00 AM 17.4 63.32 0.037 6.24 3.09 9.12
8/17/2021 1:30:00 AM 17.4 63.32 0.037 6.24 3.02 9.14
8/17/2021 1:45:00 AM 17.39 63.302 0.037 6.22 2.97 9.11
8/17/2021 2:00:00 AM 17.39 63.302 0.037 6.22 3.09 9.12
8/17/2021 2:15:00 AM 17.38 63.284 0.037 6.21 3.1 9.09
8/17/2021 2:30:00 AM 17.38 63.284 0.037 6.22 2.94 9.12
8/17/2021 2:45:00 AM 17.38 63.284 0.037 6.22 3.25 9.13
8/17/2021 3:00:00 AM 17.37 63.266 0.037 6.19 3.06 9.1
8/17/2021 3:15:00 AM 17.37 63.266 0.037 6.22 3.19 9.1
8/17/2021 3:30:00 AM 17.37 63.266 0.037 6.22 2.96 9.12
8/17/2021 3:45:00 AM 17.36 63.248 0.037 6.21 3.06 9.12
8/17/2021 4:00:00 AM 17.35 63.23 0.037 6.19 3.02 9.05
8/17/2021 4:15:00 AM 17.35 63.23 0.037 6.2 3.18 9.12
8/17/2021 4:30:00 AM 17.34 63.212 0.037 6.18 2.96 9.13
8/17/2021 4:45:00 AM 17.34 63.212 0.037 6.18 3.3 9.09
8/17/2021 5:00:00 AM 17.33 63.194 0.037 6.18 2.98 9.12
8/17/2021 5:15:00 AM 17.33 63.194 0.037 6.18 3.09 9.14
8/17/2021 5:30:00 AM 17.33 63.194 0.037 6.19 3.4 9.15
8/17/2021 5:45:00 AM 17.32 63.176 0.037 6.2 3.2 9.14
8/17/2021 6:00:00 AM 17.32 63.176 0.037 6.15 2.92 9.03
8/17/2021 6:15:00 AM 17.32 63.176 0.037 6.16 2.97 9.07
8/17/2021 6:30:00 AM 17.32 63.176 0.037 6.17 3.12 9.09
8/17/2021 6:45:00 AM 17.31 63.158 0.037 6.17 3.16 9.13
8/17/2021 7:00:00 AM 17.31 63.158 0.037 6.18 3.44 9.15
8/17/2021 7:15:00 AM 17.31 63.158 0.037 6.18 3.23 9.16
8/17/2021 7:30:00 AM 17.31 63.158 0.037 6.16 2.98 9.13
8/17/2021 7:45:00 AM 17.31 63.158 0.037 6.18 2.98 9.19
8/17/2021 8:00:00 AM 17.31 63.158 0.037 6.19 3.02 9.2
8/17/2021 8:15:00 AM 17.32 63.176 0.037 6.19 2.88 9.21
8/17/2021 8:30:00 AM 17.32 63.176 0.037 6.18 2.92 9.22
8/17/2021 8:45:00 AM 17.34 63.212 0.037 6.19 2.99 9.27
8/17/2021 9:00:00 AM 17.36 63.248 0.037 6.2 2.95 9.31
8/17/2021 9:15:00 AM 17.4 63.32 0.037 6.23 2.82 9.38
8/17/2021 9:30:00 AM 17.43 63.374 0.037 6.25 3.02 9.42
8/17/2021 9:45:00 AM 17.48 63.464 0.037 6.26 3.09 9.45
8/17/2021 10:00:00 AM 17.52 63.536 0.037 6.28 3.24 9.46
8/17/2021 10:15:00 AM 17.56 63.608 0.037 6.28 3.12 9.51
8/17/2021 10:30:00 AM 17.61 63.698 0.037 6.3 2.98 9.52
8/17/2021 10:45:00 AM 17.66 63.788 0.037 6.33 2.94 9.53
8/17/2021 11:00:00 AM 17.76 63.968 0.037 6.36 2.94 9.55
8/17/2021 11:15:00 AM 17.82 64.076 0.037 6.35 2.95 9.52
8/17/2021 11:30:00 AM 17.88 64.184 0.036 6.39 2.92 9.53
8/17/2021 11:45:00 AM 17.95 64.31 0.036 6.44 3.03 9.55
8/17/2021 12:00:00 PM 18.04 64.472 0.036 6.45 3.28 9.53
8/17/2021 12:15:00 PM 18.17 64.706 0.036 6.45 2.97 9.54
8/17/2021 12:30:00 PM 18.29 64.922 0.036 6.5 2.96 9.54
8/17/2021 12:45:00 PM 18.35 65.03 0.036 6.52 3.05 9.5
8/17/2021 1:00:00 PM 18.41 65.138 0.036 6.51 2.87 9.48
8/17/2021 1:15:00 PM 18.43 65.174 0.036 6.49 3 9.4
8/17/2021 1:30:00 PM 18.44 65.192 0.036 6.47 2.93 9.35
8/17/2021 1:45:00 PM 18.49 65.282 0.036 6.48 2.82 9.42
8/17/2021 2:00:00 PM 18.54 65.372 0.036 6.48 3.11 9.38
8/17/2021 2:15:00 PM 18.76 65.768 0.034 6.45 5.52 9.19
8/17/2021 2:30:00 PM 18.81 65.858 0.033 6.42 7.22 9.17
8/17/2021 2:45:00 PM 18.78 65.804 0.036 6.44 23.56 9.11
8/17/2021 3:00:00 PM 18.75 65.75 0.037 6.4 17.6 9.03
8/17/2021 3:15:00 PM 18.72 65.696 0.036 6.42 14.6 9
8/17/2021 3:30:00 PM 18.7 65.66 0.037 6.39 10.75 8.96
8/17/2021 3:45:00 PM 18.67 65.606 0.037 6.39 9.05 8.96
8/17/2021 4:00:00 PM 18.66 65.588 0.037 6.38 17.54 8.98
8/17/2021 4:15:00 PM 18.65 65.57 0.037 6.38 53.73 8.96
8/17/2021 4:30:00 PM 18.65 65.57 0.037 6.37 61.82 8.94
8/17/2021 4:45:00 PM 18.64 65.552 0.037 6.37 50.4 8.95
8/17/2021 5:00:00 PM 18.63 65.534 0.036 6.33 45.64 8.97
8/17/2021 5:15:00 PM 18.63 65.534 0.036 6.33 49.39 9.02
8/17/2021 5:30:00 PM 18.64 65.552 0.036 6.34 42.21 9.07
8/17/2021 5:45:00 PM 18.65 65.57 0.036 6.35 36.84 9.11
8/17/2021 6:00:00 PM 18.63 65.534 0.037 6.37 35.11 9.13
8/17/2021 6:15:00 PM 18.59 65.462 0.037 6.37 41.64 9.1
8/17/2021 6:30:00 PM 18.55 65.39 0.038 6.38 39.35 9.09
8/17/2021 6:45:00 PM 18.41 65.138 0.034 6.29 148.64 9.12
8/17/2021 7:00:00 PM 18.28 64.904 0.032 6.21 56.53 9.17
8/17/2021 7:15:00 PM 18.2 64.76 0.032 6.18 47.09 9.19
8/17/2021 7:30:00 PM 18.14 64.652 0.031 6.17 46.94 9.19
8/17/2021 7:45:00 PM 18.13 64.634 0.03 6.14 38.96 9.17
8/17/2021 8:00:00 PM 18.12 64.616 0.03 6.12 35.48 9.19
8/17/2021 8:15:00 PM 18.11 64.598 0.029 6.09 35.84 9.19
8/17/2021 8:30:00 PM 18.12 64.616 0.03 6.1 37 9.19
8/17/2021 8:45:00 PM 18.14 64.652 0.031 6.14 36.46 9.17
8/17/2021 9:00:00 PM 18.13 64.634 0.031 6.14 32.09 9.18
8/17/2021 9:15:00 PM 18.11 64.598 0.031 6.14 28.66 9.19
8/17/2021 9:30:00 PM 18.1 64.58 0.03 6.12 24.57 9.18
8/17/2021 9:45:00 PM 18.09 64.562 0.03 6.1 23.86 9.2
8/17/2021 10:00:00 PM 18.09 64.562 0.03 6.11 21.62 9.18
8/17/2021 10:15:00 PM 18.07 64.526 0.03 6.08 21.3 9.18
8/17/2021 10:30:00 PM 18.05 64.49 0.03 6.08 19.34 9.19
8/17/2021 10:45:00 PM 18.03 64.454 0.03 6.07 17.19 9.18
8/17/2021 11:00:00 PM 18.01 64.418 0.03 6.07 18.86 9.18
8/17/2021 11:15:00 PM 18 64.4 0.03 6.05 21.63 9.19
8/17/2021 11:30:00 PM 17.98 64.364 0.03 6.05 15.92 9.18
8/17/2021 11:45:00 PM 17.96 64.328 0.03 6.03 14.73 9.18
8/18/2021 12:00:00 AM 17.94 64.292 0.03 6.04 14.2 9.19
8/18/2021 12:15:00 AM 17.92 64.256 0.03 6.02 14.55 9.18
8/18/2021 12:30:00 AM 17.9 64.22 0.03 6.04 13.8 9.2
8/18/2021 12:45:00 AM 17.87 64.166 0.03 6.03 14.39 9.2
8/18/2021 1:00:00 AM 17.85 64.13 0.03 6.03 13.75 9.2
8/18/2021 1:15:00 AM 17.83 64.094 0.03 6.01 14.32 9.21
8/18/2021 1:30:00 AM 17.82 64.076 0.03 6.02 13.83 9.22
8/18/2021 1:45:00 AM 17.8 64.04 0.03 6.02 13.94 9.22
8/18/2021 2:00:00 AM 17.79 64.022 0.03 6.01 12 9.23
8/18/2021 2:15:00 AM 17.77 63.986 0.029 6.01 12.36 9.23
8/18/2021 2:30:00 AM 17.76 63.968 0.029 6.01 12.35 9.23
8/18/2021 2:45:00 AM 17.75 63.95 0.029 5.99 12.16 9.24
8/18/2021 3:00:00 AM 17.73 63.914 0.029 5.99 11 9.24
8/18/2021 3:15:00 AM 17.72 63.896 0.029 5.99 11.28 9.24
8/18/2021 3:30:00 AM 17.7 63.86 0.029 5.98 10.89 9.24
8/18/2021 3:45:00 AM 17.69 63.842 0.029 5.98 11.88 9.25
8/18/2021 4:00:00 AM 17.68 63.824 0.029 5.97 10.74 9.24
8/18/2021 4:15:00 AM 17.66 63.788 0.029 5.98 11.81 9.25
8/18/2021 4:30:00 AM 17.65 63.77 0.029 5.96 11.07 9.25
8/18/2021 4:45:00 AM 17.64 63.752 0.029 5.98 11.87 9.27
8/18/2021 5:00:00 AM 17.63 63.734 0.028 5.99 12.17 9.27
8/18/2021 5:15:00 AM 17.62 63.716 0.028 6.01 12.54 9.28
8/18/2021 5:30:00 AM 17.61 63.698 0.028 5.99 14.64 9.29
8/18/2021 5:45:00 AM 17.6 63.68 0.028 6 14.51 9.3
8/18/2021 6:00:00 AM 17.59 63.662 0.028 5.99 16.63 9.31
8/18/2021 6:15:00 AM 17.57 63.626 0.028 6 17.06 9.3
8/18/2021 6:30:00 AM 17.55 63.59 0.028 6 15.14 9.31
8/18/2021 6:45:00 AM 17.52 63.536 0.028 6.01 15.21 9.33
8/18/2021 7:00:00 AM 17.49 63.482 0.028 6.01 16.32 9.34
8/18/2021 7:15:00 AM 17.45 63.41 0.028 5.99 16.33 9.35
8/18/2021 7:30:00 AM 17.42 63.356 0.028 5.99 17.06 9.36
8/18/2021 7:45:00 AM 17.39 63.302 0.028 5.98 16.86 9.37
8/18/2021 8:00:00 AM 17.36 63.248 0.028 5.99 17.69 9.39
8/18/2021 8:15:00 AM 17.32 63.176 0.028 5.97 17.11 9.4
8/18/2021 8:30:00 AM 17.29 63.122 0.028 5.99 15.87 9.41
8/18/2021 8:45:00 AM 17.26 63.068 0.028 5.99 17.34 9.43
8/18/2021 9:00:00 AM 17.24 63.032 0.028 6 17.8 9.44
8/18/2021 9:15:00 AM 17.22 62.996 0.028 6 19.26 9.46
8/18/2021 9:30:00 AM 17.2 62.96 0.028 6.02 20.12 9.47
8/18/2021 9:45:00 AM 17.2 62.96 0.028 6.05 18.04 9.48
8/18/2021 10:00:00 AM 17.18 62.924 0.027 6.07 22.06 9.49
8/18/2021 10:15:00 AM 17.15 62.87 0.027 6.11 18.92 9.48
8/18/2021 10:30:00 AM 17.14 62.852 0.027 6.13 19.31 9.49
8/18/2021 10:45:00 AM 17.13 62.834 0.027 6.13 20.28 9.49
8/18/2021 11:00:00 AM 17.12 62.816 0.027 6.15 20.44 9.51
8/18/2021 11:15:00 AM 17.1 62.78 0.027 6.18 18.74 9.51
8/18/2021 11:30:00 AM 17.09 62.762 0.027 6.16 20.69 9.51
8/18/2021 11:45:00 AM 17.08 62.744 0.027 6.18 19.74 9.51
8/18/2021 12:00:00 PM 17.08 62.744 0.027 6.17 20.68 9.5
8/18/2021 12:15:00 PM 17.06 62.708 0.026 6.17 19.38 9.49
8/18/2021 12:30:00 PM 17.06 62.708 0.026 6.15 21.73 9.49
8/18/2021 12:45:00 PM 17.06 62.708 0.026 6.17 21.83 9.48
8/18/2021 1:00:00 PM 17.06 62.708 0.026 6.14 23.88 9.48
8/18/2021 1:15:00 PM 17.06 62.708 0.026 6.15 24.23 9.48
8/18/2021 1:30:00 PM 17.08 62.744 0.026 6.15 27.21 9.48
8/18/2021 1:45:00 PM 17.11 62.798 0.026 6.15 32.08 9.47
8/18/2021 2:00:00 PM 17.14 62.852 0.026 6.17 61.43 9.47
8/18/2021 2:15:00 PM 17.16 62.888 0.026 6.14 42.17 9.45
8/18/2021 2:30:00 PM 17.18 62.924 0.026 6.14 61.24 9.44
8/18/2021 2:45:00 PM 17.19 62.942 0.027 6.14 78.28 9.43
8/18/2021 3:00:00 PM 17.21 62.978 0.027 6.13 89.87 9.43
8/18/2021 3:15:00 PM 17.25 63.05 0.027 6.12 102.66 9.43
8/18/2021 3:30:00 PM 17.37 63.266 0.026 6.11 120.2 9.42
8/18/2021 3:45:00 PM 17.45 63.41 0.026 6.03 154.3 9.39
8/18/2021 4:00:00 PM 17.45 63.41 0.026 5.93 194.14 9.39
8/18/2021 4:15:00 PM 17.49 63.482 0.026 5.66 281.31 9.37
8/18/2021 4:30:00 PM 17.51 63.518 0.026 5.66 311.7 9.36
8/18/2021 4:45:00 PM 17.49 63.482 0.025 5.58 332.82 9.35
8/18/2021 5:00:00 PM 17.48 63.464 0.024 5.43 370.51 9.36
8/18/2021 5:15:00 PM 17.5 63.5 0.023 5.39 376.08 9.36
8/18/2021 5:30:00 PM 17.53 63.554 0.022 5.29 379.94 9.36
8/18/2021 5:45:00 PM 17.54 63.572 0.021 5.25 401.96 9.35
8/18/2021 6:00:00 PM 17.56 63.608 0.021 5.26 403.86 9.35
8/18/2021 6:15:00 PM 17.56 63.608 0.021 5.28 386.01 9.33
8/18/2021 6:30:00 PM 17.57 63.626 0.02 5.25 326.67 9.34
8/18/2021 6:45:00 PM 17.57 63.626 0.02 5.26 283.45 9.35
8/18/2021 7:00:00 PM 17.55 63.59 0.02 5.23 237.47 9.36
8/18/2021 7:15:00 PM 17.51 63.518 0.02 5.25 204.28 9.37
8/18/2021 7:30:00 PM 17.46 63.428 0.02 5.25 181.85 9.38
8/18/2021 7:45:00 PM 17.39 63.302 0.02 5.23 163.14 9.4
8/18/2021 8:00:00 PM 17.32 63.176 0.02 5.17 148.98 9.42
8/18/2021 8:15:00 PM 17.25 63.05 0.02 5.2 136.16 9.43
8/18/2021 8:30:00 PM 17.18 62.924 0.02 5.19 128.62 9.44
8/18/2021 8:45:00 PM 17.12 62.816 0.02 5.17 116.41 9.45
8/18/2021 9:00:00 PM 17.05 62.69 0.02 5.15 111.49 9.47
8/18/2021 9:15:00 PM 16.97 62.546 0.02 5.14 104.84 9.49
8/18/2021 9:30:00 PM 16.89 62.402 0.021 5.14 101.47 9.5
8/18/2021 9:45:00 PM 16.79 62.222 0.021 5.14 90.65 9.52
8/18/2021 10:00:00 PM 16.7 62.06 0.021 5.16 87.57 9.54
8/18/2021 10:15:00 PM 16.6 61.88 0.021 5.16 81.44 9.56
8/18/2021 10:30:00 PM 16.5 61.7 0.021 5.15 77.65 9.57
8/18/2021 10:45:00 PM 16.41 61.538 0.021 5.16 72.05 9.6
8/18/2021 11:00:00 PM 16.31 61.358 0.021 5.17 69.3 9.62
8/18/2021 11:15:00 PM 16.22 61.196 0.021 5.16 64.44 9.64
8/18/2021 11:30:00 PM 16.13 61.034 0.021 5.18 64.17 9.66
8/18/2021 11:45:00 PM 16.05 60.89 0.022 5.14 66.3 9.67
8/19/2021 12:00:00 AM 15.97 60.746 0.022 5.14 58.8 9.69
8/19/2021 12:15:00 AM 15.89 60.602 0.022 5.16 57.02 9.71
8/19/2021 12:30:00 AM 15.81 60.458 0.022 5.17 55.2 9.72
8/19/2021 12:45:00 AM 15.74 60.332 0.022 5.18 53.36 9.74
8/19/2021 1:00:00 AM 15.68 60.224 0.022 5.16 51.94 9.75
8/19/2021 1:15:00 AM 15.62 60.116 0.022 5.2 50.8 9.77
8/19/2021 1:30:00 AM 15.56 60.008 0.022 5.2 46.92 9.78
8/19/2021 1:45:00 AM 15.51 59.918 0.022 5.2 46.53 9.8
8/19/2021 2:00:00 AM 15.46 59.828 0.022 5.25 44.6 9.8
8/19/2021 2:15:00 AM 15.41 59.738 0.022 5.23 44 9.82
8/19/2021 2:30:00 AM 15.37 59.666 0.022 5.26 42.02 9.83
8/19/2021 2:45:00 AM 15.33 59.594 0.022 5.24 40.6 9.84
8/19/2021 3:00:00 AM 15.29 59.522 0.022 5.25 39.43 9.84
8/19/2021 3:15:00 AM 15.25 59.45 0.022 5.26 38.58 9.85
8/19/2021 3:30:00 AM 15.21 59.378 0.022 5.28 37.75 9.86
8/19/2021 3:45:00 AM 15.18 59.324 0.023 5.29 35.99 9.88
8/19/2021 4:00:00 AM 15.15 59.27 0.023 5.31 35.82 9.89
8/19/2021 4:15:00 AM 15.12 59.216 0.023 5.3 34.25 9.89
8/19/2021 4:30:00 AM 15.09 59.162 0.023 5.29 29.72 9.9
8/19/2021 4:45:00 AM 15.05 59.09 0.023 5.31 34.04 9.91
8/19/2021 5:00:00 AM 15.02 59.036 0.023 5.32 36.39 9.92
8/19/2021 5:15:00 AM 14.99 58.982 0.023 5.32 32.25 9.93
8/19/2021 5:30:00 AM 14.96 58.928 0.023 5.31 31.81 9.94
8/19/2021 5:45:00 AM 14.93 58.874 0.023 5.33 30.8 9.94
8/19/2021 6:00:00 AM 14.9 58.82 0.023 5.32 29.78 9.95
8/19/2021 6:15:00 AM 14.87 58.766 0.023 5.33 29.33 9.95
8/19/2021 6:30:00 AM 14.84 58.712 0.023 5.33 28.35 9.97
8/19/2021 6:45:00 AM 14.82 58.676 0.023 5.34 28.3 9.97
8/19/2021 7:00:00 AM 14.79 58.622 0.023 5.36 27.64 9.98
8/19/2021 7:15:00 AM 14.77 58.586 0.023 5.34 26.96 9.99
8/19/2021 7:30:00 AM 14.75 58.55 0.023 5.36 26.88 9.99
8/19/2021 7:45:00 AM 14.73 58.514 0.023 5.36 25.96 10
8/19/2021 8:00:00 AM 14.71 58.478 0.023 5.35 24.44 10.01
8/19/2021 8:15:00 AM 14.69 58.442 0.023 5.38 24.48 10.01
8/19/2021 8:30:00 AM 14.67 58.406 0.023 5.38 24.58 10.01
8/19/2021 8:45:00 AM 14.66 58.388 0.023 5.39 23.68 10.03
8/19/2021 9:00:00 AM 14.65 58.37 0.023 5.4 23.58 10.03
8/19/2021 9:15:00 AM 14.64 58.352 0.023 5.39 22.85 10.04
8/19/2021 9:30:00 AM 14.63 58.334 0.023 5.39 22.72 10.03
8/19/2021 9:45:00 AM 14.63 58.334 0.023 5.39 22.41 10.04
8/19/2021 10:00:00 AM 14.63 58.334 0.023 5.39 21.86 10.05
8/19/2021 10:15:00 AM 14.64 58.352 0.023 5.42 22.18 10.05
8/19/2021 10:30:00 AM 14.65 58.37 0.023 5.4 21.11 10.05
8/19/2021 10:45:00 AM 14.66 58.388 0.024 5.42 20.73 10.06
8/19/2021 11:00:00 AM 14.67 58.406 0.024 5.41 20.99 10.06
8/19/2021 11:15:00 AM 14.69 58.442 0.024 5.43 20.75 10.05
8/19/2021 11:30:00 AM 14.72 58.496 0.024 5.48 19.89 10.05
8/19/2021 11:45:00 AM 14.74 58.532 0.024 5.49 20.04 10.05
8/19/2021 12:00:00 PM 14.76 58.568 0.024 5.46 19.34 10.04
8/19/2021 12:15:00 PM 14.83 58.694 0.024 5.51 18.96 10.03
8/19/2021 12:30:00 PM 14.86 58.748 0.024 5.49 18.66 10.02
8/19/2021 12:45:00 PM 14.9 58.82 0.024 5.5 18.62 10.01
8/19/2021 1:00:00 PM 14.95 58.91 0.024 5.52 18.15 10
8/19/2021 1:15:00 PM 15.04 59.072 0.024 5.55 18.12 9.99
8/19/2021 1:30:00 PM 15.11 59.198 0.024 5.54 18.03 9.98
8/19/2021 1:45:00 PM 15.15 59.27 0.024 5.52 17.88 9.97
8/19/2021 2:00:00 PM 15.22 59.396 0.024 5.54 17.4 9.95
8/19/2021 2:15:00 PM 15.27 59.486 0.024 5.55 17.12 9.93
8/19/2021 2:30:00 PM 15.33 59.594 0.024 5.53 17.04 9.92
8/19/2021 2:45:00 PM 15.37 59.666 0.024 5.52 16.99 9.91
8/19/2021 3:00:00 PM 15.39 59.702 0.024 5.55 17.03 9.9
8/19/2021 3:15:00 PM 15.44 59.792 0.024 5.57 16.86 9.9
8/19/2021 3:30:00 PM 15.51 59.918 0.024 5.58 16.43 9.88
8/19/2021 3:45:00 PM 15.59 60.062 0.024 5.58 15.99 9.86
8/19/2021 4:00:00 PM 15.66 60.188 0.024 5.59 16.34 9.84
8/19/2021 4:15:00 PM 15.69 60.242 0.024 5.58 16.51 9.82
8/19/2021 4:30:00 PM 15.7 60.26 0.024 5.57 15.91 9.82
8/19/2021 4:45:00 PM 15.69 60.242 0.024 5.55 15.41 9.82
8/19/2021 5:00:00 PM 15.67 60.206 0.024 5.55 15.35 9.82
8/19/2021 5:15:00 PM 15.66 60.188 0.024 5.57 15.23 9.82
8/19/2021 5:30:00 PM 15.63 60.134 0.024 5.56 14.9 9.82
8/19/2021 5:45:00 PM 15.61 60.098 0.024 5.57 14.77 9.82
8/19/2021 6:00:00 PM 15.58 60.044 0.024 5.57 14.49 9.82
8/19/2021 6:15:00 PM 15.55 59.99 0.024 5.57 13.97 9.82
8/19/2021 6:30:00 PM 15.52 59.936 0.024 5.57 13.97 9.83
8/19/2021 6:45:00 PM 15.48 59.864 0.024 5.54 13.94 9.83
8/19/2021 7:00:00 PM 15.44 59.792 0.024 5.56 14.22 9.84
8/19/2021 7:15:00 PM 15.39 59.702 0.024 5.54 13.96 9.84
8/19/2021 7:30:00 PM 15.35 59.63 0.024 5.56 13.21 9.85
8/19/2021 7:45:00 PM 15.3 59.54 0.025 5.55 13.42 9.86
8/19/2021 8:00:00 PM 15.25 59.45 0.025 5.54 13.13 9.87
8/19/2021 8:15:00 PM 15.2 59.36 0.025 5.57 12.88 9.87
8/19/2021 8:30:00 PM 15.15 59.27 0.025 5.55 12.78 9.88
8/19/2021 8:45:00 PM 15.1 59.18 0.025 5.56 12.78 9.89
8/19/2021 9:00:00 PM 15.06 59.108 0.025 5.56 12.6 9.9
8/19/2021 9:15:00 PM 15.01 59.018 0.025 5.59 12.36 9.92
8/19/2021 9:30:00 PM 14.97 58.946 0.025 5.58 12.17 9.93
8/19/2021 9:45:00 PM 14.92 58.856 0.025 5.59 12.14 9.94
8/19/2021 10:00:00 PM 14.88 58.784 0.025 5.59 11.72 9.95
8/19/2021 10:15:00 PM 14.84 58.712 0.025 5.62 12.08 9.96
8/19/2021 10:30:00 PM 14.8 58.64 0.025 5.63 11.96 9.97
8/19/2021 10:45:00 PM 14.76 58.568 0.025 5.64 11.74 9.98
8/19/2021 11:00:00 PM 14.73 58.514 0.025 5.64 11.78 9.99
8/19/2021 11:15:00 PM 14.69 58.442 0.025 5.64 11.64 10
8/19/2021 11:30:00 PM 14.66 58.388 0.025 5.65 11.1 10
8/19/2021 11:45:00 PM 14.63 58.334 0.025 5.67 11.42 10.01
8/20/2021 12:00:00 AM 14.6 58.28 0.025 5.65 10.74 10.02
8/20/2021 12:15:00 AM 14.57 58.226 0.025 5.66 10.94 10.03
8/20/2021 12:30:00 AM 14.55 58.19 0.025 5.65 10.79 10.03
8/20/2021 12:45:00 AM 14.52 58.136 0.025 5.63 10.64 10.04
8/20/2021 1:00:00 AM 14.5 58.1 0.025 5.63 10.78 10.04
8/20/2021 1:15:00 AM 14.47 58.046 0.025 5.63 10.66 10.05
8/20/2021 1:30:00 AM 14.45 58.01 0.025 5.62 10.45 10.05
8/20/2021 1:45:00 AM 14.42 57.956 0.025 5.6 10.44 10.06
8/20/2021 2:00:00 AM 14.4 57.92 0.025 5.62 9.99 10.06
8/20/2021 2:15:00 AM 14.38 57.884 0.025 5.61 10.17 10.07
8/20/2021 2:30:00 AM 14.36 57.848 0.025 5.6 9.99 10.07
8/20/2021 2:45:00 AM 14.35 57.83 0.025 5.62 10.16 10.07
8/20/2021 3:00:00 AM 14.33 57.794 0.025 5.61 9.8 10.07
8/20/2021 3:15:00 AM 14.31 57.758 0.025 5.61 9.78 10.08
8/20/2021 3:30:00 AM 14.3 57.74 0.025 5.64 9.91 10.09
8/20/2021 3:45:00 AM 14.28 57.704 0.025 5.62 9.62 10.08
8/20/2021 4:00:00 AM 14.27 57.686 0.025 5.62 9.28 10.09
8/20/2021 4:15:00 AM 14.26 57.668 0.025 5.6 9.59 10.08
8/20/2021 4:30:00 AM 14.24 57.632 0.025 5.62 9.54 10.09
8/20/2021 4:45:00 AM 14.23 57.614 0.025 5.63 9.22 10.1
8/20/2021 5:00:00 AM 14.22 57.596 0.025 5.65 9.45 10.09
8/20/2021 5:15:00 AM 14.21 57.578 0.025 5.62 9.61 10.09
8/20/2021 5:30:00 AM 14.2 57.56 0.025 5.65 9.46 10.1
8/20/2021 5:45:00 AM 14.19 57.542 0.025 5.64 9.05 10.11
8/20/2021 6:00:00 AM 14.18 57.524 0.025 5.66 9.31 10.1
8/20/2021 6:15:00 AM 14.17 57.506 0.025 5.65 9.31 10.1
8/20/2021 6:30:00 AM 14.16 57.488 0.025 5.68 8.92 10.1
8/20/2021 6:45:00 AM 14.15 57.47 0.025 5.66 8.88 10.12
8/20/2021 7:00:00 AM 14.14 57.452 0.025 5.64 8.99 10.11
8/20/2021 7:15:00 AM 14.13 57.434 0.025 5.62 9.25 10.12
8/20/2021 7:30:00 AM 14.12 57.416 0.025 5.67 8.78 10.13
8/20/2021 7:45:00 AM 14.11 57.398 0.025 5.67 8.95 10.13
8/20/2021 8:00:00 AM 14.11 57.398 0.025 5.67 9.19 10.13
8/20/2021 8:15:00 AM 14.1 57.38 0.025 5.66 8.95 10.14
8/20/2021 8:30:00 AM 14.1 57.38 0.025 5.66 8.93 10.15
8/20/2021 8:45:00 AM 14.09 57.362 0.025 5.65 8.47 10.15
8/20/2021 9:00:00 AM 14.09 57.362 0.025 5.69 8.24 10.16
8/20/2021 9:15:00 AM 14.09 57.362 0.025 5.67 8.63 10.15
8/20/2021 9:30:00 AM 14.1 57.38 0.025 5.68 8.64 10.15
8/20/2021 9:45:00 AM 14.11 57.398 0.025 5.7 8.07 10.17
8/20/2021 10:00:00 AM 14.12 57.416 0.025 5.7 8.1 10.17
8/20/2021 10:15:00 AM 14.14 57.452 0.025 5.69 8.31 10.17
8/20/2021 10:30:00 AM 14.17 57.506 0.025 5.7 8.08 10.15
8/20/2021 10:45:00 AM 14.2 57.56 0.025 5.7 7.61 10.16
8/20/2021 11:00:00 AM 14.23 57.614 0.025 5.74 8.24 10.15
8/20/2021 11:15:00 AM 14.28 57.704 0.025 5.72 7.84 10.15
8/20/2021 11:30:00 AM 14.35 57.83 0.025 5.76 7.99 10.13
8/20/2021 11:45:00 AM 14.39 57.902 0.025 5.79 7.95 10.12
8/20/2021 12:00:00 PM 14.43 57.974 0.025 5.74 7.85 10.11
8/20/2021 12:15:00 PM 14.51 58.118 0.025 5.74 7.59 10.09
8/20/2021 12:30:00 PM 14.59 58.262 0.025 5.75 7.85 10.08
8/20/2021 12:45:00 PM 14.6 58.28 0.025 5.75 8.1 10.06
8/20/2021 1:00:00 PM 14.68 58.424 0.025 5.75 7.6 10.05
8/20/2021 1:15:00 PM 14.8 58.64 0.025 5.77 7.76 10.03
8/20/2021 1:30:00 PM 14.78 58.604 0.025 5.73 7.65 10.02
8/20/2021 1:45:00 PM 14.85 58.73 0.025 5.77 7.79 10.01
8/20/2021 2:00:00 PM 14.97 58.946 0.025 5.77 7.58 9.99
8/20/2021 2:15:00 PM 15.1 59.18 0.025 5.8 7.95 9.97
8/20/2021 2:30:00 PM 15.19 59.342 0.025 5.78 7.66 9.95
8/20/2021 2:45:00 PM 15.28 59.504 0.025 5.79 7.72 9.93
8/20/2021 3:00:00 PM 15.36 59.648 0.025 5.82 7.72 9.91
8/20/2021 3:15:00 PM 15.41 59.738 0.025 5.77 7.43 9.9
8/20/2021 3:30:00 PM 15.32 59.576 0.025 5.76 7.61 9.89
8/20/2021 3:45:00 PM 15.27 59.486 0.025 5.72 7.61 9.88
8/20/2021 4:00:00 PM 15.26 59.468 0.025 5.72 7.61 9.88
8/20/2021 4:15:00 PM 15.29 59.522 0.026 5.74 7.76 9.88
8/20/2021 4:30:00 PM 15.35 59.63 0.026 5.76 7.69 9.87
8/20/2021 4:45:00 PM 15.38 59.684 0.026 5.76 7.88 9.86
8/20/2021 5:00:00 PM 15.4 59.72 0.026 5.78 7.32 9.85
8/20/2021 5:15:00 PM 15.42 59.756 0.026 5.78 7.57 9.84
8/20/2021 5:30:00 PM 15.43 59.774 0.026 5.77 7.36 9.83
8/20/2021 5:45:00 PM 15.43 59.774 0.026 5.75 7.47 9.83
8/20/2021 6:00:00 PM 15.41 59.738 0.026 5.76 7.28 9.83
8/20/2021 6:15:00 PM 15.4 59.72 0.026 5.75 7.48 9.82
8/20/2021 6:30:00 PM 15.4 59.72 0.026 5.73 7.14 9.83
8/20/2021 6:45:00 PM 15.39 59.702 0.026 5.76 6.88 9.82
8/20/2021 7:00:00 PM 15.38 59.684 0.026 5.75 7.28 9.82
8/20/2021 7:15:00 PM 15.36 59.648 0.026 5.71 7.07 9.82
8/20/2021 7:30:00 PM 15.35 59.63 0.026 5.72 7.03 9.82
8/20/2021 7:45:00 PM 15.33 59.594 0.026 5.72 7.14 9.83
8/20/2021 8:00:00 PM 15.31 59.558 0.026 5.73 6.95 9.83
8/20/2021 8:15:00 PM 15.29 59.522 0.026 5.74 7.45 9.83
8/20/2021 8:30:00 PM 15.27 59.486 0.026 5.74 6.94 9.84
8/20/2021 8:45:00 PM 15.24 59.432 0.026 5.73 7 9.83
8/20/2021 9:00:00 PM 15.22 59.396 0.026 5.74 7 9.84
8/20/2021 9:15:00 PM 15.2 59.36 0.026 5.75 6.83 9.85
8/20/2021 9:30:00 PM 15.18 59.324 0.026 5.73 6.76 9.86
8/20/2021 9:45:00 PM 15.14 59.252 0.026 5.74 6.92 9.86
8/20/2021 10:00:00 PM 15.11 59.198 0.026 5.77 7.06 9.87
8/20/2021 10:15:00 PM 15.08 59.144 0.026 5.72 6.74 9.88
8/20/2021 10:30:00 PM 15.06 59.108 0.026 5.74 6.86 9.88
8/20/2021 10:45:00 PM 15.02 59.036 0.026 5.72 6.38 9.89
8/20/2021 11:00:00 PM 14.99 58.982 0.026 5.74 6.96 9.9
8/20/2021 11:15:00 PM 14.96 58.928 0.026 5.78 6.8 9.91
8/20/2021 11:30:00 PM 14.93 58.874 0.026 5.76 6.66 9.91
8/20/2021 11:45:00 PM 14.9 58.82 0.026 5.77 6.71 9.92
8/21/2021 12:00:00 AM 14.87 58.766 0.026 5.77 6.35 9.92
8/21/2021 12:15:00 AM 14.84 58.712 0.026 5.76 6.59 9.93
8/21/2021 12:30:00 AM 14.81 58.658 0.026 5.78 6.85 9.94
8/21/2021 12:45:00 AM 14.78 58.604 0.026 5.8 6.53 9.94
8/21/2021 1:00:00 AM 14.76 58.568 0.026 5.81 6.35 9.95
8/21/2021 1:15:00 AM 14.73 58.514 0.026 5.75 6.48 9.96
8/21/2021 1:30:00 AM 14.7 58.46 0.026 5.81 6.59 9.96
8/21/2021 1:45:00 AM 14.68 58.424 0.026 5.79 6.68 9.97
8/21/2021 2:00:00 AM 14.65 58.37 0.026 5.77 6.42 9.97
8/21/2021 2:15:00 AM 14.63 58.334 0.026 5.77 6.37 9.97
8/21/2021 2:30:00 AM 14.6 58.28 0.026 5.77 6.59 9.98
8/21/2021 2:45:00 AM 14.58 58.244 0.026 5.79 6.3 9.99
8/21/2021 3:00:00 AM 14.56 58.208 0.026 5.79 6.57 9.99
8/21/2021 3:15:00 AM 14.54 58.172 0.027 5.78 6.14 9.99
8/21/2021 3:30:00 AM 14.52 58.136 0.027 5.82 6.47 10
8/21/2021 3:45:00 AM 14.5 58.1 0.027 5.81 6.78 10
8/21/2021 4:00:00 AM 14.48 58.064 0.027 5.78 6.01 10.01
8/21/2021 4:15:00 AM 14.47 58.046 0.027 5.79 6.68 10.01
8/21/2021 4:30:00 AM 14.45 58.01 0.027 5.78 5.74 10.01
8/21/2021 4:45:00 AM 14.43 57.974 0.027 5.83 6.2 10.01
8/21/2021 5:00:00 AM 14.42 57.956 0.027 5.8 6.1 10.02
8/21/2021 5:15:00 AM 14.41 57.938 0.027 5.76 5.74 10.02
8/21/2021 5:30:00 AM 14.39 57.902 0.027 5.78 6.35 10.02
8/21/2021 5:45:00 AM 14.38 57.884 0.027 5.82 6.17 10.02
8/21/2021 6:00:00 AM 14.37 57.866 0.027 5.78 5.66 10.02
8/21/2021 6:15:00 AM 14.36 57.848 0.027 5.85 5.76 10.03
8/21/2021 6:30:00 AM 14.35 57.83 0.027 5.78 6.03 10.03
8/21/2021 6:45:00 AM 14.34 57.812 0.027 5.75 6.01 10.03
8/21/2021 7:00:00 AM 14.33 57.794 0.027 5.82 5.7 10.04
8/21/2021 7:15:00 AM 14.32 57.776 0.027 5.78 5.78 10.05
8/21/2021 7:30:00 AM 14.32 57.776 0.027 5.82 5.84 10.05
8/21/2021 7:45:00 AM 14.32 57.776 0.027 5.78 5.6 10.05
8/21/2021 8:00:00 AM 14.31 57.758 0.027 5.82 5.73 10.06
8/21/2021 8:15:00 AM 14.31 57.758 0.027 5.78 5.63 10.06
8/21/2021 8:30:00 AM 14.32 57.776 0.027 5.81 5.51 10.07
8/21/2021 8:45:00 AM 14.33 57.794 0.027 5.8 5.63 10.06
8/21/2021 9:00:00 AM 14.34 57.812 0.027 5.82 5.77 10.07
8/21/2021 9:15:00 AM 14.35 57.83 0.027 5.83 5.56 10.07
8/21/2021 9:30:00 AM 14.39 57.902 0.027 5.82 5.59 10.07
8/21/2021 9:45:00 AM 14.43 57.974 0.027 5.85 5.86 10.06
8/21/2021 10:00:00 AM 14.45 58.01 0.027 5.85 5.72 10.05
8/21/2021 10:15:00 AM 14.5 58.1 0.027 5.91 5.46 10.05
8/21/2021 10:30:00 AM 14.54 58.172 0.027 5.9 5.33 10.04
8/21/2021 10:45:00 AM 14.55 58.19 0.027 5.86 5.74 10.03
8/21/2021 11:00:00 AM 14.57 58.226 0.027 5.83 5.47 10.02
8/21/2021 11:15:00 AM 14.6 58.28 0.027 5.86 5.48 10.02
8/21/2021 11:30:00 AM 14.67 58.406 0.027 5.89 5.11 10.01
8/21/2021 11:45:00 AM 14.76 58.568 0.027 5.91 5.43 10
8/21/2021 12:00:00 PM 14.84 58.712 0.027 5.96 5.21 9.98
8/21/2021 12:15:00 PM 14.85 58.73 0.027 5.93 5.42 9.97
8/21/2021 12:30:00 PM 14.91 58.838 0.027 5.92 5.16 9.96
8/21/2021 12:45:00 PM 14.97 58.946 0.027 5.89 5.16 9.95
8/21/2021 1:00:00 PM 14.99 58.982 0.027 5.93 5.65 9.96
8/21/2021 1:15:00 PM 15 59 0.027 5.92 5.32 9.95
8/21/2021 1:30:00 PM 15.01 59.018 0.027 5.93 5.25 9.94
8/21/2021 1:45:00 PM 15.07 59.126 0.027 5.92 5.18 9.94
8/21/2021 2:00:00 PM 15.16 59.288 0.027 5.92 5.25 9.92
8/21/2021 2:15:00 PM 15.3 59.54 0.027 5.94 5.22 9.91
8/21/2021 2:30:00 PM 15.36 59.648 0.027 5.95 5.49 9.9
8/21/2021 2:45:00 PM 15.35 59.63 0.027 5.94 5.34 9.88
8/21/2021 3:00:00 PM 15.35 59.63 0.027 5.94 5.2 9.86
8/21/2021 3:15:00 PM 15.34 59.612 0.027 5.89 5.1 9.84
8/21/2021 3:30:00 PM 15.42 59.756 0.027 5.97 5.31 9.84
8/21/2021 3:45:00 PM 15.45 59.81 0.027 6 5.25 9.84
8/21/2021 4:00:00 PM 15.46 59.828 0.027 5.92 5.29 9.83
8/21/2021 4:15:00 PM 15.51 59.918 0.027 5.94 5.36 9.82
8/21/2021 4:30:00 PM 15.55 59.99 0.027 5.96 5.39 9.82
8/21/2021 4:45:00 PM 15.56 60.008 0.027 5.93 5.1 9.8
8/21/2021 5:00:00 PM 15.58 60.044 0.027 5.94 5.25 9.79
8/21/2021 5:15:00 PM 15.6 60.08 0.027 5.91 5.06 9.78
8/21/2021 5:30:00 PM 15.62 60.116 0.026 5.91 5.34 9.77
8/21/2021 5:45:00 PM 15.63 60.134 0.026 5.9 5.41 9.76
8/21/2021 6:00:00 PM 15.63 60.134 0.026 5.88 5.38 9.77
8/21/2021 6:15:00 PM 15.63 60.134 0.026 5.86 5.88 9.76
8/21/2021 6:30:00 PM 15.63 60.134 0.026 5.89 6.7 9.76
8/21/2021 6:45:00 PM 15.62 60.116 0.026 5.86 6.51 9.76
8/21/2021 7:00:00 PM 15.61 60.098 0.026 5.84 5.96 9.75
8/21/2021 7:15:00 PM 15.6 60.08 0.026 5.85 6.15 9.75
8/21/2021 7:30:00 PM 15.6 60.08 0.026 5.83 5.74 9.75
8/21/2021 7:45:00 PM 15.6 60.08 0.026 5.85 5.88 9.75
8/21/2021 8:00:00 PM 15.59 60.062 0.026 5.82 5.75 9.75
8/21/2021 8:15:00 PM 15.58 60.044 0.026 5.81 5.54 9.74
8/21/2021 8:30:00 PM 15.57 60.026 0.026 5.8 5.75 9.74
8/21/2021 8:45:00 PM 15.56 60.008 0.026 5.84 5.53 9.75
8/21/2021 9:00:00 PM 15.55 59.99 0.026 5.82 5.47 9.76
8/21/2021 9:15:00 PM 15.54 59.972 0.026 5.83 5.51 9.76
8/21/2021 9:30:00 PM 15.52 59.936 0.026 5.81 5.36 9.76
8/21/2021 9:45:00 PM 15.5 59.9 0.026 5.81 5.12 9.76
8/21/2021 10:00:00 PM 15.49 59.882 0.027 5.82 5.29 9.76
8/21/2021 10:15:00 PM 15.47 59.846 0.027 5.82 5.62 9.77
8/21/2021 10:30:00 PM 15.45 59.81 0.027 5.82 5.32 9.77
8/21/2021 10:45:00 PM 15.43 59.774 0.027 5.85 5.65 9.78
8/21/2021 11:00:00 PM 15.41 59.738 0.027 5.81 5.18 9.78
8/21/2021 11:15:00 PM 15.38 59.684 0.027 5.86 4.88 9.79
8/21/2021 11:30:00 PM 15.36 59.648 0.027 5.84 5.01 9.79
8/21/2021 11:45:00 PM 15.33 59.594 0.027 5.85 5.08 9.8
8/22/2021 12:00:00 AM 15.3 59.54 0.027 5.83 5.06 9.81
8/22/2021 12:15:00 AM 15.27 59.486 0.027 5.87 5.05 9.82
8/22/2021 12:30:00 AM 15.25 59.45 0.027 5.84 4.93 9.82
8/22/2021 12:45:00 AM 15.22 59.396 0.027 5.82 5.09 9.82
8/22/2021 1:00:00 AM 15.19 59.342 0.027 5.85 5.01 9.83
8/22/2021 1:15:00 AM 15.17 59.306 0.027 5.86 5.07 9.83
8/22/2021 1:30:00 AM 15.14 59.252 0.027 5.84 5.05 9.84
8/22/2021 1:45:00 AM 15.11 59.198 0.027 5.86 5.08 9.85
8/22/2021 2:00:00 AM 15.09 59.162 0.027 5.85 4.89 9.85
8/22/2021 2:15:00 AM 15.07 59.126 0.027 5.83 4.95 9.85
8/22/2021 2:30:00 AM 15.04 59.072 0.027 5.88 4.79 9.86
8/22/2021 2:45:00 AM 15.02 59.036 0.027 5.83 5.03 9.86
8/22/2021 3:00:00 AM 15 59 0.027 5.84 4.79 9.87
8/22/2021 3:15:00 AM 14.98 58.964 0.027 5.85 4.87 9.87
8/22/2021 3:30:00 AM 14.96 58.928 0.027 5.86 4.94 9.88
8/22/2021 3:45:00 AM 14.94 58.892 0.027 5.84 5.09 9.88
8/22/2021 4:00:00 AM 14.92 58.856 0.027 5.83 4.91 9.89
8/22/2021 4:15:00 AM 14.9 58.82 0.027 5.82 5.06 9.89
8/22/2021 4:30:00 AM 14.88 58.784 0.027 5.86 4.89 9.9
8/22/2021 4:45:00 AM 14.86 58.748 0.027 5.89 5.07 9.9
8/22/2021 5:00:00 AM 14.84 58.712 0.027 5.88 4.68 9.91
8/22/2021 5:15:00 AM 14.82 58.676 0.027 5.84 4.68 9.92
8/22/2021 5:30:00 AM 14.8 58.64 0.027 5.84 4.96 9.92
8/22/2021 5:45:00 AM 14.79 58.622 0.027 5.85 4.94 9.93
8/22/2021 6:00:00 AM 14.77 58.586 0.027 5.84 4.84 9.93
8/22/2021 6:15:00 AM 14.76 58.568 0.027 5.89 4.81 9.93
8/22/2021 6:30:00 AM 14.75 58.55 0.027 5.87 5.81 9.93
8/22/2021 6:45:00 AM 14.74 58.532 0.027 5.84 5.02 9.94
8/22/2021 7:00:00 AM 14.72 58.496 0.027 5.88 5.06 9.94
8/22/2021 7:15:00 AM 14.71 58.478 0.027 5.86 4.84 9.94
8/22/2021 7:30:00 AM 14.7 58.46 0.027 5.84 4.86 9.95
8/22/2021 7:45:00 AM 14.69 58.442 0.027 5.86 4.78 9.95
8/22/2021 8:00:00 AM 14.69 58.442 0.027 5.87 5.05 9.97
8/22/2021 8:15:00 AM 14.68 58.424 0.027 5.88 4.58 9.97
8/22/2021 8:30:00 AM 14.68 58.424 0.027 5.89 4.5 9.97
8/22/2021 8:45:00 AM 14.69 58.442 0.027 5.9 4.56 9.98
8/22/2021 9:00:00 AM 14.69 58.442 0.027 5.9 4.28 9.98
8/22/2021 9:15:00 AM 14.71 58.478 0.027 5.95 4.45 9.99
8/22/2021 9:30:00 AM 14.73 58.514 0.027 5.93 4.75 9.99
8/22/2021 9:45:00 AM 14.74 58.532 0.027 5.95 4.65 9.99
8/22/2021 10:00:00 AM 14.76 58.568 0.027 5.93 4.37 9.99
8/22/2021 10:15:00 AM 14.8 58.64 0.027 5.97 4.43 9.99
8/22/2021 10:30:00 AM 14.83 58.694 0.027 5.93 4.7 9.99
8/22/2021 10:45:00 AM 14.86 58.748 0.027 5.94 4.63 9.98
8/22/2021 11:00:00 AM 14.89 58.802 0.027 5.98 4.49 9.98
8/22/2021 11:15:00 AM 14.93 58.874 0.027 5.93 4.78 9.97
8/22/2021 11:30:00 AM 15.01 59.018 0.027 5.95 4.57 9.95
8/22/2021 11:45:00 AM 15.09 59.162 0.027 5.97 4.46 9.94
8/22/2021 12:00:00 PM 15.16 59.288 0.027 6 4.32 9.93
8/22/2021 12:15:00 PM 15.23 59.414 0.027 5.99 4.45 9.91
8/22/2021 12:30:00 PM 15.32 59.576 0.027 6.01 4.33 9.89
8/22/2021 12:45:00 PM 15.41 59.738 0.027 5.98 4.38 9.87
8/22/2021 1:00:00 PM 15.48 59.864 0.027 6.02 4.42 9.85
8/22/2021 1:15:00 PM 15.59 60.062 0.027 6.02 4.85 9.84
8/22/2021 1:30:00 PM 15.69 60.242 0.027 6.02 4.35 9.82
8/22/2021 1:45:00 PM 15.72 60.296 0.027 6.04 4.51 9.81
8/22/2021 2:00:00 PM 15.78 60.404 0.027 6.05 4.38 9.79
8/22/2021 2:15:00 PM 15.9 60.62 0.027 6.03 4.54 9.78
8/22/2021 2:30:00 PM 15.92 60.656 0.027 6.02 4.7 9.76
8/22/2021 2:45:00 PM 15.92 60.656 0.027 6.01 4.69 9.75
8/22/2021 3:00:00 PM 15.91 60.638 0.027 5.99 4.68 9.75
8/22/2021 3:15:00 PM 15.89 60.602 0.027 5.94 4.51 9.72
8/22/2021 3:30:00 PM 15.89 60.602 0.027 5.96 4.37 9.72
8/22/2021 3:45:00 PM 15.9 60.62 0.027 5.95 4.63 9.72
8/22/2021 4:00:00 PM 15.9 60.62 0.027 5.93 4.58 9.72
8/22/2021 4:15:00 PM 15.91 60.638 0.027 5.94 4.58 9.71
8/22/2021 4:30:00 PM 15.91 60.638 0.027 5.94 4.27 9.7
8/22/2021 4:45:00 PM 15.92 60.656 0.027 5.9 4.43 9.69
8/22/2021 5:00:00 PM 15.93 60.674 0.027 5.9 4.57 9.69
8/22/2021 5:15:00 PM 15.93 60.674 0.027 5.9 4.56 9.68
8/22/2021 5:30:00 PM 15.94 60.692 0.027 5.9 4.96 9.67
8/22/2021 5:45:00 PM 15.95 60.71 0.027 5.91 4.73 9.66
8/22/2021 6:00:00 PM 15.96 60.728 0.027 5.93 4.7 9.66
8/22/2021 6:15:00 PM 15.96 60.728 0.027 5.95 4.53 9.67
8/22/2021 6:30:00 PM 15.97 60.746 0.027 5.92 4.78 9.66
8/22/2021 6:45:00 PM 15.97 60.746 0.027 5.88 4.4 9.66
8/22/2021 7:00:00 PM 15.97 60.746 0.028 5.9 4.38 9.65
8/22/2021 7:15:00 PM 15.96 60.728 0.028 5.85 4.76 9.65
8/22/2021 7:30:00 PM 15.96 60.728 0.028 5.88 4.37 9.65
8/22/2021 7:45:00 PM 15.95 60.71 0.028 5.86 4.36 9.64
8/22/2021 8:00:00 PM 15.94 60.692 0.028 5.86 4.14 9.64
8/22/2021 8:15:00 PM 15.93 60.674 0.028 5.82 4.4 9.64
8/22/2021 8:30:00 PM 15.92 60.656 0.028 5.86 4.47 9.63
8/22/2021 8:45:00 PM 15.91 60.638 0.028 5.83 4.46 9.64
8/22/2021 9:00:00 PM 15.9 60.62 0.028 5.84 4.42 9.64
8/22/2021 9:15:00 PM 15.89 60.602 0.028 5.81 4.93 9.64
8/22/2021 9:30:00 PM 15.87 60.566 0.028 5.84 4.69 9.64
8/22/2021 9:45:00 PM 15.86 60.548 0.028 5.8 4.33 9.65
8/22/2021 10:00:00 PM 15.85 60.53 0.028 5.84 4.32 9.65
8/22/2021 10:15:00 PM 15.83 60.494 0.028 5.81 4.25 9.66
8/22/2021 10:30:00 PM 15.81 60.458 0.028 5.8 4.29 9.66
8/22/2021 10:45:00 PM 15.8 60.44 0.028 5.85 4.26 9.66
8/22/2021 11:00:00 PM 15.79 60.422 0.028 5.85 4.34 9.66
8/22/2021 11:15:00 PM 15.77 60.386 0.028 5.88 4.26 9.66
8/22/2021 11:30:00 PM 15.76 60.368 0.028 5.88 4.51 9.67
8/22/2021 11:45:00 PM 15.74 60.332 0.028 5.86 4.4 9.67
8/23/2021 12:00:00 AM 15.72 60.296 0.028 5.84 4.41 9.67
8/23/2021 12:15:00 AM 15.71 60.278 0.028 5.85 4.19 9.68
8/23/2021 12:30:00 AM 15.7 60.26 0.028 5.87 4.01 9.68
8/23/2021 12:45:00 AM 15.68 60.224 0.028 5.85 4.09 9.68
8/23/2021 1:00:00 AM 15.66 60.188 0.028 5.84 4.24 9.69
8/23/2021 1:15:00 AM 15.65 60.17 0.028 5.84 4.35 9.69
8/23/2021 1:30:00 AM 15.63 60.134 0.028 5.86 4.27 9.7
8/23/2021 1:45:00 AM 15.61 60.098 0.028 5.87 4.21 9.7
8/23/2021 2:00:00 AM 15.59 60.062 0.028 5.9 4.59 9.7
8/23/2021 2:15:00 AM 15.58 60.044 0.028 5.9 4.17 9.71
8/23/2021 2:30:00 AM 15.56 60.008 0.028 5.87 4.2 9.72
8/23/2021 2:45:00 AM 15.54 59.972 0.028 5.89 4 9.71
8/23/2021 3:00:00 AM 15.53 59.954 0.028 5.92 4.22 9.72
8/23/2021 3:15:00 AM 15.5 59.9 0.028 5.9 4.08 9.73
8/23/2021 3:30:00 AM 15.49 59.882 0.028 5.92 4.11 9.73
8/23/2021 3:45:00 AM 15.46 59.828 0.028 5.94 4.18 9.73
8/23/2021 4:00:00 AM 15.44 59.792 0.028 5.93 4.38 9.73
8/23/2021 4:15:00 AM 15.43 59.774 0.028 5.92 4.2 9.74
8/23/2021 4:30:00 AM 15.41 59.738 0.028 5.95 4.24 9.74
8/23/2021 4:45:00 AM 15.39 59.702 0.028 5.95 4.28 9.75
8/23/2021 5:00:00 AM 15.37 59.666 0.028 5.94 4.28 9.76
8/23/2021 5:15:00 AM 15.35 59.63 0.028 5.95 4.04 9.75
8/23/2021 5:30:00 AM 15.34 59.612 0.028 5.94 4.14 9.77
8/23/2021 5:45:00 AM 15.32 59.576 0.028 5.93 3.98 9.77
8/23/2021 6:00:00 AM 15.3 59.54 0.028 5.91 4.01 9.77
8/23/2021 6:15:00 AM 15.28 59.504 0.028 5.89 4.02 9.78
8/23/2021 6:30:00 AM 15.27 59.486 0.028 5.92 3.93 9.78
8/23/2021 6:45:00 AM 15.26 59.468 0.028 5.93 4.17 9.79
8/23/2021 7:00:00 AM 15.24 59.432 0.028 5.95 3.82 9.79
8/23/2021 7:15:00 AM 15.23 59.414 0.028 5.95 4.24 9.8
8/23/2021 7:30:00 AM 15.22 59.396 0.028 5.92 4.05 9.8
8/23/2021 7:45:00 AM 15.21 59.378 0.028 5.96 4.15 9.81
8/23/2021 8:00:00 AM 15.21 59.378 0.028 5.96 4.21 9.82
8/23/2021 8:15:00 AM 15.21 59.378 0.028 5.94 3.78 9.83
8/23/2021 8:30:00 AM 15.21 59.378 0.028 5.96 3.99 9.84
8/23/2021 8:45:00 AM 15.21 59.378 0.028 5.95 4.05 9.84
8/23/2021 9:00:00 AM 15.22 59.396 0.028 5.94 3.97 9.84
8/23/2021 9:15:00 AM 15.22 59.396 0.028 5.97 3.88 9.85
8/23/2021 9:30:00 AM 15.24 59.432 0.028 5.98 3.82 9.85
8/23/2021 9:45:00 AM 15.26 59.468 0.028 6 3.62 9.84
8/23/2021 10:00:00 AM 15.28 59.504 0.028 6.01 4.09 9.84
8/23/2021 10:15:00 AM 15.31 59.558 0.028 5.99 3.8 9.84
8/23/2021 10:30:00 AM 15.35 59.63 0.028 6.01 3.86 9.84
8/23/2021 10:45:00 AM 15.39 59.702 0.028 6.03 4.67 9.84
8/23/2021 11:00:00 AM 15.43 59.774 0.028 6.04 3.81 9.83
8/23/2021 11:15:00 AM 15.46 59.828 0.028 6.05 3.79 9.82
8/23/2021 11:30:00 AM 15.51 59.918 0.028 6.05 3.79 9.81
8/23/2021 11:45:00 AM 15.61 60.098 0.028 6.09 3.92 9.8
8/23/2021 12:00:00 PM 15.68 60.224 0.028 6.08 3.7 9.79
8/23/2021 12:15:00 PM 15.79 60.422 0.028 6.09 3.75 9.78
8/23/2021 12:30:00 PM 15.87 60.566 0.028 6.06 3.87 9.76
8/23/2021 12:45:00 PM 15.98 60.764 0.028 6.1 3.79 9.74
8/23/2021 1:00:00 PM 16.05 60.89 0.028 6.13 3.79 9.73
8/23/2021 1:15:00 PM 16.17 61.106 0.028 6.11 3.83 9.71
8/23/2021 1:30:00 PM 16.27 61.286 0.028 6.11 3.94 9.69
8/23/2021 1:45:00 PM 16.36 61.448 0.028 6.12 3.94 9.67
8/23/2021 2:00:00 PM 16.45 61.61 0.028 6.13 3.76 9.65
8/23/2021 2:15:00 PM 16.56 61.808 0.028 6.13 3.58 9.62
8/23/2021 2:30:00 PM 16.59 61.862 0.028 6.11 3.74 9.6
8/23/2021 2:45:00 PM 16.68 62.024 0.028 6.13 3.96 9.59
8/23/2021 3:00:00 PM 16.79 62.222 0.028 6.15 3.73 9.57
8/23/2021 3:15:00 PM 16.89 62.402 0.028 6.13 3.73 9.56
8/23/2021 3:30:00 PM 16.9 62.42 0.028 6.09 3.77 9.53
8/23/2021 3:45:00 PM 16.9 62.42 0.028 6.11 3.54 9.51
8/23/2021 4:00:00 PM 16.94 62.492 0.028 6.06 3.87 9.5
8/23/2021 4:15:00 PM 17 62.6 0.028 6.1 3.75 9.5
8/23/2021 4:30:00 PM 17.04 62.672 0.028 6.07 3.94 9.49
8/23/2021 4:45:00 PM 17.04 62.672 0.028 6.07 3.8 9.48
8/23/2021 5:00:00 PM 17.03 62.654 0.028 6.07 3.7 9.47
8/23/2021 5:15:00 PM 17.03 62.654 0.028 6.07 3.74 9.46
8/23/2021 5:30:00 PM 17.03 62.654 0.028 6.07 3.82 9.45
8/23/2021 5:45:00 PM 17.03 62.654 0.028 6.08 3.74 9.45
8/23/2021 6:00:00 PM 17.03 62.654 0.028 6.03 3.67 9.43
8/23/2021 6:15:00 PM 17.02 62.636 0.028 6.03 3.73 9.43
8/23/2021 6:30:00 PM 17.01 62.618 0.028 6.05 3.68 9.43
8/23/2021 6:45:00 PM 16.99 62.582 0.028 6.03 3.71 9.43
8/23/2021 7:00:00 PM 16.98 62.564 0.028 6.03 3.61 9.43
8/23/2021 7:15:00 PM 16.96 62.528 0.028 5.99 3.7 9.43
8/23/2021 7:30:00 PM 16.94 62.492 0.028 6.01 3.74 9.42
8/23/2021 7:45:00 PM 16.92 62.456 0.028 6.01 3.75 9.42
8/23/2021 8:00:00 PM 16.9 62.42 0.028 6.02 3.66 9.43
8/23/2021 8:15:00 PM 16.89 62.402 0.028 6.01 3.51 9.43
8/23/2021 8:30:00 PM 16.87 62.366 0.028 6.02 3.63 9.42
8/23/2021 8:45:00 PM 16.85 62.33 0.028 5.96 3.66 9.44
8/23/2021 9:00:00 PM 16.84 62.312 0.028 6 3.74 9.43
8/23/2021 9:15:00 PM 16.82 62.276 0.029 6.01 3.73 9.43
8/23/2021 9:30:00 PM 16.8 62.24 0.029 5.99 3.89 9.44
8/23/2021 9:45:00 PM 16.79 62.222 0.029 6.01 3.67 9.45
8/23/2021 10:00:00 PM 16.77 62.186 0.029 6.02 3.77 9.46
8/23/2021 10:15:00 PM 16.75 62.15 0.029 5.98 3.66 9.46
8/23/2021 10:30:00 PM 16.72 62.096 0.029 6.01 3.63 9.46
8/23/2021 10:45:00 PM 16.7 62.06 0.029 6 3.88 9.47
8/23/2021 11:00:00 PM 16.67 62.006 0.029 6.01 3.75 9.48
8/23/2021 11:15:00 PM 16.64 61.952 0.029 6.01 3.64 9.48
8/23/2021 11:30:00 PM 16.61 61.898 0.029 6.01 3.62 9.49
8/23/2021 11:45:00 PM 16.58 61.844 0.029 6.02 3.59 9.49
8/24/2021 12:00:00 AM 16.55 61.79 0.029 5.99 3.65 9.51
8/24/2021 12:15:00 AM 16.52 61.736 0.029 6 3.74 9.51
8/24/2021 12:30:00 AM 16.49 61.682 0.029 6.03 3.38 9.53
8/24/2021 12:45:00 AM 16.46 61.628 0.029 5.99 3.55 9.53
8/24/2021 1:00:00 AM 16.43 61.574 0.029 6.02 3.83 9.54
8/24/2021 1:15:00 AM 16.4 61.52 0.029 6.01 4 9.54
8/24/2021 1:30:00 AM 16.37 61.466 0.029 6.01 3.78 9.56
8/24/2021 1:45:00 AM 16.35 61.43 0.029 6.02 3.69 9.55
8/24/2021 2:00:00 AM 16.32 61.376 0.029 6.02 3.68 9.56
8/24/2021 2:15:00 AM 16.29 61.322 0.029 6.02 3.78 9.57
8/24/2021 2:30:00 AM 16.26 61.268 0.029 6.02 3.6 9.58
8/24/2021 2:45:00 AM 16.24 61.232 0.029 6.03 3.73 9.58
8/24/2021 3:00:00 AM 16.21 61.178 0.029 6.02 3.58 9.58
8/24/2021 3:15:00 AM 16.18 61.124 0.029 6.02 3.68 9.59
8/24/2021 3:30:00 AM 16.15 61.07 0.029 6.03 3.9 9.6
8/24/2021 3:45:00 AM 16.12 61.016 0.029 6.02 3.69 9.61
8/24/2021 4:00:00 AM 16.1 60.98 0.029 6.03 3.66 9.61
8/24/2021 4:15:00 AM 16.06 60.908 0.029 6.04 3.62 9.62
8/24/2021 4:30:00 AM 16.04 60.872 0.029 6.02 3.79 9.63
8/24/2021 4:45:00 AM 16.01 60.818 0.029 6.03 3.72 9.63
8/24/2021 5:00:00 AM 15.98 60.764 0.029 6 3.67 9.64
8/24/2021 5:15:00 AM 15.95 60.71 0.029 6.01 3.69 9.65
8/24/2021 5:30:00 AM 15.92 60.656 0.029 6.02 3.58 9.65
8/24/2021 5:45:00 AM 15.9 60.62 0.029 6.02 3.8 9.66
8/24/2021 6:00:00 AM 15.87 60.566 0.029 6.02 3.65 9.67
8/24/2021 6:15:00 AM 15.84 60.512 0.029 6.02 3.74 9.68
8/24/2021 6:30:00 AM 15.81 60.458 0.029 6.03 3.61 9.68
8/24/2021 6:45:00 AM 15.79 60.422 0.029 6.01 3.74 9.68
8/24/2021 7:00:00 AM 15.76 60.368 0.029 6 3.58 9.7
8/24/2021 7:15:00 AM 15.74 60.332 0.029 6 3.58 9.71
8/24/2021 7:30:00 AM 15.72 60.296 0.029 6.02 3.48 9.72
8/24/2021 7:45:00 AM 15.7 60.26 0.029 6.04 3.44 9.73
8/24/2021 8:00:00 AM 15.68 60.224 0.029 6.04 3.65 9.74
8/24/2021 8:15:00 AM 15.67 60.206 0.029 6.04 3.42 9.76
8/24/2021 8:30:00 AM 15.66 60.188 0.029 6.05 3.42 9.77
8/24/2021 8:45:00 AM 15.66 60.188 0.029 6.04 3.49 9.78
8/24/2021 9:00:00 AM 15.65 60.17 0.029 6.07 3.47 9.78
8/24/2021 9:15:00 AM 15.65 60.17 0.029 6.06 3.3 9.79
8/24/2021 9:30:00 AM 15.65 60.17 0.029 6.06 3.42 9.79
8/24/2021 9:45:00 AM 15.67 60.206 0.029 6.06 3.45 9.8
8/24/2021 10:00:00 AM 15.71 60.278 0.029 6.09 3.4 9.79
8/24/2021 10:15:00 AM 15.74 60.332 0.029 6.09 3.52 9.79
8/24/2021 10:30:00 AM 15.76 60.368 0.029 6.1 3.27 9.79
8/24/2021 10:45:00 AM 15.81 60.458 0.029 6.09 3.53 9.78
8/24/2021 11:00:00 AM 15.85 60.53 0.029 6.11 3.48 9.78
8/24/2021 11:15:00 AM 15.9 60.62 0.029 6.1 3.41 9.77
8/24/2021 11:30:00 AM 15.96 60.728 0.029 6.11 3.49 9.76
8/24/2021 11:45:00 AM 16.02 60.836 0.029 6.12 3.5 9.75
8/24/2021 12:00:00 PM 16.09 60.962 0.029 6.11 3.48 9.74
8/24/2021 12:15:00 PM 16.18 61.124 0.029 6.14 3.46 9.73
8/24/2021 12:30:00 PM 16.26 61.268 0.029 6.13 3.54 9.71
8/24/2021 12:45:00 PM 16.36 61.448 0.029 6.16 3.48 9.69
8/24/2021 1:00:00 PM 16.47 61.646 0.029 6.15 3.45 9.68
8/24/2021 1:15:00 PM 16.58 61.844 0.029 6.16 3.48 9.66
8/24/2021 1:30:00 PM 16.7 62.06 0.029 6.16 3.49 9.64
8/24/2021 1:45:00 PM 16.82 62.276 0.029 6.16 3.4 9.62
8/24/2021 2:00:00 PM 16.94 62.492 0.029 6.16 3.38 9.6
8/24/2021 2:15:00 PM 17.06 62.708 0.029 6.16 3.65 9.58
8/24/2021 2:30:00 PM 17.17 62.906 0.029 6.17 3.48 9.56
8/24/2021 2:45:00 PM 17.26 63.068 0.029 6.17 3.41 9.54
8/24/2021 3:00:00 PM 17.32 63.176 0.029 6.17 3.38 9.53
8/24/2021 3:15:00 PM 17.35 63.23 0.029 6.17 3.53 9.51
8/24/2021 3:30:00 PM 17.37 63.266 0.029 6.16 3.55 9.49
8/24/2021 3:45:00 PM 17.38 63.284 0.029 6.17 3.36 9.48
8/24/2021 4:00:00 PM 17.4 63.32 0.029 6.16 3.42 9.47
8/24/2021 4:15:00 PM 17.41 63.338 0.029 6.14 3.5 9.46
8/24/2021 4:30:00 PM 17.41 63.338 0.029 6.12 3.42 9.45
8/24/2021 4:45:00 PM 17.4 63.32 0.029 6.14 3.29 9.44
8/24/2021 5:00:00 PM 17.39 63.302 0.029 6.1 3.45 9.44
8/24/2021 5:15:00 PM 17.38 63.284 0.029 6.11 3.32 9.44
8/24/2021 5:30:00 PM 17.36 63.248 0.029 6.11 3.29 9.43
8/24/2021 5:45:00 PM 17.34 63.212 0.029 6.1 3.39 9.43
8/24/2021 6:00:00 PM 17.33 63.194 0.029 6.09 3.52 9.43
8/24/2021 6:15:00 PM 17.3 63.14 0.029 6.07 3.41 9.43
8/24/2021 6:30:00 PM 17.29 63.122 0.029 6.06 3.29 9.42
8/24/2021 6:45:00 PM 17.27 63.086 0.029 6.07 3.41 9.41
8/24/2021 7:00:00 PM 17.25 63.05 0.029 6.06 3.28 9.41
8/24/2021 7:15:00 PM 17.23 63.014 0.029 6.03 3.36 9.41
8/24/2021 7:30:00 PM 17.21 62.978 0.029 6.02 3.38 9.4
8/24/2021 7:45:00 PM 17.2 62.96 0.029 6.02 3.42 9.39
8/24/2021 8:00:00 PM 17.18 62.924 0.029 6.02 3.43 9.4
8/24/2021 8:15:00 PM 17.16 62.888 0.029 6.01 3.57 9.39
8/24/2021 8:30:00 PM 17.14 62.852 0.03 5.99 3.46 9.39
8/24/2021 8:45:00 PM 17.12 62.816 0.03 6 3.38 9.39
8/24/2021 9:00:00 PM 17.11 62.798 0.03 5.98 3.44 9.4
8/24/2021 9:15:00 PM 17.1 62.78 0.03 5.98 3.55 9.4
8/24/2021 9:30:00 PM 17.08 62.744 0.03 5.99 3.39 9.4
8/24/2021 9:45:00 PM 17.07 62.726 0.03 5.97 3.48 9.41
8/24/2021 10:00:00 PM 17.05 62.69 0.03 5.99 3.26 9.41
8/24/2021 10:15:00 PM 17.04 62.672 0.03 5.97 3.57 9.41
8/24/2021 10:30:00 PM 17.02 62.636 0.03 6 3.35 9.42
8/24/2021 10:45:00 PM 17 62.6 0.03 6 3.47 9.43
8/24/2021 11:00:00 PM 16.99 62.582 0.03 6 3.4 9.43
8/24/2021 11:15:00 PM 16.97 62.546 0.03 6 3.44 9.44
8/24/2021 11:30:00 PM 16.95 62.51 0.03 6 3.52 9.45
8/24/2021 11:45:00 PM 16.93 62.474 0.03 6.01 3.53 9.45
8/25/2021 12:00:00 AM 16.9 62.42 0.03 5.99 3.88 9.44
8/25/2021 12:15:00 AM 16.88 62.384 0.03 6.01 3.45 9.46
8/25/2021 12:30:00 AM 16.86 62.348 0.03 6.03 3.31 9.46
8/25/2021 12:45:00 AM 16.84 62.312 0.03 6.03 3.36 9.47
8/25/2021 1:00:00 AM 16.82 62.276 0.03 6.06 3.44 9.48
8/25/2021 1:15:00 AM 16.81 62.258 0.03 6.05 3.25 9.49
8/25/2021 1:30:00 AM 16.79 62.222 0.03 6.06 3.41 9.49
8/25/2021 1:45:00 AM 16.77 62.186 0.03 6.04 3.39 9.49
8/25/2021 2:00:00 AM 16.75 62.15 0.03 6.05 3.45 9.5
8/25/2021 2:15:00 AM 16.73 62.114 0.03 6.04 3.59 9.5
8/25/2021 2:30:00 AM 16.71 62.078 0.03 6.06 3.48 9.5
8/25/2021 2:45:00 AM 16.69 62.042 0.03 6.05 3.47 9.51
8/25/2021 3:00:00 AM 16.67 62.006 0.03 6.07 3.67 9.52
8/25/2021 3:15:00 AM 16.65 61.97 0.03 6.05 3.47 9.52
8/25/2021 3:30:00 AM 16.62 61.916 0.03 6.05 3.58 9.52
8/25/2021 3:45:00 AM 16.61 61.898 0.03 6.04 3.42 9.52
8/25/2021 4:00:00 AM 16.58 61.844 0.03 6.04 3.47 9.53
8/25/2021 4:15:00 AM 16.56 61.808 0.03 6.06 3.5 9.54
8/25/2021 4:30:00 AM 16.54 61.772 0.03 6.06 3.39 9.55
8/25/2021 4:45:00 AM 16.52 61.736 0.03 6.06 3.38 9.55
8/25/2021 5:00:00 AM 16.5 61.7 0.03 6.06 3.39 9.55
8/25/2021 5:15:00 AM 16.48 61.664 0.03 6.06 3.42 9.57
8/25/2021 5:30:00 AM 16.46 61.628 0.03 6.06 3.37 9.57
8/25/2021 5:45:00 AM 16.44 61.592 0.03 6.05 3.28 9.56
8/25/2021 6:00:00 AM 16.42 61.556 0.03 6.07 3.48 9.57
8/25/2021 6:15:00 AM 16.41 61.538 0.03 6.07 3.4 9.57
8/25/2021 6:30:00 AM 16.39 61.502 0.03 6.07 3.42 9.58
8/25/2021 6:45:00 AM 16.37 61.466 0.03 6.07 3.38 9.59
8/25/2021 7:00:00 AM 16.35 61.43 0.03 6.07 3.45 9.6
8/25/2021 7:15:00 AM 16.33 61.394 0.03 6.08 3.42 9.61
8/25/2021 7:30:00 AM 16.32 61.376 0.03 6.04 3.41 9.61
8/25/2021 7:45:00 AM 16.31 61.358 0.03 6.08 3.24 9.63
8/25/2021 8:00:00 AM 16.3 61.34 0.03 6.09 3.31 9.64
8/25/2021 8:15:00 AM 16.29 61.322 0.03 6.08 3.3 9.64
8/25/2021 8:30:00 AM 16.28 61.304 0.03 6.09 3.29 9.66
8/25/2021 8:45:00 AM 16.29 61.322 0.03 6.11 3.27 9.67
8/25/2021 9:00:00 AM 16.29 61.322 0.03 6.11 3.21 9.68
8/25/2021 9:15:00 AM 16.3 61.34 0.03 6.12 3.24 9.69
8/25/2021 9:30:00 AM 16.32 61.376 0.03 6.1 3.29 9.69
8/25/2021 9:45:00 AM 16.34 61.412 0.03 6.12 3.29 9.71
8/25/2021 10:00:00 AM 16.37 61.466 0.03 6.13 3.35 9.7
8/25/2021 10:15:00 AM 16.4 61.52 0.03 6.1 3.16 9.67
8/25/2021 10:30:00 AM 16.42 61.556 0.03 6.1 3.21 9.66
8/25/2021 10:45:00 AM 16.46 61.628 0.03 6.09 3.14 9.66
8/25/2021 11:00:00 AM 16.5 61.7 0.03 6.12 3.21 9.66
8/25/2021 11:15:00 AM 16.55 61.79 0.03 6.12 3.26 9.66
8/25/2021 11:30:00 AM 16.61 61.898 0.03 6.13 3.17 9.64
8/25/2021 11:45:00 AM 16.67 62.006 0.03 6.11 3.36 9.64
8/25/2021 12:00:00 PM 16.74 62.132 0.03 6.11 3.34 9.63
8/25/2021 12:15:00 PM 16.82 62.276 0.03 6.12 3.34 9.62
8/25/2021 12:30:00 PM 16.91 62.438 0.03 6.12 3.36 9.6
8/25/2021 12:45:00 PM 17.02 62.636 0.03 6.16 3.3 9.6
8/25/2021 1:00:00 PM 17.13 62.834 0.03 6.15 3.43 9.56
8/25/2021 1:15:00 PM 17.25 63.05 0.03 6.16 3.28 9.55
8/25/2021 1:30:00 PM 17.38 63.284 0.03 6.18 3.33 9.53
8/25/2021 1:45:00 PM 17.52 63.536 0.03 6.18 3.1 9.5
8/25/2021 2:00:00 PM 17.64 63.752 0.03 6.17 3.38 9.47
8/25/2021 2:15:00 PM 17.77 63.986 0.03 6.2 3.27 9.48
8/25/2021 2:30:00 PM 17.88 64.184 0.03 6.2 3.32 9.44
8/25/2021 2:45:00 PM 17.97 64.346 0.03 6.19 3.23 9.43
8/25/2021 3:00:00 PM 18.04 64.472 0.03 6.19 3.26 9.42
8/25/2021 3:15:00 PM 18.08 64.544 0.03 6.17 3.26 9.39
8/25/2021 3:30:00 PM 18.03 64.454 0.03 6.17 3.08 9.36
8/25/2021 3:45:00 PM 18.02 64.436 0.03 6.15 3.03 9.35
8/25/2021 4:00:00 PM 18.06 64.508 0.03 6.17 3.22 9.35
8/25/2021 4:15:00 PM 18.08 64.544 0.03 6.18 3.17 9.35
8/25/2021 4:30:00 PM 18.09 64.562 0.03 6.15 3.14 9.32
8/25/2021 4:45:00 PM 18.08 64.544 0.03 6.15 3.27 9.33
8/25/2021 5:00:00 PM 18.07 64.526 0.03 6.12 3.46 9.3
8/25/2021 5:15:00 PM 18.06 64.508 0.03 6.12 3.01 9.31
8/25/2021 5:30:00 PM 18.03 64.454 0.03 6.11 3.28 9.29
8/25/2021 5:45:00 PM 17.99 64.382 0.03 6.11 3 9.3
8/25/2021 6:00:00 PM 17.96 64.328 0.03 6.1 3.12 9.3
8/25/2021 6:15:00 PM 17.92 64.256 0.03 6.11 3.48 9.3
8/25/2021 6:30:00 PM 17.9 64.22 0.03 6.1 3.24 9.3
8/25/2021 6:45:00 PM 17.86 64.148 0.03 6.07 3.07 9.29
8/25/2021 7:00:00 PM 17.83 64.094 0.03 6.08 3.27 9.29
8/25/2021 7:15:00 PM 17.78 64.004 0.03 6.07 3.26 9.29
8/25/2021 7:30:00 PM 17.74 63.932 0.03 6.05 3.18 9.27
8/25/2021 7:45:00 PM 17.71 63.878 0.03 6.04 3.34 9.27
8/25/2021 8:00:00 PM 17.67 63.806 0.03 6.05 3.12 9.29
8/25/2021 8:15:00 PM 17.64 63.752 0.03 6.04 3.24 9.29
8/25/2021 8:30:00 PM 17.61 63.698 0.03 6.05 3.37 9.29
8/25/2021 8:45:00 PM 17.59 63.662 0.031 6.02 3.35 9.28
8/25/2021 9:00:00 PM 17.57 63.626 0.031 6.05 3.57 9.28
8/25/2021 9:15:00 PM 17.55 63.59 0.031 6.05 3.27 9.29
8/25/2021 9:30:00 PM 17.53 63.554 0.031 6.05 3.48 9.29
8/25/2021 9:45:00 PM 17.52 63.536 0.031 6.06 3.37 9.3
8/25/2021 10:00:00 PM 17.51 63.518 0.031 6.05 3.24 9.29
8/25/2021 10:15:00 PM 17.5 63.5 0.031 6.07 4 9.3
8/25/2021 10:30:00 PM 17.49 63.482 0.031 6.06 3.44 9.29
8/25/2021 10:45:00 PM 17.48 63.464 0.031 6.05 3.47 9.3
8/25/2021 11:00:00 PM 17.46 63.428 0.031 6.05 3.34 9.31
8/25/2021 11:15:00 PM 17.45 63.41 0.031 6.06 3.3 9.31
8/25/2021 11:30:00 PM 17.44 63.392 0.031 6.06 3.25 9.32
8/25/2021 11:45:00 PM 17.43 63.374 0.031 6.07 3.34 9.32
8/26/2021 12:00:00 AM 17.41 63.338 0.031 6.07 3.32 9.32
8/26/2021 12:15:00 AM 17.4 63.32 0.031 6.06 3.28 9.33
8/26/2021 12:30:00 AM 17.38 63.284 0.031 6.08 3.32 9.34
8/26/2021 12:45:00 AM 17.36 63.248 0.031 6.08 3.57 9.34
8/26/2021 1:00:00 AM 17.34 63.212 0.031 6.08 3.39 9.34
8/26/2021 1:15:00 AM 17.32 63.176 0.031 6.07 3.49 9.35
8/26/2021 1:30:00 AM 17.3 63.14 0.031 6.08 3.44 9.37
8/26/2021 1:45:00 AM 17.28 63.104 0.031 6.08 3.43 9.35
8/26/2021 2:00:00 AM 17.26 63.068 0.031 6.09 3.2 9.36
8/26/2021 2:15:00 AM 17.24 63.032 0.031 6.07 3.35 9.35
8/26/2021 2:30:00 AM 17.21 62.978 0.031 6.08 3.64 9.37
8/26/2021 2:45:00 AM 17.2 62.96 0.031 6.08 3.33 9.37
8/26/2021 3:00:00 AM 17.18 62.924 0.031 6.08 3.36 9.38
8/26/2021 3:15:00 AM 17.17 62.906 0.031 6.06 3.21 9.36
8/26/2021 3:30:00 AM 17.15 62.87 0.031 6.08 3.24 9.38
8/26/2021 3:45:00 AM 17.13 62.834 0.031 6.08 3.37 9.39
8/26/2021 4:00:00 AM 17.11 62.798 0.031 6.08 3.35 9.38
8/26/2021 4:15:00 AM 17.1 62.78 0.031 6.08 3.24 9.39
8/26/2021 4:30:00 AM 17.08 62.744 0.031 6.08 3.32 9.39
8/26/2021 4:45:00 AM 17.07 62.726 0.031 6.07 3.38 9.4
8/26/2021 5:00:00 AM 17.05 62.69 0.031 6.09 3.27 9.41
8/26/2021 5:15:00 AM 17.03 62.654 0.031 6.08 3.41 9.41
8/26/2021 5:30:00 AM 17.02 62.636 0.031 6.09 3.29 9.4
8/26/2021 5:45:00 AM 17 62.6 0.031 6.08 3.28 9.41
8/26/2021 6:00:00 AM 16.99 62.582 0.031 6.08 3.38 9.42
8/26/2021 6:15:00 AM 16.97 62.546 0.031 6.08 3.39 9.42
8/26/2021 6:30:00 AM 16.95 62.51 0.031 6.06 3.25 9.41
8/26/2021 6:45:00 AM 16.94 62.492 0.031 6.08 3.2 9.42
8/26/2021 7:00:00 AM 16.92 62.456 0.031 6.07 3.32 9.45
8/26/2021 7:15:00 AM 16.91 62.438 0.031 6.1 3.35 9.45
8/26/2021 7:30:00 AM 16.9 62.42 0.031 6.06 3.28 9.46
8/26/2021 7:45:00 AM 16.89 62.402 0.031 6.07 3.12 9.46
8/26/2021 8:00:00 AM 16.89 62.402 0.031 6.07 3.23 9.47
8/26/2021 8:15:00 AM 16.9 62.42 0.031 6.09 3.3 9.51
8/26/2021 8:30:00 AM 16.91 62.438 0.031 6.09 3.25 9.52
8/26/2021 8:45:00 AM 16.92 62.456 0.031 6.12 3.18 9.54
8/26/2021 9:00:00 AM 16.94 62.492 0.031 6.12 3.2 9.53
8/26/2021 9:15:00 AM 16.97 62.546 0.031 6.13 3.34 9.56
8/26/2021 9:30:00 AM 17 62.6 0.031 6.12 3.11 9.54
8/26/2021 9:45:00 AM 17.02 62.636 0.031 6.13 3.14 9.55
8/26/2021 10:00:00 AM 17.05 62.69 0.031 6.13 3.09 9.55
8/26/2021 10:15:00 AM 17.08 62.744 0.031 6.13 3.06 9.54
8/26/2021 10:30:00 AM 17.12 62.816 0.031 6.14 3.14 9.54
8/26/2021 10:45:00 AM 17.18 62.924 0.031 6.14 3.63 9.54
8/26/2021 11:00:00 AM 17.23 63.014 0.031 6.16 3.08 9.54
8/26/2021 11:15:00 AM 17.26 63.068 0.031 6.17 3.17 9.54
8/26/2021 11:30:00 AM 17.31 63.158 0.031 6.17 3.14 9.52
8/26/2021 11:45:00 AM 17.4 63.32 0.031 6.18 3.2 9.5
8/26/2021 12:00:00 PM 17.46 63.428 0.031 6.17 3.04 9.49
8/26/2021 12:15:00 PM 17.5 63.5 0.031 6.19 3.4 9.47
8/26/2021 12:30:00 PM 17.58 63.644 0.031 6.19 3.02 9.45
8/26/2021 12:45:00 PM 17.7 63.86 0.031 6.21 3.06 9.44
8/26/2021 1:00:00 PM 17.82 64.076 0.031 6.21 3.05 9.42
8/26/2021 1:15:00 PM 17.94 64.292 0.031 6.23 3.09 9.41
8/26/2021 1:30:00 PM 18.07 64.526 0.031 6.24 3.18 9.39
8/26/2021 1:45:00 PM 18.2 64.76 0.031 6.23 3.12 9.36
8/26/2021 2:00:00 PM 18.32 64.976 0.031 6.24 3.14 9.35
8/26/2021 2:15:00 PM 18.44 65.192 0.031 6.24 2.99 9.34
8/26/2021 2:30:00 PM 18.52 65.336 0.031 6.24 3.13 9.31
8/26/2021 2:45:00 PM 18.41 65.138 0.031 6.23 3.13 9.29
8/26/2021 3:00:00 PM 18.43 65.174 0.031 6.24 3.33 9.31
8/26/2021 3:15:00 PM 18.51 65.318 0.031 6.23 3.24 9.29
8/26/2021 3:30:00 PM 18.52 65.336 0.031 6.21 3.03 9.27
8/26/2021 3:45:00 PM 18.54 65.372 0.031 6.22 3.02 9.25
8/26/2021 4:00:00 PM 18.55 65.39 0.031 6.2 3.07 9.24
8/26/2021 4:15:00 PM 18.55 65.39 0.031 6.22 2.99 9.24
8/26/2021 4:30:00 PM 18.57 65.426 0.031 6.19 3.17 9.21
8/26/2021 4:45:00 PM 18.56 65.408 0.031 6.19 3.22 9.2
8/26/2021 5:00:00 PM 18.57 65.426 0.031 6.18 3.12 9.2
8/26/2021 5:15:00 PM 18.56 65.408 0.031 6.16 3.47 9.18
8/26/2021 5:30:00 PM 18.55 65.39 0.031 6.18 3.26 9.18
8/26/2021 5:45:00 PM 18.53 65.354 0.031 6.16 3 9.15
8/26/2021 6:00:00 PM 18.51 65.318 0.031 6.15 2.96 9.15
8/26/2021 6:15:00 PM 18.47 65.246 0.031 6.16 3.06 9.16
8/26/2021 6:30:00 PM 18.44 65.192 0.031 6.15 3.06 9.15
8/26/2021 6:45:00 PM 18.4 65.12 0.031 6.11 3.05 9.13
8/26/2021 7:00:00 PM 18.36 65.048 0.031 6.11 3.12 9.14
8/26/2021 7:15:00 PM 18.36 65.048 0.031 6.12 3.58 9.14
8/26/2021 7:30:00 PM 18.53 65.354 0.03 6.15 4.99 9.13
8/26/2021 7:45:00 PM 18.6 65.48 0.029 6.13 7.3 9.12
8/26/2021 8:00:00 PM 18.57 65.426 0.032 6.22 21.9 9.1
8/26/2021 8:15:00 PM 18.52 65.336 0.031 6.2 23.59 9.11
8/26/2021 8:30:00 PM 18.52 65.336 0.031 6.23 19.96 9.11
8/26/2021 8:45:00 PM 18.54 65.372 0.031 6.24 68.52 9.1
8/26/2021 9:00:00 PM 18.58 65.444 0.031 6.23 113.9 9.08
8/26/2021 9:15:00 PM 18.59 65.462 0.031 6.22 105.36 9.07
8/26/2021 9:30:00 PM 18.59 65.462 0.031 6.17 123.88 9.07
8/26/2021 9:45:00 PM 18.54 65.372 0.031 6.18 100.35 9.08
8/26/2021 10:00:00 PM 18.46 65.228 0.033 6.16 113.76 9.07
8/26/2021 10:15:00 PM 18.37 65.066 0.034 6.21 109.98 9.09
8/26/2021 10:30:00 PM 18.3 64.94 0.035 6.21 91.4 9.11
8/26/2021 10:45:00 PM 18.23 64.814 0.035 6.21 62.52 9.11
8/26/2021 11:00:00 PM 18.17 64.706 0.035 6.2 41.36 9.14
8/26/2021 11:15:00 PM 18.1 64.58 0.035 6.21 33.36 9.16
8/26/2021 11:30:00 PM 18.05 64.49 0.035 6.2 25.72 9.17
8/26/2021 11:45:00 PM 18.01 64.418 0.034 6.2 21.98 9.18
8/27/2021 12:00:00 AM 17.98 64.364 0.034 6.19 18.77 9.19
8/27/2021 12:15:00 AM 17.95 64.31 0.034 6.2 14.7 9.2
8/27/2021 12:30:00 AM 17.91 64.238 0.034 6.2 14.1 9.2
8/27/2021 12:45:00 AM 17.88 64.184 0.034 6.21 12.71 9.21
8/27/2021 1:00:00 AM 17.84 64.112 0.034 6.18 11.08 9.2
8/27/2021 1:15:00 AM 17.8 64.04 0.034 6.2 9.75 9.23
8/27/2021 1:30:00 AM 17.76 63.968 0.034 6.2 9.44 9.24
8/27/2021 1:45:00 AM 17.72 63.896 0.034 6.19 8.97 9.24
8/27/2021 2:00:00 AM 17.68 63.824 0.034 6.2 8.6 9.25
8/27/2021 2:15:00 AM 17.64 63.752 0.034 6.18 8.08 9.25
8/27/2021 2:30:00 AM 17.61 63.698 0.034 6.19 8.27 9.27
8/27/2021 2:45:00 AM 17.58 63.644 0.034 6.19 7.71 9.26
8/27/2021 3:00:00 AM 17.55 63.59 0.034 6.19 7.19 9.28
8/27/2021 3:15:00 AM 17.51 63.518 0.034 6.19 7.2 9.29
8/27/2021 3:30:00 AM 17.48 63.464 0.034 6.19 6.76 9.27
8/27/2021 3:45:00 AM 17.45 63.41 0.034 6.2 6.55 9.3
8/27/2021 4:00:00 AM 17.42 63.356 0.034 6.22 6.36 9.31
8/27/2021 4:15:00 AM 17.4 63.32 0.034 6.21 6.02 9.31
8/27/2021 4:30:00 AM 17.37 63.266 0.034 6.23 6.05 9.32
8/27/2021 4:45:00 AM 17.35 63.23 0.034 6.2 5.96 9.33
8/27/2021 5:00:00 AM 17.32 63.176 0.034 6.2 5.64 9.32
8/27/2021 5:15:00 AM 17.3 63.14 0.034 6.21 5.36 9.33
8/27/2021 5:30:00 AM 17.28 63.104 0.034 6.21 5.37 9.34
8/27/2021 5:45:00 AM 17.26 63.068 0.034 6.21 5.03 9.34
8/27/2021 6:00:00 AM 17.24 63.032 0.034 6.2 5.17 9.34
8/27/2021 6:15:00 AM 17.21 62.978 0.034 6.19 5.17 9.35
8/27/2021 6:30:00 AM 17.18 62.924 0.034 6.22 5.13 9.37
8/27/2021 6:45:00 AM 17.16 62.888 0.034 6.21 4.79 9.37
8/27/2021 7:00:00 AM 17.14 62.852 0.034 6.18 4.91 9.36
8/27/2021 7:15:00 AM 17.13 62.834 0.034 6.2 4.64 9.38
8/27/2021 7:30:00 AM 17.11 62.798 0.034 6.18 4.61 9.39
8/27/2021 7:45:00 AM 17.1 62.78 0.034 6.2 4.69 9.4
8/27/2021 8:00:00 AM 17.09 62.762 0.034 6.2 4.13 9.42
8/27/2021 8:15:00 AM 17.08 62.744 0.034 6.2 4.53 9.42
8/27/2021 8:30:00 AM 17.08 62.744 0.034 6.18 4.25 9.42
8/27/2021 8:45:00 AM 17.08 62.744 0.034 6.2 4.13 9.45
8/27/2021 9:00:00 AM 17.09 62.762 0.034 6.2 4.15 9.45
8/27/2021 9:15:00 AM 17.09 62.762 0.034 6.21 3.92 9.48
8/27/2021 9:30:00 AM 17.1 62.78 0.034 6.21 3.93 9.48
8/27/2021 9:45:00 AM 17.12 62.816 0.034 6.22 4.08 9.49
8/27/2021 10:00:00 AM 17.14 62.852 0.034 6.24 4.12 9.51
8/27/2021 10:15:00 AM 17.16 62.888 0.034 6.22 3.92 9.5
8/27/2021 10:30:00 AM 17.18 62.924 0.034 6.23 4.22 9.52
8/27/2021 10:45:00 AM 17.19 62.942 0.034 6.23 4.23 9.51
8/27/2021 11:00:00 AM 17.22 62.996 0.034 6.24 3.97 9.51
8/27/2021 11:15:00 AM 17.26 63.068 0.034 6.26 4.1 9.52
8/27/2021 11:30:00 AM 17.29 63.122 0.034 6.23 3.92 9.51
8/27/2021 11:45:00 AM 17.35 63.23 0.034 6.25 4.01 9.52
8/27/2021 12:00:00 PM 17.39 63.302 0.034 6.26 3.92 9.52
8/27/2021 12:15:00 PM 17.42 63.356 0.034 6.25 4.09 9.5
8/27/2021 12:30:00 PM 17.44 63.392 0.034 6.28 3.97 9.5
8/27/2021 12:45:00 PM 17.46 63.428 0.034 6.24 3.92 9.47
8/27/2021 1:00:00 PM 17.56 63.608 0.034 6.25 4 9.47
8/27/2021 1:15:00 PM 17.7 63.86 0.034 6.28 3.51 9.47
8/27/2021 1:30:00 PM 17.83 64.094 0.034 6.29 3.65 9.44
8/27/2021 1:45:00 PM 17.97 64.346 0.034 6.32 3.71 9.42
8/27/2021 2:00:00 PM 17.99 64.382 0.034 6.3 3.83 9.41
8/27/2021 2:15:00 PM 18.03 64.454 0.034 6.31 3.79 9.4
8/27/2021 2:30:00 PM 18.12 64.616 0.034 6.31 3.52 9.41
8/27/2021 2:45:00 PM 18.28 64.904 0.034 6.33 3.82 9.39
8/27/2021 3:00:00 PM 18.37 65.066 0.034 6.32 3.68 9.37
8/27/2021 3:15:00 PM 18.38 65.084 0.034 6.31 3.65 9.32
8/27/2021 3:30:00 PM 18.31 64.958 0.034 6.27 3.56 9.29
8/27/2021 3:45:00 PM 18.29 64.922 0.034 6.27 3.48 9.29
8/27/2021 4:00:00 PM 18.34 65.012 0.034 6.27 3.68 9.28
8/27/2021 4:15:00 PM 18.38 65.084 0.034 6.27 3.43 9.27
8/27/2021 4:30:00 PM 18.4 65.12 0.034 6.26 3.7 9.25
8/27/2021 4:45:00 PM 18.39 65.102 0.034 6.26 3.51 9.23
8/27/2021 5:00:00 PM 18.38 65.084 0.034 6.24 3.52 9.23
8/27/2021 5:15:00 PM 18.37 65.066 0.034 6.23 3.39 9.21
8/27/2021 5:30:00 PM 18.35 65.03 0.034 6.24 3.65 9.22
8/27/2021 5:45:00 PM 18.36 65.048 0.034 6.25 3.73 9.18
8/27/2021 6:00:00 PM 18.35 65.03 0.034 6.24 3.45 9.18
8/27/2021 6:15:00 PM 18.33 64.994 0.034 6.24 3.49 9.19
8/27/2021 6:30:00 PM 18.3 64.94 0.034 6.23 3.27 9.15
8/27/2021 6:45:00 PM 18.26 64.868 0.034 6.22 3.56 9.15
8/27/2021 7:00:00 PM 18.22 64.796 0.034 6.23 3.62 9.16
8/27/2021 7:15:00 PM 18.18 64.724 0.034 6.2 3.48 9.14
8/27/2021 7:30:00 PM 18.14 64.652 0.034 6.17 3.36 9.13
8/27/2021 7:45:00 PM 18.11 64.598 0.034 6.19 3.41 9.16
8/27/2021 8:00:00 PM 18.08 64.544 0.034 6.17 3.53 9.14
8/27/2021 8:15:00 PM 18.05 64.49 0.034 6.18 3.54 9.16
8/27/2021 8:30:00 PM 18.02 64.436 0.034 6.14 3.5 9.16
8/27/2021 8:45:00 PM 17.99 64.382 0.034 6.15 3.63 9.15
8/27/2021 9:00:00 PM 17.96 64.328 0.034 6.15 3.61 9.17
8/27/2021 9:15:00 PM 17.93 64.274 0.034 6.16 3.5 9.2
8/27/2021 9:30:00 PM 17.89 64.202 0.034 6.16 3.72 9.19
8/27/2021 9:45:00 PM 17.87 64.166 0.034 6.16 3.64 9.2
8/27/2021 10:00:00 PM 17.84 64.112 0.034 6.14 3.63 9.19
8/27/2021 10:15:00 PM 17.81 64.058 0.034 6.16 3.56 9.23
8/27/2021 10:30:00 PM 17.78 64.004 0.034 6.14 3.5 9.2
8/27/2021 10:45:00 PM 17.76 63.968 0.034 6.15 3.58 9.23
8/27/2021 11:00:00 PM 17.73 63.914 0.034 6.11 3.51 9.22
8/27/2021 11:15:00 PM 17.71 63.878 0.034 6.13 3.39 9.22
8/27/2021 11:30:00 PM 17.69 63.842 0.034 6.14 3.46 9.24
8/27/2021 11:45:00 PM 17.67 63.806 0.034 6.16 3.64 9.25
8/28/2021 12:00:00 AM 17.66 63.788 0.034 6.15 3.51 9.24
8/28/2021 12:15:00 AM 17.65 63.77 0.034 6.18 3.46 9.25
8/28/2021 12:30:00 AM 17.64 63.752 0.034 6.18 3.95 9.26
8/28/2021 12:45:00 AM 17.63 63.734 0.034 6.19 4.26 9.28
8/28/2021 1:00:00 AM 17.63 63.734 0.034 6.21 4.12 9.29
8/28/2021 1:15:00 AM 17.62 63.716 0.034 6.2 4.13 9.3
8/28/2021 1:30:00 AM 17.61 63.698 0.034 6.21 4.13 9.3
8/28/2021 1:45:00 AM 17.61 63.698 0.034 6.19 4.09 9.29
8/28/2021 2:00:00 AM 17.62 63.716 0.034 6.17 3.85 9.29
8/28/2021 2:15:00 AM 17.62 63.716 0.033 6.19 4.3 9.29
8/28/2021 2:30:00 AM 17.63 63.734 0.033 6.16 4.22 9.28
8/28/2021 2:45:00 AM 17.63 63.734 0.033 6.15 3.94 9.27
8/28/2021 3:00:00 AM 17.62 63.716 0.033 6.16 3.94 9.29
8/28/2021 3:15:00 AM 17.61 63.698 0.033 6.16 4.09 9.28
8/28/2021 3:30:00 AM 17.6 63.68 0.033 6.16 3.72 9.28
8/28/2021 3:45:00 AM 17.59 63.662 0.033 6.11 3.63 9.27
8/28/2021 4:00:00 AM 17.57 63.626 0.033 6.14 3.74 9.29
8/28/2021 4:15:00 AM 17.55 63.59 0.033 6.11 3.65 9.27
8/28/2021 4:30:00 AM 17.54 63.572 0.033 6.1 3.8 9.27
8/28/2021 4:45:00 AM 17.52 63.536 0.033 6.1 3.76 9.28
8/28/2021 5:00:00 AM 17.51 63.518 0.033 6.09 3.8 9.28
8/28/2021 5:15:00 AM 17.49 63.482 0.033 6.09 3.95 9.28
8/28/2021 5:30:00 AM 17.48 63.464 0.033 6.09 3.65 9.3
8/28/2021 5:45:00 AM 17.46 63.428 0.033 6.11 4 9.29
8/28/2021 6:00:00 AM 17.45 63.41 0.033 6.08 4.14 9.28
8/28/2021 6:15:00 AM 17.44 63.392 0.033 6.1 4.32 9.29
8/28/2021 6:30:00 AM 17.43 63.374 0.033 6.1 4 9.3
8/28/2021 6:45:00 AM 17.43 63.374 0.033 6.09 4.22 9.31
8/28/2021 7:00:00 AM 17.42 63.356 0.033 6.1 3.86 9.32
8/28/2021 7:15:00 AM 17.41 63.338 0.034 6.09 3.94 9.31
8/28/2021 7:30:00 AM 17.41 63.338 0.034 6.1 3.96 9.32
8/28/2021 7:45:00 AM 17.41 63.338 0.034 6.1 3.99 9.34
8/28/2021 8:00:00 AM 17.42 63.356 0.034 6.1 3.85 9.34
8/28/2021 8:15:00 AM 17.42 63.356 0.034 6.1 4 9.34
8/28/2021 8:30:00 AM 17.42 63.356 0.034 6.1 3.75 9.35
8/28/2021 8:45:00 AM 17.43 63.374 0.034 6.11 3.62 9.37
8/28/2021 9:00:00 AM 17.44 63.392 0.034 6.09 3.66 9.39
8/28/2021 9:15:00 AM 17.45 63.41 0.034 6.11 3.46 9.39
8/28/2021 9:30:00 AM 17.45 63.41 0.034 6.11 3.51 9.38
8/28/2021 9:45:00 AM 17.46 63.428 0.034 6.13 3.85 9.4
8/28/2021 10:00:00 AM 17.51 63.518 0.034 6.15 3.71 9.42
8/28/2021 10:15:00 AM 17.55 63.59 0.034 6.17 3.51 9.44
8/28/2021 10:30:00 AM 17.6 63.68 0.034 6.21 3.43 9.45
8/28/2021 10:45:00 AM 17.67 63.806 0.033 6.25 3.42 9.47
8/28/2021 11:00:00 AM 17.75 63.95 0.034 6.23 3.45 9.45
8/28/2021 11:15:00 AM 17.85 64.13 0.033 6.3 3.49 9.47
8/28/2021 11:30:00 AM 17.97 64.346 0.033 6.28 3.43 9.44
8/28/2021 11:45:00 AM 18.03 64.454 0.033 6.28 3.37 9.43
8/28/2021 12:00:00 PM 18.1 64.58 0.033 6.3 3.59 9.4
8/28/2021 12:15:00 PM 18.14 64.652 0.033 6.3 3.51 9.39
8/28/2021 12:30:00 PM 18.23 64.814 0.033 6.31 3.43 9.39
8/28/2021 12:45:00 PM 18.34 65.012 0.033 6.31 3.31 9.36
8/28/2021 1:00:00 PM 18.48 65.264 0.033 6.32 3.46 9.35
8/28/2021 1:15:00 PM 18.6 65.48 0.033 6.32 3.42 9.32
8/28/2021 1:30:00 PM 18.73 65.714 0.033 6.3 3.46 9.29
8/28/2021 1:45:00 PM 18.89 66.002 0.033 6.36 3.45 9.3
8/28/2021 2:00:00 PM 19.01 66.218 0.033 6.34 3.29 9.28
8/28/2021 2:15:00 PM 19.12 66.416 0.033 6.34 3.31 9.26
8/28/2021 2:30:00 PM 19.32 66.776 0.033 6.37 3.62 9.26
8/28/2021 2:45:00 PM 19.31 66.758 0.033 6.35 3.43 9.22
8/28/2021 3:00:00 PM 19.2 66.56 0.033 6.34 3.35 9.19
8/28/2021 3:15:00 PM 19.11 66.398 0.033 6.31 3.39 9.16
8/28/2021 3:30:00 PM 19 66.2 0.033 6.31 3.35 9.13
8/28/2021 3:45:00 PM 18.96 66.128 0.033 6.28 3.41 9.11
8/28/2021 4:00:00 PM 18.95 66.11 0.033 6.23 3.42 9.07
8/28/2021 4:15:00 PM 18.95 66.11 0.033 6.25 3.4 9.1
8/28/2021 4:30:00 PM 18.94 66.092 0.033 6.26 3.4 9.12
8/28/2021 4:45:00 PM 18.94 66.092 0.033 6.26 3.4 9.15
8/28/2021 5:00:00 PM 18.92 66.056 0.033 6.26 3.33 9.16
8/28/2021 5:15:00 PM 18.88 65.984 0.033 6.22 3.18 9.12
8/28/2021 5:30:00 PM 18.86 65.948 0.033 6.24 3.27 9.14
8/28/2021 5:45:00 PM 18.84 65.912 0.033 6.27 3.27 9.18
8/28/2021 6:00:00 PM 18.81 65.858 0.033 6.27 3.26 9.18
8/28/2021 6:15:00 PM 18.77 65.786 0.033 6.25 3.31 9.16
8/28/2021 6:30:00 PM 18.72 65.696 0.033 6.27 3.55 9.17
8/28/2021 6:45:00 PM 18.65 65.57 0.033 6.23 3.28 9.14
8/28/2021 7:00:00 PM 18.6 65.48 0.033 6.23 3.55 9.13
8/28/2021 7:15:00 PM 18.56 65.408 0.034 6.24 3.39 9.13
8/28/2021 7:30:00 PM 18.53 65.354 0.034 6.23 3.74 9.13
8/28/2021 7:45:00 PM 18.5 65.3 0.034 6.23 3.77 9.13
8/28/2021 8:00:00 PM 18.46 65.228 0.034 6.23 3.77 9.13
8/28/2021 8:15:00 PM 18.42 65.156 0.033 6.21 4.13 9.14
8/28/2021 8:30:00 PM 18.4 65.12 0.033 6.23 4.39 9.15
8/28/2021 8:45:00 PM 18.38 65.084 0.033 6.21 4.37 9.15
8/28/2021 9:00:00 PM 18.38 65.084 0.032 6.21 4.88 9.15
8/28/2021 9:15:00 PM 18.39 65.102 0.032 6.19 4.01 9.14
8/28/2021 9:30:00 PM 18.38 65.084 0.032 6.19 4.02 9.14
8/28/2021 9:45:00 PM 18.38 65.084 0.032 6.18 4.04 9.15
8/28/2021 10:00:00 PM 18.36 65.048 0.032 6.19 4.66 9.15
8/28/2021 10:15:00 PM 18.34 65.012 0.032 6.19 4.79 9.16
8/28/2021 10:30:00 PM 18.32 64.976 0.032 6.19 5.56 9.15
8/28/2021 10:45:00 PM 18.3 64.94 0.032 6.17 6.01 9.16
8/28/2021 11:00:00 PM 18.28 64.904 0.032 6.2 7.94 9.16
8/28/2021 11:15:00 PM 18.26 64.868 0.032 6.16 7 9.17
8/28/2021 11:30:00 PM 18.23 64.814 0.032 6.17 8.04 9.17
8/28/2021 11:45:00 PM 18.22 64.796 0.032 6.16 9.37 9.18
8/29/2021 12:00:00 AM 18.2 64.76 0.032 6.17 10.49 9.18
8/29/2021 12:15:00 AM 18.18 64.724 0.032 6.18 10.06 9.19
8/29/2021 12:30:00 AM 18.16 64.688 0.032 6.18 8.62 9.19
8/29/2021 12:45:00 AM 18.14 64.652 0.032 6.17 7.79 9.19
8/29/2021 1:00:00 AM 18.12 64.616 0.032 6.17 6.9 9.2
8/29/2021 1:15:00 AM 18.1 64.58 0.032 6.19 6.5 9.2
8/29/2021 1:30:00 AM 18.08 64.544 0.032 6.18 5.85 9.21
8/29/2021 1:45:00 AM 18.06 64.508 0.032 6.15 6.41 9.19
8/29/2021 2:00:00 AM 18.04 64.472 0.032 6.15 5.78 9.21
8/29/2021 2:15:00 AM 18.02 64.436 0.032 6.16 5.19 9.2
8/29/2021 2:30:00 AM 18 64.4 0.032 6.16 5.26 9.21
8/29/2021 2:45:00 AM 17.98 64.364 0.032 6.16 4.94 9.2
8/29/2021 3:00:00 AM 17.97 64.346 0.032 6.14 4.82 9.2
8/29/2021 3:15:00 AM 17.95 64.31 0.032 6.13 4.63 9.2
8/29/2021 3:30:00 AM 17.94 64.292 0.032 6.15 4.36 9.2
8/29/2021 3:45:00 AM 17.92 64.256 0.032 6.15 4.21 9.2
8/29/2021 4:00:00 AM 17.91 64.238 0.032 6.13 4.47 9.21
8/29/2021 4:15:00 AM 17.89 64.202 0.032 6.14 4.46 9.19
8/29/2021 4:30:00 AM 17.88 64.184 0.032 6.14 4.3 9.21
8/29/2021 4:45:00 AM 17.87 64.166 0.032 6.15 3.82 9.22
8/29/2021 5:00:00 AM 17.86 64.148 0.032 6.12 4.05 9.2
8/29/2021 5:15:00 AM 17.85 64.13 0.032 6.13 3.73 9.22
8/29/2021 5:30:00 AM 17.84 64.112 0.032 6.13 3.76 9.21
8/29/2021 5:45:00 AM 17.82 64.076 0.032 6.13 3.89 9.21
8/29/2021 6:00:00 AM 17.81 64.058 0.032 6.13 3.88 9.23
8/29/2021 6:15:00 AM 17.8 64.04 0.032 6.13 3.84 9.23
8/29/2021 6:30:00 AM 17.79 64.022 0.033 6.12 3.64 9.22
8/29/2021 6:45:00 AM 17.78 64.004 0.033 6.12 3.68 9.23
8/29/2021 7:00:00 AM 17.77 63.986 0.032 6.12 3.8 9.24
8/29/2021 7:15:00 AM 17.76 63.968 0.033 6.12 3.68 9.24
8/29/2021 7:30:00 AM 17.76 63.968 0.033 6.11 3.45 9.24
8/29/2021 7:45:00 AM 17.75 63.95 0.033 6.13 3.61 9.28
8/29/2021 8:00:00 AM 17.75 63.95 0.033 6.11 3.47 9.27
8/29/2021 8:15:00 AM 17.75 63.95 0.033 6.12 3.79 9.29
8/29/2021 8:30:00 AM 17.74 63.932 0.033 6.11 3.46 9.28
8/29/2021 8:45:00 AM 17.74 63.932 0.033 6.11 3.45 9.29
8/29/2021 9:00:00 AM 17.75 63.95 0.033 6.12 3.35 9.32
8/29/2021 9:15:00 AM 17.76 63.968 0.033 6.12 3.63 9.34
8/29/2021 9:30:00 AM 17.77 63.986 0.033 6.13 3.28 9.35
8/29/2021 9:45:00 AM 17.79 64.022 0.033 6.14 3.44 9.36
8/29/2021 10:00:00 AM 17.82 64.076 0.033 6.15 3.46 9.38
8/29/2021 10:15:00 AM 17.84 64.112 0.033 6.18 3.25 9.38
8/29/2021 10:30:00 AM 17.86 64.148 0.033 6.2 3.44 9.4
8/29/2021 10:45:00 AM 17.9 64.22 0.033 6.19 3.31 9.39
8/29/2021 11:00:00 AM 0 32 0 0 0 0
8/29/2021 11:15:00 AM 18.01 64.418 0.033 6.25 3.3 9.42
8/29/2021 11:30:00 AM 18.02 64.436 0.033 6.26 3.12 9.38
8/29/2021 11:45:00 AM 18.03 64.454 0.033 6.26 3.27 9.38
8/29/2021 12:00:00 PM 18.11 64.598 0.033 6.27 3.23 9.4
8/29/2021 12:15:00 PM 18.21 64.778 0.032 6.28 3.35 9.4
8/29/2021 12:30:00 PM 18.3 64.94 0.032 6.32 3.28 9.4
8/29/2021 12:45:00 PM 18.4 65.12 0.032 6.32 3.39 9.38
8/29/2021 1:00:00 PM 18.53 65.354 0.032 6.36 3.25 9.39
8/29/2021 1:15:00 PM 18.57 65.426 0.033 6.34 3.28 9.34
8/29/2021 1:30:00 PM 18.53 65.354 0.032 6.33 3.24 9.31
8/29/2021 1:45:00 PM 18.45 65.21 0.033 6.3 3.31 9.29
8/29/2021 2:00:00 PM 18.43 65.174 0.032 6.29 3.56 9.28
8/29/2021 2:15:00 PM 18.43 65.174 0.032 6.27 3.64 9.22
8/29/2021 2:30:00 PM 18.39 65.102 0.032 6.27 3.79 9.2
8/29/2021 2:45:00 PM 18.38 65.084 0.032 6.24 3.73 9.22
8/29/2021 3:00:00 PM 18.49 65.282 0.032 6.26 3.33 9.26
8/29/2021 3:15:00 PM 18.49 65.282 0.032 6.27 3.6 9.28
8/29/2021 3:30:00 PM 18.5 65.3 0.032 6.3 3.46 9.28
8/29/2021 3:45:00 PM 18.53 65.354 0.032 6.27 3.98 9.27
8/29/2021 4:00:00 PM 18.53 65.354 0.032 6.27 6.02 9.27
8/29/2021 4:15:00 PM 18.56 65.408 0.033 6.28 5.98 9.26
8/29/2021 4:30:00 PM 18.58 65.444 0.032 6.29 4.51 9.26
8/29/2021 4:45:00 PM 18.58 65.444 0.032 6.29 4.1 9.24
8/29/2021 5:00:00 PM 18.53 65.354 0.032 6.29 3.72 9.2
8/29/2021 5:15:00 PM 18.5 65.3 0.033 6.24 3.73 9.16
8/29/2021 5:30:00 PM 18.48 65.264 0.033 6.24 3.9 9.14
8/29/2021 5:45:00 PM 18.45 65.21 0.033 6.19 4.17 9.11
8/29/2021 6:00:00 PM 18.43 65.174 0.033 6.22 3.99 9.12
8/29/2021 6:15:00 PM 18.41 65.138 0.033 6.21 3.67 9.11
8/29/2021 6:30:00 PM 18.38 65.084 0.033 6.17 3.42 9.09
8/29/2021 6:45:00 PM 18.37 65.066 0.033 6.19 3.4 9.11
8/29/2021 7:00:00 PM 18.35 65.03 0.033 6.14 3.39 9.08
8/29/2021 7:15:00 PM 18.35 65.03 0.033 6.14 3.46 9.07
8/29/2021 7:30:00 PM 18.33 64.994 0.033 6.2 3.65 9.1
8/29/2021 7:45:00 PM 18.31 64.958 0.033 6.18 3.31 9.09
8/29/2021 8:00:00 PM 18.29 64.922 0.033 6.19 3.63 9.09
8/29/2021 8:15:00 PM 18.28 64.904 0.033 6.22 3.55 9.11
8/29/2021 8:30:00 PM 18.26 64.868 0.033 6.21 3.48 9.1
8/29/2021 8:45:00 PM 18.24 64.832 0.033 6.19 3.95 9.09
8/29/2021 9:00:00 PM 18.22 64.796 0.033 6.22 3.93 9.1
8/29/2021 9:15:00 PM 18.19 64.742 0.033 6.21 4.44 9.11
8/29/2021 9:30:00 PM 18.16 64.688 0.033 6.21 4.15 9.1
8/29/2021 9:45:00 PM 18.13 64.634 0.033 6.19 3.87 9.11
8/29/2021 10:00:00 PM 18.1 64.58 0.033 6.2 3.82 9.11
8/29/2021 10:15:00 PM 18.08 64.544 0.033 6.22 4.12 9.13
8/29/2021 10:30:00 PM 18.05 64.49 0.033 6.21 4 9.13
8/29/2021 10:45:00 PM 18.03 64.454 0.033 6.2 3.9 9.14
8/29/2021 11:00:00 PM 18.01 64.418 0.033 6.22 3.83 9.14
8/29/2021 11:15:00 PM 17.99 64.382 0.033 6.21 3.67 9.15
8/29/2021 11:30:00 PM 17.97 64.346 0.033 6.2 3.42 9.16
8/29/2021 11:45:00 PM 17.95 64.31 0.032 6.2 3.79 9.16
8/30/2021 12:00:00 AM 17.93 64.274 0.032 6.21 3.58 9.17
8/30/2021 12:15:00 AM 17.9 64.22 0.032 6.21 3.62 9.17
8/30/2021 12:30:00 AM 17.88 64.184 0.033 6.19 3.3 9.17
8/30/2021 12:45:00 AM 17.86 64.148 0.032 6.22 3.4 9.19
8/30/2021 1:00:00 AM 17.84 64.112 0.033 6.19 3.54 9.19
8/30/2021 1:15:00 AM 17.82 64.076 0.032 6.22 3.52 9.2
8/30/2021 1:30:00 AM 17.8 64.04 0.033 6.18 3.35 9.17
8/30/2021 1:45:00 AM 17.78 64.004 0.032 6.19 3.52 9.19
8/30/2021 2:00:00 AM 17.76 63.968 0.032 6.19 3.42 9.2
8/30/2021 2:15:00 AM 17.74 63.932 0.032 6.21 3.35 9.21
8/30/2021 2:30:00 AM 17.72 63.896 0.032 6.21 3.67 9.21
8/30/2021 2:45:00 AM 17.71 63.878 0.032 6.21 3.58 9.21
8/30/2021 3:00:00 AM 17.7 63.86 0.032 6.19 3.69 9.2
8/30/2021 3:15:00 AM 17.69 63.842 0.032 6.21 4.01 9.21
8/30/2021 3:30:00 AM 17.68 63.824 0.032 6.21 3.91 9.2
8/30/2021 3:45:00 AM 17.67 63.806 0.032 6.2 3.89 9.2
8/30/2021 4:00:00 AM 17.65 63.77 0.032 6.2 3.73 9.19
8/30/2021 4:15:00 AM 17.62 63.716 0.032 6.2 3.75 9.2
8/30/2021 4:30:00 AM 17.6 63.68 0.033 6.2 5.9 9.2
8/30/2021 4:45:00 AM 17.58 63.644 0.033 6.21 7.54 9.2
8/30/2021 5:00:00 AM 17.56 63.608 0.033 6.23 8.07 9.22
8/30/2021 5:15:00 AM 17.55 63.59 0.033 6.24 9.27 9.23
8/30/2021 5:30:00 AM 17.53 63.554 0.032 6.26 7.84 9.24
8/30/2021 5:45:00 AM 17.51 63.518 0.032 6.24 7.19 9.25
8/30/2021 6:00:00 AM 17.5 63.5 0.032 6.23 6.88 9.25
8/30/2021 6:15:00 AM 17.48 63.464 0.032 6.24 7.03 9.26
8/30/2021 6:30:00 AM 17.46 63.428 0.032 6.22 9.15 9.26
8/30/2021 6:45:00 AM 17.44 63.392 0.032 6.23 8.77 9.28
8/30/2021 7:00:00 AM 17.43 63.374 0.032 6.23 7.52 9.29
8/30/2021 7:15:00 AM 17.42 63.356 0.032 6.24 6.76 9.3
8/30/2021 7:30:00 AM 17.41 63.338 0.032 6.25 6.99 9.32
8/30/2021 7:45:00 AM 17.4 63.32 0.032 6.23 5.73 9.33
8/30/2021 8:00:00 AM 17.39 63.302 0.032 6.23 5.3 9.34
8/30/2021 8:15:00 AM 17.39 63.302 0.032 6.21 5.23 9.35
8/30/2021 8:30:00 AM 17.39 63.302 0.032 6.21 6.48 9.36
8/30/2021 8:45:00 AM 17.38 63.284 0.032 6.2 10.05 9.37
8/30/2021 9:00:00 AM 17.38 63.284 0.032 6.22 13.36 9.36
8/30/2021 9:15:00 AM 17.39 63.302 0.032 6.21 12.63 9.4
8/30/2021 9:30:00 AM 17.41 63.338 0.032 6.22 12.76 9.4
8/30/2021 9:45:00 AM 17.42 63.356 0.032 6.23 12.97 9.4
8/30/2021 10:00:00 AM 17.42 63.356 0.032 6.24 13.05 9.41
8/30/2021 10:15:00 AM 17.43 63.374 0.032 6.24 12.92 9.39
8/30/2021 10:30:00 AM 17.43 63.374 0.032 6.27 11.78 9.39
8/30/2021 10:45:00 AM 17.43 63.374 0.032 6.24 11.26 9.37
8/30/2021 11:00:00 AM 17.42 63.356 0.032 6.23 10.3 9.37
8/30/2021 11:15:00 AM 17.45 63.41 0.032 6.23 9.81 9.4
8/30/2021 11:30:00 AM 17.48 63.464 0.032 6.25 7.54 9.43
8/30/2021 11:45:00 AM 17.56 63.608 0.032 6.28 6.93 9.45
8/30/2021 12:00:00 PM 17.63 63.734 0.032 6.3 6.54 9.46
8/30/2021 12:15:00 PM 17.63 63.734 0.032 6.3 5.62 9.43
8/30/2021 12:30:00 PM 17.63 63.734 0.032 6.32 5.45 9.41
8/30/2021 12:45:00 PM 17.64 63.752 0.032 6.29 5.07 9.41
8/30/2021 1:00:00 PM 17.69 63.842 0.032 6.29 4.82 9.41
8/30/2021 1:15:00 PM 17.78 64.004 0.031 6.31 4.53 9.44
8/30/2021 1:30:00 PM 17.9 64.22 0.031 6.33 4.4 9.43
8/30/2021 1:45:00 PM 18.01 64.418 0.031 6.34 4.3 9.4
8/30/2021 2:00:00 PM 18.06 64.508 0.031 6.35 4.35 9.38
8/30/2021 2:15:00 PM 18.08 64.544 0.031 6.37 4.23 9.35
8/30/2021 2:30:00 PM 18.1 64.58 0.031 6.35 4.07 9.33
8/30/2021 2:45:00 PM 18.16 64.688 0.031 6.35 4.34 9.34
8/30/2021 3:00:00 PM 18.22 64.796 0.031 6.35 4.02 9.32
8/30/2021 3:15:00 PM 18.36 65.048 0.031 6.34 4.1 9.32
8/30/2021 3:30:00 PM 18.35 65.03 0.031 6.35 3.84 9.29
8/30/2021 3:45:00 PM 18.37 65.066 0.031 6.37 3.94 9.3
8/30/2021 4:00:00 PM 18.4 65.12 0.031 6.37 3.91 9.29
8/30/2021 4:15:00 PM 18.4 65.12 0.031 6.37 3.92 9.28
8/30/2021 4:30:00 PM 18.39 65.102 0.031 6.32 3.69 9.23
8/30/2021 4:45:00 PM 18.38 65.084 0.031 6.34 3.59 9.21
8/30/2021 5:00:00 PM 18.36 65.048 0.031 6.32 3.66 9.19
8/30/2021 5:15:00 PM 18.36 65.048 0.031 6.32 3.74 9.18
8/30/2021 5:30:00 PM 18.34 65.012 0.031 6.3 3.78 9.17
8/30/2021 5:45:00 PM 18.3 64.94 0.031 6.28 3.8 9.16
8/30/2021 6:00:00 PM 18.26 64.868 0.031 6.28 3.58 9.17
8/30/2021 6:15:00 PM 18.25 64.85 0.031 6.24 3.53 9.16
8/30/2021 6:30:00 PM 18.23 64.814 0.031 6.28 3.4 9.16
8/30/2021 6:45:00 PM 18.21 64.778 0.031 6.24 3.65 9.13
8/30/2021 7:00:00 PM 18.18 64.724 0.031 6.26 3.71 9.14
8/30/2021 7:15:00 PM 18.16 64.688 0.031 6.24 3.79 9.12
8/30/2021 7:30:00 PM 18.13 64.634 0.032 6.2 3.48 9.1
8/30/2021 7:45:00 PM 18.1 64.58 0.032 6.2 3.58 9.1
8/30/2021 8:00:00 PM 18.08 64.544 0.032 6.19 3.51 9.09
8/30/2021 8:15:00 PM 18.06 64.508 0.032 6.21 3.62 9.1
8/30/2021 8:30:00 PM 18.03 64.454 0.032 6.18 3.53 9.1
8/30/2021 8:45:00 PM 18.01 64.418 0.032 6.17 3.73 9.09
8/30/2021 9:00:00 PM 18 64.4 0.032 6.17 3.63 9.1
8/30/2021 9:15:00 PM 17.99 64.382 0.032 6.17 3.7 9.11
8/30/2021 9:30:00 PM 17.97 64.346 0.032 6.18 3.55 9.11
8/30/2021 9:45:00 PM 17.96 64.328 0.032 6.18 3.49 9.11
8/30/2021 10:00:00 PM 17.95 64.31 0.032 6.19 3.42 9.11
8/30/2021 10:15:00 PM 17.93 64.274 0.032 6.17 3.61 9.11
8/30/2021 10:30:00 PM 17.91 64.238 0.032 6.18 3.53 9.11
8/30/2021 10:45:00 PM 17.9 64.22 0.032 6.19 3.69 9.12
8/30/2021 11:00:00 PM 17.88 64.184 0.032 6.19 3.32 9.12
8/30/2021 11:15:00 PM 17.87 64.166 0.032 6.2 3.65 9.13
8/30/2021 11:30:00 PM 17.86 64.148 0.032 6.2 3.57 9.13
8/30/2021 11:45:00 PM 17.84 64.112 0.032 6.19 3.52 9.13
8/31/2021 12:00:00 AM 17.83 64.094 0.032 6.21 3.51 9.14
8/31/2021 12:15:00 AM 17.82 64.076 0.032 6.19 3.6 9.12
8/31/2021 12:30:00 AM 17.8 64.04 0.032 6.22 3.55 9.14
8/31/2021 12:45:00 AM 17.78 64.004 0.032 6.21 3.31 9.15
8/31/2021 1:00:00 AM 17.76 63.968 0.032 6.23 3.35 9.15
8/31/2021 1:15:00 AM 17.74 63.932 0.032 6.22 3.46 9.15
8/31/2021 1:30:00 AM 17.72 63.896 0.032 6.23 3.48 9.16
8/31/2021 1:45:00 AM 17.7 63.86 0.032 6.22 3.36 9.17
8/31/2021 2:00:00 AM 17.68 63.824 0.032 6.24 3.36 9.18
8/31/2021 2:15:00 AM 17.66 63.788 0.032 6.22 3.27 9.16
8/31/2021 2:30:00 AM 17.64 63.752 0.032 6.22 3.3 9.17
8/31/2021 2:45:00 AM 17.61 63.698 0.032 6.22 3.33 9.18
8/31/2021 3:00:00 AM 17.6 63.68 0.032 6.23 3.33 9.18
8/31/2021 3:15:00 AM 17.58 63.644 0.032 6.22 3.37 9.19
8/31/2021 3:30:00 AM 17.56 63.608 0.032 6.23 3.17 9.19
8/31/2021 3:45:00 AM 17.54 63.572 0.032 6.22 3.24 9.19
8/31/2021 4:00:00 AM 17.51 63.518 0.032 6.21 3.31 9.2
8/31/2021 4:15:00 AM 17.49 63.482 0.032 6.2 3.16 9.2
8/31/2021 4:30:00 AM 17.47 63.446 0.032 6.21 3.26 9.21
8/31/2021 4:45:00 AM 17.45 63.41 0.032 6.22 3.33 9.22
8/31/2021 5:00:00 AM 17.43 63.374 0.032 6.21 3.31 9.2
8/31/2021 5:15:00 AM 17.41 63.338 0.032 6.21 3.31 9.21
8/31/2021 5:30:00 AM 17.39 63.302 0.032 6.23 3.26 9.23
8/31/2021 5:45:00 AM 17.37 63.266 0.032 6.22 3.36 9.23
8/31/2021 6:00:00 AM 17.35 63.23 0.032 6.22 3.33 9.22
8/31/2021 6:15:00 AM 17.33 63.194 0.032 6.21 3.15 9.23
8/31/2021 6:30:00 AM 17.31 63.158 0.032 6.21 3.32 9.23
8/31/2021 6:45:00 AM 17.29 63.122 0.032 6.23 3.33 9.24
8/31/2021 7:00:00 AM 17.27 63.086 0.032 6.23 3.46 9.26
8/31/2021 7:15:00 AM 17.26 63.068 0.032 6.21 3.13 9.24
8/31/2021 7:30:00 AM 17.24 63.032 0.032 6.22 3.19 9.26
8/31/2021 7:45:00 AM 17.23 63.014 0.032 6.24 3.24 9.28
8/31/2021 8:00:00 AM 17.22 62.996 0.032 6.23 3.13 9.3
8/31/2021 8:15:00 AM 17.2 62.96 0.032 6.25 3.26 9.32
8/31/2021 8:30:00 AM 17.2 62.96 0.032 6.25 3.11 9.33
8/31/2021 8:45:00 AM 17.2 62.96 0.032 6.25 3.05 9.36
8/31/2021 9:00:00 AM 17.19 62.942 0.032 6.25 3.21 9.37
8/31/2021 9:15:00 AM 17.2 62.96 0.032 6.26 3.2 9.39
8/31/2021 9:30:00 AM 17.2 62.96 0.032 6.27 3.19 9.4
8/31/2021 9:45:00 AM 17.2 62.96 0.032 6.29 3.01 9.41
8/31/2021 10:00:00 AM 17.21 62.978 0.032 6.27 3.12 9.42
8/31/2021 10:15:00 AM 17.22 62.996 0.032 6.27 2.99 9.43
8/31/2021 10:30:00 AM 17.24 63.032 0.032 6.3 2.99 9.46
8/31/2021 10:45:00 AM 17.25 63.05 0.032 6.29 3.11 9.45
8/31/2021 11:00:00 AM 17.28 63.104 0.032 6.32 3.11 9.48
8/31/2021 11:15:00 AM 17.3 63.14 0.032 6.33 3.14 9.49
8/31/2021 11:30:00 AM 17.33 63.194 0.032 6.31 3.08 9.48
8/31/2021 11:45:00 AM 17.36 63.248 0.032 6.31 3.02 9.47
8/31/2021 12:00:00 PM 17.4 63.32 0.032 6.32 3.1 9.47
8/31/2021 12:15:00 PM 17.44 63.392 0.032 6.36 3.2 9.49
8/31/2021 12:30:00 PM 17.5 63.5 0.032 6.36 3.01 9.49
8/31/2021 12:45:00 PM 17.59 63.662 0.032 6.32 2.98 9.45
8/31/2021 1:00:00 PM 17.72 63.896 0.032 6.37 3.08 9.44
8/31/2021 1:15:00 PM 17.8 64.04 0.032 6.36 2.9 9.42
8/31/2021 1:30:00 PM 17.89 64.202 0.032 6.38 3.14 9.42
8/31/2021 1:45:00 PM 18.02 64.436 0.032 6.37 3.17 9.4
8/31/2021 2:00:00 PM 18.14 64.652 0.032 6.39 3.02 9.38
8/31/2021 2:15:00 PM 18.28 64.904 0.032 6.38 3.44 9.37
8/31/2021 2:30:00 PM 18.45 65.21 0.032 6.42 3.03 9.36
8/31/2021 2:45:00 PM 18.52 65.336 0.032 6.43 3.2 9.34
8/31/2021 3:00:00 PM 18.56 65.408 0.032 6.42 3.04 9.31
8/31/2021 3:15:00 PM 18.56 65.408 0.032 6.39 2.93 9.28
8/31/2021 3:30:00 PM 18.54 65.372 0.032 6.4 3.23 9.28
8/31/2021 3:45:00 PM 18.51 65.318 0.032 6.41 3.18 9.28
8/31/2021 4:00:00 PM 18.5 65.3 0.032 6.38 3.01 9.26
8/31/2021 4:15:00 PM 18.51 65.318 0.032 6.4 3.04 9.25
8/31/2021 4:30:00 PM 18.51 65.318 0.032 6.36 3.11 9.22
8/31/2021 4:45:00 PM 18.46 65.228 0.032 6.36 2.93 9.21
8/31/2021 5:00:00 PM 18.43 65.174 0.032 6.33 2.9 9.22
8/31/2021 5:15:00 PM 18.39 65.102 0.032 6.35 2.95 9.24
8/31/2021 5:30:00 PM 18.35 65.03 0.032 6.34 2.92 9.24
8/31/2021 5:45:00 PM 18.3 64.94 0.032 6.3 3.08 9.19
8/31/2021 6:00:00 PM 18.24 64.832 0.032 6.26 2.93 9.17
8/31/2021 6:15:00 PM 18.18 64.724 0.032 6.25 2.9 9.16
8/31/2021 6:30:00 PM 18.12 64.616 0.032 6.25 3.08 9.16
8/31/2021 6:45:00 PM 18.07 64.526 0.032 6.25 2.85 9.16
8/31/2021 7:00:00 PM 18.03 64.454 0.032 6.25 3.03 9.16
8/31/2021 7:15:00 PM 17.98 64.364 0.032 6.25 2.97 9.15
8/31/2021 7:30:00 PM 17.94 64.292 0.032 6.26 3 9.14
8/31/2021 7:45:00 PM 17.9 64.22 0.032 6.24 2.86 9.13
8/31/2021 8:00:00 PM 17.87 64.166 0.032 6.23 3.15 9.12
8/31/2021 8:15:00 PM 17.84 64.112 0.032 6.25 3.09 9.12
8/31/2021 8:30:00 PM 17.81 64.058 0.032 6.24 2.93 9.13
8/31/2021 8:45:00 PM 17.79 64.022 0.032 6.25 3.2 9.12
8/31/2021 9:00:00 PM 17.77 63.986 0.032 6.25 3.03 9.13
8/31/2021 9:15:00 PM 17.75 63.95 0.032 6.25 3 9.14
8/31/2021 9:30:00 PM 17.72 63.896 0.033 6.24 3.01 9.13
8/31/2021 9:45:00 PM 17.7 63.86 0.032 6.24 3.06 9.14
8/31/2021 10:00:00 PM 17.68 63.824 0.032 6.27 3.15 9.16
8/31/2021 10:15:00 PM 17.66 63.788 0.032 6.25 3.11 9.15
8/31/2021 10:30:00 PM 17.64 63.752 0.032 6.26 3.12 9.16
8/31/2021 10:45:00 PM 17.62 63.716 0.032 6.27 3.02 9.16
8/31/2021 11:00:00 PM 17.61 63.698 0.033 6.27 2.95 9.17
8/31/2021 11:15:00 PM 17.59 63.662 0.033 6.25 2.96 9.16
8/31/2021 11:30:00 PM 17.57 63.626 0.033 6.24 3.05 9.17
8/31/2021 11:45:00 PM 17.56 63.608 0.032 6.26 3.07 9.17
9/1/2021 12:00:00 AM 17.54 63.572 0.032 6.26 3 9.19
9/1/2021 12:15:00 AM 17.52 63.536 0.032 6.25 3.07 9.19
9/1/2021 12:30:00 AM 17.5 63.5 0.032 6.26 2.95 9.19
9/1/2021 12:45:00 AM 17.47 63.446 0.033 6.27 3.06 9.19
9/1/2021 1:00:00 AM 17.45 63.41 0.033 6.28 2.95 9.2
9/1/2021 1:15:00 AM 17.43 63.374 0.033 6.27 3.02 9.2
9/1/2021 1:30:00 AM 17.41 63.338 0.033 6.28 3.04 9.21
9/1/2021 1:45:00 AM 17.39 63.302 0.033 6.26 2.87 9.21
9/1/2021 2:00:00 AM 17.37 63.266 0.033 6.28 2.99 9.22
9/1/2021 2:15:00 AM 17.34 63.212 0.033 6.26 2.79 9.21
9/1/2021 2:30:00 AM 17.32 63.176 0.033 6.29 3.29 9.23
9/1/2021 2:45:00 AM 17.3 63.14 0.033 6.28 2.94 9.22
9/1/2021 3:00:00 AM 17.28 63.104 0.033 6.28 2.95 9.23
9/1/2021 3:15:00 AM 17.25 63.05 0.033 6.28 2.93 9.24
9/1/2021 3:30:00 AM 17.24 63.032 0.033 6.26 2.87 9.23
9/1/2021 3:45:00 AM 17.21 62.978 0.033 6.27 2.84 9.25
9/1/2021 4:00:00 AM 17.19 62.942 0.033 6.28 2.77 9.25
9/1/2021 4:15:00 AM 17.18 62.924 0.033 6.26 2.79 9.24
9/1/2021 4:30:00 AM 17.16 62.888 0.033 6.28 2.94 9.26
9/1/2021 4:45:00 AM 17.14 62.852 0.033 6.28 3 9.26
9/1/2021 5:00:00 AM 17.12 62.816 0.033 6.28 2.78 9.26
9/1/2021 5:15:00 AM 17.1 62.78 0.033 6.28 3 9.26
9/1/2021 5:30:00 AM 17.08 62.744 0.033 6.28 2.96 9.27
9/1/2021 5:45:00 AM 17.07 62.726 0.033 6.29 2.8 9.27
9/1/2021 6:00:00 AM 17.05 62.69 0.033 6.28 2.99 9.27
9/1/2021 6:15:00 AM 17.03 62.654 0.033 6.28 2.98 9.27
9/1/2021 6:30:00 AM 17.01 62.618 0.033 6.25 3.16 9.28
9/1/2021 6:45:00 AM 16.99 62.582 0.033 6.26 3.19 9.27
9/1/2021 7:00:00 AM 16.96 62.528 0.033 6.3 2.89 9.29
9/1/2021 7:15:00 AM 16.94 62.492 0.033 6.29 2.97 9.29
9/1/2021 7:30:00 AM 16.92 62.456 0.032 6.29 3.31 9.31
9/1/2021 7:45:00 AM 16.9 62.42 0.032 6.28 3.37 9.32
9/1/2021 8:00:00 AM 16.88 62.384 0.032 6.29 3.5 9.33
9/1/2021 8:15:00 AM 16.86 62.348 0.033 6.28 3.68 9.34
9/1/2021 8:30:00 AM 16.85 62.33 0.032 6.31 3.34 9.36
9/1/2021 8:45:00 AM 16.83 62.294 0.033 6.31 3.47 9.38
9/1/2021 9:00:00 AM 16.82 62.276 0.032 6.33 3.66 9.39
9/1/2021 9:15:00 AM 16.81 62.258 0.033 6.3 3.73 9.39
9/1/2021 9:30:00 AM 16.8 62.24 0.033 6.32 4.12 9.41
9/1/2021 9:45:00 AM 16.79 62.222 0.033 6.32 4.21 9.43
9/1/2021 10:00:00 AM 16.8 62.24 0.033 6.32 4.06 9.45
9/1/2021 10:15:00 AM 16.81 62.258 0.033 6.35 4.42 9.47
9/1/2021 10:30:00 AM 16.81 62.258 0.033 6.36 3.89 9.5
9/1/2021 10:45:00 AM 16.8 62.24 0.033 6.36 4.52 9.47
9/1/2021 11:00:00 AM 16.79 62.222 0.033 6.34 4.24 9.44
9/1/2021 11:15:00 AM 16.78 62.204 0.033 6.35 4.57 9.47
9/1/2021 11:30:00 AM 16.78 62.204 0.033 6.33 4.62 9.46
9/1/2021 11:45:00 AM 16.79 62.222 0.032 6.35 4.83 9.48
9/1/2021 12:00:00 PM 16.79 62.222 0.032 6.34 5.01 9.5
9/1/2021 12:15:00 PM 16.79 62.222 0.032 6.37 4.9 9.52
9/1/2021 12:30:00 PM 16.79 62.222 0.032 6.36 5.26 9.51
9/1/2021 12:45:00 PM 16.78 62.204 0.032 6.36 5.09 9.49
9/1/2021 1:00:00 PM 16.76 62.168 0.032 6.36 5.25 9.48
9/1/2021 1:15:00 PM 16.75 62.15 0.032 6.35 5.16 9.46
9/1/2021 1:30:00 PM 16.73 62.114 0.032 6.35 5.18 9.46
9/1/2021 1:45:00 PM 16.73 62.114 0.032 6.34 6.06 9.47
9/1/2021 2:00:00 PM 16.72 62.096 0.032 6.35 5.9 9.48
9/1/2021 2:15:00 PM 16.7 62.06 0.032 6.37 5.75 9.48
9/1/2021 2:30:00 PM 16.69 62.042 0.032 6.37 5.32 9.48
9/1/2021 2:45:00 PM 16.68 62.024 0.032 6.35 5.71 9.48
9/1/2021 3:00:00 PM 16.67 62.006 0.032 6.36 5.35 9.47
9/1/2021 3:15:00 PM 16.66 61.988 0.032 6.34 5.47 9.47
9/1/2021 3:30:00 PM 16.65 61.97 0.032 6.35 5.75 9.48
9/1/2021 3:45:00 PM 16.64 61.952 0.032 6.38 6.27 9.49
9/1/2021 4:00:00 PM 16.62 61.916 0.032 6.35 6.22 9.48
9/1/2021 4:15:00 PM 16.61 61.898 0.032 6.37 6.29 9.48
9/1/2021 4:30:00 PM 16.6 61.88 0.032 6.36 6.6 9.48
9/1/2021 4:45:00 PM 16.6 61.88 0.032 6.34 6.56 9.49
9/1/2021 5:00:00 PM 16.6 61.88 0.032 6.38 7.06 9.5
9/1/2021 5:15:00 PM 16.61 61.898 0.032 6.39 6.83 9.52
9/1/2021 5:30:00 PM 16.6 61.88 0.032 6.37 7.02 9.51
9/1/2021 5:45:00 PM 16.58 61.844 0.032 6.38 6.56 9.5
9/1/2021 6:00:00 PM 16.57 61.826 0.032 6.35 6.26 9.49
9/1/2021 6:15:00 PM 16.56 61.808 0.032 6.36 6.51 9.48
9/1/2021 6:30:00 PM 16.54 61.772 0.032 6.35 6.23 9.47
9/1/2021 6:45:00 PM 16.52 61.736 0.032 6.34 5.9 9.46
9/1/2021 7:00:00 PM 16.5 61.7 0.032 6.33 5.55 9.45
9/1/2021 7:15:00 PM 16.49 61.682 0.032 6.34 5.71 9.46
9/1/2021 7:30:00 PM 16.47 61.646 0.032 6.34 5.28 9.46
9/1/2021 7:45:00 PM 16.45 61.61 0.032 6.33 5.24 9.47
9/1/2021 8:00:00 PM 16.43 61.574 0.032 6.33 5.53 9.47
9/1/2021 8:15:00 PM 16.4 61.52 0.032 6.32 5.3 9.47
9/1/2021 8:30:00 PM 16.37 61.466 0.032 6.31 5.41 9.47
9/1/2021 8:45:00 PM 16.34 61.412 0.032 6.3 5.64 9.48
9/1/2021 9:00:00 PM 16.3 61.34 0.031 6.34 5.53 9.49
9/1/2021 9:15:00 PM 16.27 61.286 0.031 6.32 5.9 9.5
9/1/2021 9:30:00 PM 16.23 61.214 0.031 6.32 5.67 9.5
9/1/2021 9:45:00 PM 16.18 61.124 0.031 6.31 5.45 9.51
9/1/2021 10:00:00 PM 16.14 61.052 0.031 6.32 5.35 9.52
9/1/2021 10:15:00 PM 16.1 60.98 0.031 6.3 5.59 9.53
9/1/2021 10:30:00 PM 16.05 60.89 0.031 6.29 5.21 9.54
9/1/2021 10:45:00 PM 16 60.8 0.031 6.29 4.77 9.56
9/1/2021 11:00:00 PM 15.95 60.71 0.031 6.29 5.13 9.56
9/1/2021 11:15:00 PM 15.9 60.62 0.031 6.29 4.61 9.57
9/1/2021 11:30:00 PM 15.84 60.512 0.031 6.29 4.91 9.58
9/1/2021 11:45:00 PM 15.78 60.404 0.031 6.28 4.65 9.6
9/2/2021 12:00:00 AM 15.73 60.314 0.031 6.28 4.49 9.61
9/2/2021 12:15:00 AM 15.68 60.224 0.031 6.3 4.24 9.62
9/2/2021 12:30:00 AM 15.62 60.116 0.031 6.27 4.18 9.64
9/2/2021 12:45:00 AM 15.57 60.026 0.031 6.27 4.23 9.64
9/2/2021 1:00:00 AM 15.52 59.936 0.031 6.27 4.18 9.66
9/2/2021 1:15:00 AM 15.47 59.846 0.031 6.28 4.19 9.67
9/2/2021 1:30:00 AM 15.41 59.738 0.031 6.28 4.22 9.68
9/2/2021 1:45:00 AM 15.35 59.63 0.031 6.26 4.16 9.7
9/2/2021 2:00:00 AM 15.3 59.54 0.031 6.27 4.01 9.71
9/2/2021 2:15:00 AM 15.25 59.45 0.031 6.29 3.93 9.72
9/2/2021 2:30:00 AM 15.2 59.36 0.031 6.28 4.02 9.74
9/2/2021 2:45:00 AM 15.14 59.252 0.031 6.28 4 9.75
9/2/2021 3:00:00 AM 15.1 59.18 0.031 6.26 3.95 9.74
9/2/2021 3:15:00 AM 15.03 59.054 0.031 6.26 3.8 9.77
9/2/2021 3:30:00 AM 14.98 58.964 0.031 6.27 3.91 9.78
9/2/2021 3:45:00 AM 14.92 58.856 0.031 6.27 3.87 9.8
9/2/2021 4:00:00 AM 14.87 58.766 0.031 6.27 3.76 9.81
9/2/2021 4:15:00 AM 14.82 58.676 0.031 6.27 3.74 9.82
9/2/2021 4:30:00 AM 14.78 58.604 0.031 6.29 3.69 9.83
9/2/2021 4:45:00 AM 14.73 58.514 0.031 6.24 3.6 9.83
9/2/2021 5:00:00 AM 14.68 58.424 0.031 6.25 3.67 9.85
9/2/2021 5:15:00 AM 14.64 58.352 0.031 6.25 3.5 9.86
9/2/2021 5:30:00 AM 14.61 58.298 0.031 6.25 3.53 9.85
9/2/2021 5:45:00 AM 14.56 58.208 0.031 6.26 3.65 9.87
9/2/2021 6:00:00 AM 14.51 58.118 0.031 6.26 3.54 9.88
9/2/2021 6:15:00 AM 14.47 58.046 0.031 6.27 3.82 9.89
9/2/2021 6:30:00 AM 14.43 57.974 0.031 6.24 3.54 9.9
9/2/2021 6:45:00 AM 14.4 57.92 0.031 6.25 3.33 9.91
9/2/2021 7:00:00 AM 14.36 57.848 0.031 6.24 3.52 9.92
9/2/2021 7:15:00 AM 14.33 57.794 0.031 6.27 3.5 9.95
9/2/2021 7:30:00 AM 14.31 57.758 0.031 6.25 3.54 9.96
9/2/2021 7:45:00 AM 14.29 57.722 0.031 6.27 3.4 10
9/2/2021 8:00:00 AM 14.26 57.668 0.031 6.29 3.22 10.03
9/2/2021 8:15:00 AM 14.27 57.686 0.031 6.3 3.31 10.06
9/2/2021 8:30:00 AM 14.29 57.722 0.031 6.29 3.15 10.08
9/2/2021 8:45:00 AM 14.29 57.722 0.031 6.31 3.1 10.09
9/2/2021 9:00:00 AM 14.28 57.704 0.031 6.31 3.25 10.08
9/2/2021 9:15:00 AM 14.27 57.686 0.031 6.31 3.15 10.09
9/2/2021 9:30:00 AM 14.29 57.722 0.031 6.32 3.16 10.1
9/2/2021 9:45:00 AM 14.32 57.776 0.031 6.33 3.09 10.09
9/2/2021 10:00:00 AM 14.36 57.848 0.031 6.34 2.99 10.08
9/2/2021 10:15:00 AM 14.4 57.92 0.031 6.32